<?xml version="1.0" encoding="UTF-8" standalone="no" ?>
<gpx xmlns="http://www.topografix.com/GPX/1/1" xmlns:xsi="http://www.w3.org/2001/XMLSchema-instance" xsi:schemaLocation="http://www.topografix.com/GPX/1/1 http://www.topografix.com/GPX/1/1/gpx.xsd" version="1.1" creator="VisuGPX - https://www.visugpx.com">
  <metadata>
    <name>CHATEAU MENTONE SAINT ANTONIN DU VAR</name>
    <desc><![CDATA[Randonnée de 12 km autour du château mantonne à Saint Antonin du Var. ]]></desc>
  </metadata>
  <trk>
    <name><![CDATA[Tracé actuel: 28 SEP 2015 09:57]]></name>
    <trkseg>
      <trkpt lat="43.52523" lon="6.27697">
        <ele>192.88</ele>
        <time>2015-09-28T07:57:36Z</time>
      </trkpt>
      <trkpt lat="43.52526" lon="6.277">
        <ele>199.61</ele>
        <time>2015-09-28T07:58:01Z</time>
      </trkpt>
      <trkpt lat="43.52525" lon="6.27701">
        <ele>199.61</ele>
        <time>2015-09-28T07:58:02Z</time>
      </trkpt>
      <trkpt lat="43.52524" lon="6.27702">
        <ele>203.94</ele>
        <time>2015-09-28T07:58:04Z</time>
      </trkpt>
      <trkpt lat="43.52524" lon="6.27703">
        <ele>209.22</ele>
        <time>2015-09-28T07:58:07Z</time>
      </trkpt>
      <trkpt lat="43.52524" lon="6.27702">
        <ele>213.07</ele>
        <time>2015-09-28T07:58:10Z</time>
      </trkpt>
      <trkpt lat="43.52524" lon="6.27703">
        <ele>216.43</ele>
        <time>2015-09-28T07:58:12Z</time>
      </trkpt>
      <trkpt lat="43.52526" lon="6.27704">
        <ele>220.28</ele>
        <time>2015-09-28T07:58:15Z</time>
      </trkpt>
      <trkpt lat="43.52526" lon="6.27705">
        <ele>223.64</ele>
        <time>2015-09-28T07:58:18Z</time>
      </trkpt>
      <trkpt lat="43.52527" lon="6.27705">
        <ele>227.49</ele>
        <time>2015-09-28T07:58:21Z</time>
      </trkpt>
      <trkpt lat="43.52527" lon="6.27705">
        <ele>230.37</ele>
        <time>2015-09-28T07:58:24Z</time>
      </trkpt>
      <trkpt lat="43.52527" lon="6.27706">
        <ele>234.7</ele>
        <time>2015-09-28T07:58:28Z</time>
      </trkpt>
      <trkpt lat="43.52528" lon="6.27707">
        <ele>238.06</ele>
        <time>2015-09-28T07:58:32Z</time>
      </trkpt>
      <trkpt lat="43.52528" lon="6.27707">
        <ele>241.43</ele>
        <time>2015-09-28T07:58:36Z</time>
      </trkpt>
      <trkpt lat="43.52529" lon="6.27707">
        <ele>244.31</ele>
        <time>2015-09-28T07:58:40Z</time>
      </trkpt>
      <trkpt lat="43.52531" lon="6.27707">
        <ele>247.68</ele>
        <time>2015-09-28T07:58:46Z</time>
      </trkpt>
      <trkpt lat="43.52531" lon="6.27708">
        <ele>250.56</ele>
        <time>2015-09-28T07:58:53Z</time>
      </trkpt>
      <trkpt lat="43.5253" lon="6.27708">
        <ele>254.41</ele>
        <time>2015-09-28T07:59:02Z</time>
      </trkpt>
      <trkpt lat="43.52526" lon="6.27706">
        <ele>254.89</ele>
        <time>2015-09-28T07:59:26Z</time>
      </trkpt>
      <trkpt lat="43.52526" lon="6.27707">
        <ele>254.89</ele>
        <time>2015-09-28T07:59:48Z</time>
      </trkpt>
      <trkpt lat="43.52525" lon="6.27706">
        <ele>254.41</ele>
        <time>2015-09-28T08:00:14Z</time>
      </trkpt>
      <trkpt lat="43.52525" lon="6.27705">
        <ele>254.89</ele>
        <time>2015-09-28T08:00:39Z</time>
      </trkpt>
      <trkpt lat="43.52525" lon="6.27704">
        <ele>254.89</ele>
        <time>2015-09-28T08:01:09Z</time>
      </trkpt>
      <trkpt lat="43.52524" lon="6.27704">
        <ele>254.89</ele>
        <time>2015-09-28T08:01:39Z</time>
      </trkpt>
      <trkpt lat="43.52524" lon="6.27703">
        <ele>254.89</ele>
        <time>2015-09-28T08:02:08Z</time>
      </trkpt>
      <trkpt lat="43.52525" lon="6.27703">
        <ele>254.89</ele>
        <time>2015-09-28T08:02:32Z</time>
      </trkpt>
      <trkpt lat="43.52524" lon="6.27704">
        <ele>254.89</ele>
        <time>2015-09-28T08:02:54Z</time>
      </trkpt>
      <trkpt lat="43.52523" lon="6.27703">
        <ele>254.89</ele>
        <time>2015-09-28T08:03:12Z</time>
      </trkpt>
      <trkpt lat="43.52523" lon="6.27703">
        <ele>254.89</ele>
        <time>2015-09-28T08:03:34Z</time>
      </trkpt>
      <trkpt lat="43.52524" lon="6.27703">
        <ele>254.89</ele>
        <time>2015-09-28T08:03:55Z</time>
      </trkpt>
      <trkpt lat="43.52524" lon="6.27703">
        <ele>254.89</ele>
        <time>2015-09-28T08:04:18Z</time>
      </trkpt>
      <trkpt lat="43.52524" lon="6.27703">
        <ele>254.41</ele>
        <time>2015-09-28T08:04:50Z</time>
      </trkpt>
      <trkpt lat="43.52524" lon="6.27703">
        <ele>254.89</ele>
        <time>2015-09-28T08:05:18Z</time>
      </trkpt>
      <trkpt lat="43.52523" lon="6.27703">
        <ele>254.89</ele>
        <time>2015-09-28T08:05:50Z</time>
      </trkpt>
      <trkpt lat="43.52523" lon="6.27704">
        <ele>254.41</ele>
        <time>2015-09-28T08:06:21Z</time>
      </trkpt>
      <trkpt lat="43.52523" lon="6.27705">
        <ele>254.41</ele>
        <time>2015-09-28T08:06:45Z</time>
      </trkpt>
      <trkpt lat="43.52523" lon="6.27704">
        <ele>254.41</ele>
        <time>2015-09-28T08:07:06Z</time>
      </trkpt>
      <trkpt lat="43.52523" lon="6.27705">
        <ele>254.41</ele>
        <time>2015-09-28T08:07:28Z</time>
      </trkpt>
      <trkpt lat="43.52523" lon="6.27705">
        <ele>254.41</ele>
        <time>2015-09-28T08:07:48Z</time>
      </trkpt>
      <trkpt lat="43.52522" lon="6.27705">
        <ele>254.41</ele>
        <time>2015-09-28T08:08:17Z</time>
      </trkpt>
      <trkpt lat="43.52522" lon="6.27705">
        <ele>254.41</ele>
        <time>2015-09-28T08:08:51Z</time>
      </trkpt>
      <trkpt lat="43.52522" lon="6.27705">
        <ele>254.41</ele>
        <time>2015-09-28T08:09:25Z</time>
      </trkpt>
      <trkpt lat="43.52524" lon="6.27698">
        <ele>254.41</ele>
        <time>2015-09-28T08:09:52Z</time>
      </trkpt>
      <trkpt lat="43.52526" lon="6.27692">
        <ele>254.41</ele>
        <time>2015-09-28T08:10:05Z</time>
      </trkpt>
      <trkpt lat="43.52531" lon="6.27685">
        <ele>254.41</ele>
        <time>2015-09-28T08:10:12Z</time>
      </trkpt>
      <trkpt lat="43.52539" lon="6.27676">
        <ele>254.41</ele>
        <time>2015-09-28T08:10:23Z</time>
      </trkpt>
      <trkpt lat="43.52545" lon="6.27673">
        <ele>254.89</ele>
        <time>2015-09-28T08:10:29Z</time>
      </trkpt>
      <trkpt lat="43.52549" lon="6.27669">
        <ele>254.89</ele>
        <time>2015-09-28T08:10:34Z</time>
      </trkpt>
      <trkpt lat="43.52552" lon="6.27663">
        <ele>254.89</ele>
        <time>2015-09-28T08:10:39Z</time>
      </trkpt>
      <trkpt lat="43.52558" lon="6.27643">
        <ele>254.89</ele>
        <time>2015-09-28T08:10:52Z</time>
      </trkpt>
      <trkpt lat="43.52564" lon="6.27622">
        <ele>254.41</ele>
        <time>2015-09-28T08:11:07Z</time>
      </trkpt>
      <trkpt lat="43.52565" lon="6.27619">
        <ele>254.41</ele>
        <time>2015-09-28T08:11:09Z</time>
      </trkpt>
      <trkpt lat="43.52561" lon="6.27591">
        <ele>253.93</ele>
        <time>2015-09-28T08:11:25Z</time>
      </trkpt>
      <trkpt lat="43.52556" lon="6.27572">
        <ele>252.96</ele>
        <time>2015-09-28T08:11:37Z</time>
      </trkpt>
      <trkpt lat="43.52548" lon="6.27546">
        <ele>252</ele>
        <time>2015-09-28T08:11:53Z</time>
      </trkpt>
      <trkpt lat="43.52541" lon="6.27525">
        <ele>251.52</ele>
        <time>2015-09-28T08:12:06Z</time>
      </trkpt>
      <trkpt lat="43.52534" lon="6.27505">
        <ele>251.52</ele>
        <time>2015-09-28T08:12:18Z</time>
      </trkpt>
      <trkpt lat="43.52529" lon="6.275">
        <ele>251.52</ele>
        <time>2015-09-28T08:12:23Z</time>
      </trkpt>
      <trkpt lat="43.52523" lon="6.27499">
        <ele>251.52</ele>
        <time>2015-09-28T08:12:28Z</time>
      </trkpt>
      <trkpt lat="43.52519" lon="6.27499">
        <ele>251.52</ele>
        <time>2015-09-28T08:12:31Z</time>
      </trkpt>
      <trkpt lat="43.52509" lon="6.27522">
        <ele>251.52</ele>
        <time>2015-09-28T08:12:46Z</time>
      </trkpt>
      <trkpt lat="43.52505" lon="6.2753">
        <ele>251.52</ele>
        <time>2015-09-28T08:12:51Z</time>
      </trkpt>
      <trkpt lat="43.52498" lon="6.27553">
        <ele>251.52</ele>
        <time>2015-09-28T08:13:05Z</time>
      </trkpt>
      <trkpt lat="43.52492" lon="6.27576">
        <ele>251.52</ele>
        <time>2015-09-28T08:13:19Z</time>
      </trkpt>
      <trkpt lat="43.52487" lon="6.276">
        <ele>251.04</ele>
        <time>2015-09-28T08:13:33Z</time>
      </trkpt>
      <trkpt lat="43.52484" lon="6.27608">
        <ele>251.52</ele>
        <time>2015-09-28T08:13:38Z</time>
      </trkpt>
      <trkpt lat="43.52479" lon="6.2762">
        <ele>251.04</ele>
        <time>2015-09-28T08:13:53Z</time>
      </trkpt>
      <trkpt lat="43.52479" lon="6.2762">
        <ele>251.04</ele>
        <time>2015-09-28T08:14:08Z</time>
      </trkpt>
      <trkpt lat="43.52479" lon="6.27622">
        <ele>251.52</ele>
        <time>2015-09-28T08:14:11Z</time>
      </trkpt>
      <trkpt lat="43.52473" lon="6.27639">
        <ele>251.04</ele>
        <time>2015-09-28T08:14:25Z</time>
      </trkpt>
      <trkpt lat="43.52466" lon="6.2766">
        <ele>251.04</ele>
        <time>2015-09-28T08:14:41Z</time>
      </trkpt>
      <trkpt lat="43.52464" lon="6.27666">
        <ele>251.04</ele>
        <time>2015-09-28T08:14:45Z</time>
      </trkpt>
      <trkpt lat="43.52461" lon="6.27672">
        <ele>251.04</ele>
        <time>2015-09-28T08:14:49Z</time>
      </trkpt>
      <trkpt lat="43.52453" lon="6.27696">
        <ele>251.04</ele>
        <time>2015-09-28T08:15:04Z</time>
      </trkpt>
      <trkpt lat="43.52446" lon="6.27719">
        <ele>251.04</ele>
        <time>2015-09-28T08:15:18Z</time>
      </trkpt>
      <trkpt lat="43.52442" lon="6.27732">
        <ele>250.56</ele>
        <time>2015-09-28T08:15:26Z</time>
      </trkpt>
      <trkpt lat="43.52437" lon="6.27751">
        <ele>250.56</ele>
        <time>2015-09-28T08:15:39Z</time>
      </trkpt>
      <trkpt lat="43.52434" lon="6.27758">
        <ele>250.56</ele>
        <time>2015-09-28T08:15:43Z</time>
      </trkpt>
      <trkpt lat="43.52432" lon="6.27765">
        <ele>250.56</ele>
        <time>2015-09-28T08:15:47Z</time>
      </trkpt>
      <trkpt lat="43.52428" lon="6.27779">
        <ele>250.56</ele>
        <time>2015-09-28T08:15:55Z</time>
      </trkpt>
      <trkpt lat="43.52421" lon="6.27801">
        <ele>250.56</ele>
        <time>2015-09-28T08:16:09Z</time>
      </trkpt>
      <trkpt lat="43.52418" lon="6.27812">
        <ele>250.56</ele>
        <time>2015-09-28T08:16:16Z</time>
      </trkpt>
      <trkpt lat="43.52415" lon="6.27822">
        <ele>250.56</ele>
        <time>2015-09-28T08:16:22Z</time>
      </trkpt>
      <trkpt lat="43.52409" lon="6.27848">
        <ele>250.08</ele>
        <time>2015-09-28T08:16:37Z</time>
      </trkpt>
      <trkpt lat="43.52401" lon="6.27871">
        <ele>250.08</ele>
        <time>2015-09-28T08:16:51Z</time>
      </trkpt>
      <trkpt lat="43.52393" lon="6.27898">
        <ele>250.08</ele>
        <time>2015-09-28T08:17:07Z</time>
      </trkpt>
      <trkpt lat="43.5239" lon="6.27909">
        <ele>250.08</ele>
        <time>2015-09-28T08:17:14Z</time>
      </trkpt>
      <trkpt lat="43.52381" lon="6.27933">
        <ele>249.6</ele>
        <time>2015-09-28T08:17:30Z</time>
      </trkpt>
      <trkpt lat="43.52373" lon="6.27955">
        <ele>250.08</ele>
        <time>2015-09-28T08:17:44Z</time>
      </trkpt>
      <trkpt lat="43.52366" lon="6.27968">
        <ele>250.08</ele>
        <time>2015-09-28T08:17:53Z</time>
      </trkpt>
      <trkpt lat="43.52354" lon="6.27989">
        <ele>249.6</ele>
        <time>2015-09-28T08:18:08Z</time>
      </trkpt>
      <trkpt lat="43.52345" lon="6.28009">
        <ele>249.12</ele>
        <time>2015-09-28T08:18:21Z</time>
      </trkpt>
      <trkpt lat="43.52341" lon="6.28016">
        <ele>249.12</ele>
        <time>2015-09-28T08:18:26Z</time>
      </trkpt>
      <trkpt lat="43.52339" lon="6.28023">
        <ele>249.12</ele>
        <time>2015-09-28T08:18:30Z</time>
      </trkpt>
      <trkpt lat="43.52327" lon="6.28043">
        <ele>249.12</ele>
        <time>2015-09-28T08:18:45Z</time>
      </trkpt>
      <trkpt lat="43.52322" lon="6.28051">
        <ele>249.12</ele>
        <time>2015-09-28T08:18:51Z</time>
      </trkpt>
      <trkpt lat="43.52307" lon="6.2807">
        <ele>248.64</ele>
        <time>2015-09-28T08:19:07Z</time>
      </trkpt>
      <trkpt lat="43.52297" lon="6.28082">
        <ele>248.64</ele>
        <time>2015-09-28T08:19:17Z</time>
      </trkpt>
      <trkpt lat="43.52292" lon="6.2809">
        <ele>248.64</ele>
        <time>2015-09-28T08:19:23Z</time>
      </trkpt>
      <trkpt lat="43.52286" lon="6.28096">
        <ele>248.64</ele>
        <time>2015-09-28T08:19:29Z</time>
      </trkpt>
      <trkpt lat="43.52283" lon="6.28104">
        <ele>248.64</ele>
        <time>2015-09-28T08:19:33Z</time>
      </trkpt>
      <trkpt lat="43.52275" lon="6.28112">
        <ele>248.64</ele>
        <time>2015-09-28T08:19:41Z</time>
      </trkpt>
      <trkpt lat="43.52258" lon="6.28132">
        <ele>248.16</ele>
        <time>2015-09-28T08:19:58Z</time>
      </trkpt>
      <trkpt lat="43.52246" lon="6.28143">
        <ele>248.16</ele>
        <time>2015-09-28T08:20:09Z</time>
      </trkpt>
      <trkpt lat="43.52233" lon="6.28155">
        <ele>248.16</ele>
        <time>2015-09-28T08:20:21Z</time>
      </trkpt>
      <trkpt lat="43.52217" lon="6.28169">
        <ele>247.68</ele>
        <time>2015-09-28T08:20:36Z</time>
      </trkpt>
      <trkpt lat="43.52211" lon="6.28175">
        <ele>247.68</ele>
        <time>2015-09-28T08:20:43Z</time>
      </trkpt>
      <trkpt lat="43.52206" lon="6.28179">
        <ele>247.68</ele>
        <time>2015-09-28T08:20:57Z</time>
      </trkpt>
      <trkpt lat="43.52206" lon="6.28182">
        <ele>247.68</ele>
        <time>2015-09-28T08:21:16Z</time>
      </trkpt>
      <trkpt lat="43.52209" lon="6.28185">
        <ele>247.68</ele>
        <time>2015-09-28T08:21:21Z</time>
      </trkpt>
      <trkpt lat="43.52217" lon="6.28195">
        <ele>247.68</ele>
        <time>2015-09-28T08:21:32Z</time>
      </trkpt>
      <trkpt lat="43.52222" lon="6.28196">
        <ele>247.68</ele>
        <time>2015-09-28T08:21:42Z</time>
      </trkpt>
      <trkpt lat="43.52219" lon="6.28195">
        <ele>247.68</ele>
        <time>2015-09-28T08:21:44Z</time>
      </trkpt>
      <trkpt lat="43.52208" lon="6.28184">
        <ele>247.2</ele>
        <time>2015-09-28T08:21:55Z</time>
      </trkpt>
      <trkpt lat="43.52203" lon="6.28181">
        <ele>247.2</ele>
        <time>2015-09-28T08:21:59Z</time>
      </trkpt>
      <trkpt lat="43.52195" lon="6.28181">
        <ele>247.2</ele>
        <time>2015-09-28T08:22:07Z</time>
      </trkpt>
      <trkpt lat="43.52182" lon="6.2819">
        <ele>247.2</ele>
        <time>2015-09-28T08:22:18Z</time>
      </trkpt>
      <trkpt lat="43.52179" lon="6.28193">
        <ele>247.2</ele>
        <time>2015-09-28T08:22:21Z</time>
      </trkpt>
      <trkpt lat="43.52173" lon="6.28198">
        <ele>246.72</ele>
        <time>2015-09-28T08:22:28Z</time>
      </trkpt>
      <trkpt lat="43.5217" lon="6.282">
        <ele>247.2</ele>
        <time>2015-09-28T08:22:30Z</time>
      </trkpt>
      <trkpt lat="43.52154" lon="6.28209">
        <ele>247.2</ele>
        <time>2015-09-28T08:22:44Z</time>
      </trkpt>
      <trkpt lat="43.52137" lon="6.28223">
        <ele>247.2</ele>
        <time>2015-09-28T08:23:00Z</time>
      </trkpt>
      <trkpt lat="43.52122" lon="6.28232">
        <ele>246.72</ele>
        <time>2015-09-28T08:23:11Z</time>
      </trkpt>
      <trkpt lat="43.52119" lon="6.28235">
        <ele>246.72</ele>
        <time>2015-09-28T08:23:14Z</time>
      </trkpt>
      <trkpt lat="43.52103" lon="6.28242">
        <ele>246.72</ele>
        <time>2015-09-28T08:23:25Z</time>
      </trkpt>
      <trkpt lat="43.52086" lon="6.28246">
        <ele>246.23</ele>
        <time>2015-09-28T08:23:39Z</time>
      </trkpt>
      <trkpt lat="43.5207" lon="6.28257">
        <ele>246.23</ele>
        <time>2015-09-28T08:23:51Z</time>
      </trkpt>
      <trkpt lat="43.52058" lon="6.28265">
        <ele>246.23</ele>
        <time>2015-09-28T08:24:06Z</time>
      </trkpt>
      <trkpt lat="43.52056" lon="6.28266">
        <ele>246.23</ele>
        <time>2015-09-28T08:24:08Z</time>
      </trkpt>
      <trkpt lat="43.52043" lon="6.2827">
        <ele>246.23</ele>
        <time>2015-09-28T08:24:18Z</time>
      </trkpt>
      <trkpt lat="43.52041" lon="6.28272">
        <ele>246.23</ele>
        <time>2015-09-28T08:24:20Z</time>
      </trkpt>
      <trkpt lat="43.52035" lon="6.28273">
        <ele>246.23</ele>
        <time>2015-09-28T08:24:24Z</time>
      </trkpt>
      <trkpt lat="43.52022" lon="6.28281">
        <ele>246.23</ele>
        <time>2015-09-28T08:24:35Z</time>
      </trkpt>
      <trkpt lat="43.52019" lon="6.28283">
        <ele>246.23</ele>
        <time>2015-09-28T08:24:37Z</time>
      </trkpt>
      <trkpt lat="43.52006" lon="6.28288">
        <ele>246.23</ele>
        <time>2015-09-28T08:24:49Z</time>
      </trkpt>
      <trkpt lat="43.51998" lon="6.2829">
        <ele>245.75</ele>
        <time>2015-09-28T08:25:04Z</time>
      </trkpt>
      <trkpt lat="43.51994" lon="6.28289">
        <ele>245.75</ele>
        <time>2015-09-28T08:25:19Z</time>
      </trkpt>
      <trkpt lat="43.51989" lon="6.28292">
        <ele>245.75</ele>
        <time>2015-09-28T08:25:25Z</time>
      </trkpt>
      <trkpt lat="43.51974" lon="6.28299">
        <ele>245.75</ele>
        <time>2015-09-28T08:25:39Z</time>
      </trkpt>
      <trkpt lat="43.51958" lon="6.28309">
        <ele>245.27</ele>
        <time>2015-09-28T08:25:53Z</time>
      </trkpt>
      <trkpt lat="43.51942" lon="6.28316">
        <ele>245.27</ele>
        <time>2015-09-28T08:26:06Z</time>
      </trkpt>
      <trkpt lat="43.5193" lon="6.28322">
        <ele>245.27</ele>
        <time>2015-09-28T08:26:17Z</time>
      </trkpt>
      <trkpt lat="43.51928" lon="6.28323">
        <ele>245.27</ele>
        <time>2015-09-28T08:26:19Z</time>
      </trkpt>
      <trkpt lat="43.51908" lon="6.28337">
        <ele>244.79</ele>
        <time>2015-09-28T08:26:32Z</time>
      </trkpt>
      <trkpt lat="43.51892" lon="6.28347">
        <ele>244.31</ele>
        <time>2015-09-28T08:26:43Z</time>
      </trkpt>
      <trkpt lat="43.51884" lon="6.28353">
        <ele>244.79</ele>
        <time>2015-09-28T08:26:49Z</time>
      </trkpt>
      <trkpt lat="43.51871" lon="6.28365">
        <ele>244.31</ele>
        <time>2015-09-28T08:27:02Z</time>
      </trkpt>
      <trkpt lat="43.51868" lon="6.28369">
        <ele>245.27</ele>
        <time>2015-09-28T08:27:05Z</time>
      </trkpt>
      <trkpt lat="43.51858" lon="6.28387">
        <ele>243.83</ele>
        <time>2015-09-28T08:27:17Z</time>
      </trkpt>
      <trkpt lat="43.51857" lon="6.28388">
        <ele>243.83</ele>
        <time>2015-09-28T08:27:18Z</time>
      </trkpt>
      <trkpt lat="43.5185" lon="6.28397">
        <ele>243.83</ele>
        <time>2015-09-28T08:27:25Z</time>
      </trkpt>
      <trkpt lat="43.51843" lon="6.28411">
        <ele>243.83</ele>
        <time>2015-09-28T08:27:36Z</time>
      </trkpt>
      <trkpt lat="43.51837" lon="6.28427">
        <ele>243.83</ele>
        <time>2015-09-28T08:27:46Z</time>
      </trkpt>
      <trkpt lat="43.51832" lon="6.28437">
        <ele>243.83</ele>
        <time>2015-09-28T08:27:53Z</time>
      </trkpt>
      <trkpt lat="43.5183" lon="6.28443">
        <ele>243.83</ele>
        <time>2015-09-28T08:27:57Z</time>
      </trkpt>
      <trkpt lat="43.51825" lon="6.28469">
        <ele>243.35</ele>
        <time>2015-09-28T08:28:13Z</time>
      </trkpt>
      <trkpt lat="43.51822" lon="6.28497">
        <ele>243.35</ele>
        <time>2015-09-28T08:28:29Z</time>
      </trkpt>
      <trkpt lat="43.5182" lon="6.28516">
        <ele>242.87</ele>
        <time>2015-09-28T08:28:40Z</time>
      </trkpt>
      <trkpt lat="43.51821" lon="6.28525">
        <ele>242.87</ele>
        <time>2015-09-28T08:28:56Z</time>
      </trkpt>
      <trkpt lat="43.51823" lon="6.28539">
        <ele>242.87</ele>
        <time>2015-09-28T08:29:11Z</time>
      </trkpt>
      <trkpt lat="43.51826" lon="6.28553">
        <ele>242.39</ele>
        <time>2015-09-28T08:29:20Z</time>
      </trkpt>
      <trkpt lat="43.51829" lon="6.28573">
        <ele>242.39</ele>
        <time>2015-09-28T08:29:31Z</time>
      </trkpt>
      <trkpt lat="43.51834" lon="6.286">
        <ele>241.91</ele>
        <time>2015-09-28T08:29:45Z</time>
      </trkpt>
      <trkpt lat="43.51834" lon="6.28602">
        <ele>241.91</ele>
        <time>2015-09-28T08:29:46Z</time>
      </trkpt>
      <trkpt lat="43.51845" lon="6.28625">
        <ele>241.43</ele>
        <time>2015-09-28T08:30:02Z</time>
      </trkpt>
      <trkpt lat="43.51855" lon="6.28647">
        <ele>240.95</ele>
        <time>2015-09-28T08:30:17Z</time>
      </trkpt>
      <trkpt lat="43.51866" lon="6.28672">
        <ele>240.47</ele>
        <time>2015-09-28T08:30:34Z</time>
      </trkpt>
      <trkpt lat="43.51868" lon="6.28675">
        <ele>240.47</ele>
        <time>2015-09-28T08:30:37Z</time>
      </trkpt>
      <trkpt lat="43.51869" lon="6.28678">
        <ele>240.47</ele>
        <time>2015-09-28T08:30:39Z</time>
      </trkpt>
      <trkpt lat="43.51879" lon="6.28702">
        <ele>240.47</ele>
        <time>2015-09-28T08:30:55Z</time>
      </trkpt>
      <trkpt lat="43.51889" lon="6.28722">
        <ele>240.47</ele>
        <time>2015-09-28T08:31:08Z</time>
      </trkpt>
      <trkpt lat="43.51897" lon="6.28741">
        <ele>239.99</ele>
        <time>2015-09-28T08:31:22Z</time>
      </trkpt>
      <trkpt lat="43.519" lon="6.28748">
        <ele>239.99</ele>
        <time>2015-09-28T08:31:27Z</time>
      </trkpt>
      <trkpt lat="43.51902" lon="6.28751">
        <ele>239.99</ele>
        <time>2015-09-28T08:31:29Z</time>
      </trkpt>
      <trkpt lat="43.51911" lon="6.28776">
        <ele>239.99</ele>
        <time>2015-09-28T08:31:45Z</time>
      </trkpt>
      <trkpt lat="43.51916" lon="6.28794">
        <ele>239.99</ele>
        <time>2015-09-28T08:31:57Z</time>
      </trkpt>
      <trkpt lat="43.51916" lon="6.28797">
        <ele>239.99</ele>
        <time>2015-09-28T08:31:59Z</time>
      </trkpt>
      <trkpt lat="43.51919" lon="6.28817">
        <ele>240.47</ele>
        <time>2015-09-28T08:32:12Z</time>
      </trkpt>
      <trkpt lat="43.51921" lon="6.28832">
        <ele>240.47</ele>
        <time>2015-09-28T08:32:25Z</time>
      </trkpt>
      <trkpt lat="43.51922" lon="6.28832">
        <ele>240.47</ele>
        <time>2015-09-28T08:32:33Z</time>
      </trkpt>
      <trkpt lat="43.51922" lon="6.28835">
        <ele>239.99</ele>
        <time>2015-09-28T08:32:35Z</time>
      </trkpt>
      <trkpt lat="43.51923" lon="6.28847">
        <ele>240.47</ele>
        <time>2015-09-28T08:32:43Z</time>
      </trkpt>
      <trkpt lat="43.51924" lon="6.2887">
        <ele>240.95</ele>
        <time>2015-09-28T08:32:57Z</time>
      </trkpt>
      <trkpt lat="43.51922" lon="6.28894">
        <ele>240.95</ele>
        <time>2015-09-28T08:33:11Z</time>
      </trkpt>
      <trkpt lat="43.5192" lon="6.28897">
        <ele>241.43</ele>
        <time>2015-09-28T08:33:35Z</time>
      </trkpt>
      <trkpt lat="43.51919" lon="6.28896">
        <ele>240.95</ele>
        <time>2015-09-28T08:33:38Z</time>
      </trkpt>
      <trkpt lat="43.51918" lon="6.28881">
        <ele>239.02</ele>
        <time>2015-09-28T08:33:53Z</time>
      </trkpt>
      <trkpt lat="43.51918" lon="6.2888">
        <ele>238.54</ele>
        <time>2015-09-28T08:33:54Z</time>
      </trkpt>
      <trkpt lat="43.51914" lon="6.28887">
        <ele>238.54</ele>
        <time>2015-09-28T08:34:00Z</time>
      </trkpt>
      <trkpt lat="43.51909" lon="6.28915">
        <ele>238.06</ele>
        <time>2015-09-28T08:34:16Z</time>
      </trkpt>
      <trkpt lat="43.51907" lon="6.28924">
        <ele>237.1</ele>
        <time>2015-09-28T08:34:23Z</time>
      </trkpt>
      <trkpt lat="43.51907" lon="6.28927">
        <ele>236.62</ele>
        <time>2015-09-28T08:34:25Z</time>
      </trkpt>
      <trkpt lat="43.51922" lon="6.28938">
        <ele>238.06</ele>
        <time>2015-09-28T08:34:39Z</time>
      </trkpt>
      <trkpt lat="43.51931" lon="6.28937">
        <ele>238.54</ele>
        <time>2015-09-28T08:34:51Z</time>
      </trkpt>
      <trkpt lat="43.51931" lon="6.28937">
        <ele>238.54</ele>
        <time>2015-09-28T08:35:12Z</time>
      </trkpt>
      <trkpt lat="43.51931" lon="6.28937">
        <ele>238.54</ele>
        <time>2015-09-28T08:35:44Z</time>
      </trkpt>
      <trkpt lat="43.51931" lon="6.28937">
        <ele>238.54</ele>
        <time>2015-09-28T08:36:10Z</time>
      </trkpt>
      <trkpt lat="43.51931" lon="6.28936">
        <ele>238.54</ele>
        <time>2015-09-28T08:36:34Z</time>
      </trkpt>
      <trkpt lat="43.5193" lon="6.28936">
        <ele>238.06</ele>
        <time>2015-09-28T08:36:49Z</time>
      </trkpt>
      <trkpt lat="43.51932" lon="6.28938">
        <ele>238.54</ele>
        <time>2015-09-28T08:37:05Z</time>
      </trkpt>
      <trkpt lat="43.51934" lon="6.28937">
        <ele>238.54</ele>
        <time>2015-09-28T08:37:25Z</time>
      </trkpt>
      <trkpt lat="43.51951" lon="6.28934">
        <ele>240.47</ele>
        <time>2015-09-28T08:37:40Z</time>
      </trkpt>
      <trkpt lat="43.51965" lon="6.28931">
        <ele>241.91</ele>
        <time>2015-09-28T08:37:54Z</time>
      </trkpt>
      <trkpt lat="43.51984" lon="6.28931">
        <ele>243.35</ele>
        <time>2015-09-28T08:38:10Z</time>
      </trkpt>
      <trkpt lat="43.51993" lon="6.28934">
        <ele>243.35</ele>
        <time>2015-09-28T08:38:20Z</time>
      </trkpt>
      <trkpt lat="43.52001" lon="6.28934">
        <ele>243.83</ele>
        <time>2015-09-28T08:38:27Z</time>
      </trkpt>
      <trkpt lat="43.5202" lon="6.28929">
        <ele>244.79</ele>
        <time>2015-09-28T08:38:43Z</time>
      </trkpt>
      <trkpt lat="43.5203" lon="6.28926">
        <ele>245.27</ele>
        <time>2015-09-28T08:38:53Z</time>
      </trkpt>
      <trkpt lat="43.52045" lon="6.28925">
        <ele>246.72</ele>
        <time>2015-09-28T08:39:09Z</time>
      </trkpt>
      <trkpt lat="43.52063" lon="6.28924">
        <ele>248.64</ele>
        <time>2015-09-28T08:39:27Z</time>
      </trkpt>
      <trkpt lat="43.52065" lon="6.28924">
        <ele>249.12</ele>
        <time>2015-09-28T08:39:46Z</time>
      </trkpt>
      <trkpt lat="43.52069" lon="6.28923">
        <ele>249.6</ele>
        <time>2015-09-28T08:39:50Z</time>
      </trkpt>
      <trkpt lat="43.52086" lon="6.28924">
        <ele>252</ele>
        <time>2015-09-28T08:40:07Z</time>
      </trkpt>
      <trkpt lat="43.5209" lon="6.28923">
        <ele>252.48</ele>
        <time>2015-09-28T08:40:19Z</time>
      </trkpt>
      <trkpt lat="43.5209" lon="6.28923">
        <ele>252.48</ele>
        <time>2015-09-28T08:40:35Z</time>
      </trkpt>
      <trkpt lat="43.52091" lon="6.28923">
        <ele>252.96</ele>
        <time>2015-09-28T08:40:59Z</time>
      </trkpt>
      <trkpt lat="43.52091" lon="6.28922">
        <ele>252.96</ele>
        <time>2015-09-28T08:41:27Z</time>
      </trkpt>
      <trkpt lat="43.52091" lon="6.28922">
        <ele>252.96</ele>
        <time>2015-09-28T08:41:56Z</time>
      </trkpt>
      <trkpt lat="43.52091" lon="6.28922">
        <ele>252.96</ele>
        <time>2015-09-28T08:42:23Z</time>
      </trkpt>
      <trkpt lat="43.52105" lon="6.28919">
        <ele>254.41</ele>
        <time>2015-09-28T08:42:37Z</time>
      </trkpt>
      <trkpt lat="43.52122" lon="6.28906">
        <ele>255.37</ele>
        <time>2015-09-28T08:42:55Z</time>
      </trkpt>
      <trkpt lat="43.52134" lon="6.28899">
        <ele>256.81</ele>
        <time>2015-09-28T08:43:08Z</time>
      </trkpt>
      <trkpt lat="43.52141" lon="6.28894">
        <ele>257.29</ele>
        <time>2015-09-28T08:43:17Z</time>
      </trkpt>
      <trkpt lat="43.52156" lon="6.28886">
        <ele>258.73</ele>
        <time>2015-09-28T08:43:34Z</time>
      </trkpt>
      <trkpt lat="43.52164" lon="6.2888">
        <ele>259.69</ele>
        <time>2015-09-28T08:43:47Z</time>
      </trkpt>
      <trkpt lat="43.52177" lon="6.2887">
        <ele>260.65</ele>
        <time>2015-09-28T08:44:02Z</time>
      </trkpt>
      <trkpt lat="43.52179" lon="6.28869">
        <ele>261.14</ele>
        <time>2015-09-28T08:44:04Z</time>
      </trkpt>
      <trkpt lat="43.52182" lon="6.2887">
        <ele>261.14</ele>
        <time>2015-09-28T08:44:08Z</time>
      </trkpt>
      <trkpt lat="43.52194" lon="6.28859">
        <ele>262.1</ele>
        <time>2015-09-28T08:44:22Z</time>
      </trkpt>
      <trkpt lat="43.52201" lon="6.28843">
        <ele>263.54</ele>
        <time>2015-09-28T08:44:37Z</time>
      </trkpt>
      <trkpt lat="43.52212" lon="6.28825">
        <ele>264.5</ele>
        <time>2015-09-28T08:44:55Z</time>
      </trkpt>
      <trkpt lat="43.52225" lon="6.28806">
        <ele>265.94</ele>
        <time>2015-09-28T08:45:13Z</time>
      </trkpt>
      <trkpt lat="43.52232" lon="6.28795">
        <ele>267.86</ele>
        <time>2015-09-28T08:45:30Z</time>
      </trkpt>
      <trkpt lat="43.5224" lon="6.2879">
        <ele>268.83</ele>
        <time>2015-09-28T08:45:45Z</time>
      </trkpt>
      <trkpt lat="43.52249" lon="6.28782">
        <ele>270.75</ele>
        <time>2015-09-28T08:46:01Z</time>
      </trkpt>
      <trkpt lat="43.52258" lon="6.28771">
        <ele>271.71</ele>
        <time>2015-09-28T08:46:14Z</time>
      </trkpt>
      <trkpt lat="43.52267" lon="6.28758">
        <ele>273.15</ele>
        <time>2015-09-28T08:46:29Z</time>
      </trkpt>
      <trkpt lat="43.52276" lon="6.28747">
        <ele>275.07</ele>
        <time>2015-09-28T08:46:46Z</time>
      </trkpt>
      <trkpt lat="43.52288" lon="6.28737">
        <ele>277.48</ele>
        <time>2015-09-28T08:47:04Z</time>
      </trkpt>
      <trkpt lat="43.523" lon="6.28722">
        <ele>278.44</ele>
        <time>2015-09-28T08:47:20Z</time>
      </trkpt>
      <trkpt lat="43.5231" lon="6.2871">
        <ele>279.4</ele>
        <time>2015-09-28T08:47:37Z</time>
      </trkpt>
      <trkpt lat="43.52319" lon="6.28694">
        <ele>281.32</ele>
        <time>2015-09-28T08:47:54Z</time>
      </trkpt>
      <trkpt lat="43.5233" lon="6.2868">
        <ele>282.28</ele>
        <time>2015-09-28T08:48:10Z</time>
      </trkpt>
      <trkpt lat="43.52341" lon="6.28668">
        <ele>283.73</ele>
        <time>2015-09-28T08:48:28Z</time>
      </trkpt>
      <trkpt lat="43.52349" lon="6.28657">
        <ele>284.69</ele>
        <time>2015-09-28T08:48:39Z</time>
      </trkpt>
      <trkpt lat="43.52353" lon="6.2865">
        <ele>285.17</ele>
        <time>2015-09-28T08:48:43Z</time>
      </trkpt>
      <trkpt lat="43.52358" lon="6.28645">
        <ele>285.65</ele>
        <time>2015-09-28T08:48:50Z</time>
      </trkpt>
      <trkpt lat="43.52366" lon="6.2863">
        <ele>287.09</ele>
        <time>2015-09-28T08:49:06Z</time>
      </trkpt>
      <trkpt lat="43.52367" lon="6.28625">
        <ele>287.57</ele>
        <time>2015-09-28T08:49:09Z</time>
      </trkpt>
      <trkpt lat="43.5237" lon="6.28613">
        <ele>288.05</ele>
        <time>2015-09-28T08:49:19Z</time>
      </trkpt>
      <trkpt lat="43.52378" lon="6.28594">
        <ele>289.01</ele>
        <time>2015-09-28T08:49:34Z</time>
      </trkpt>
      <trkpt lat="43.52387" lon="6.28575">
        <ele>289.01</ele>
        <time>2015-09-28T08:49:48Z</time>
      </trkpt>
      <trkpt lat="43.52389" lon="6.28561">
        <ele>289.01</ele>
        <time>2015-09-28T08:50:01Z</time>
      </trkpt>
      <trkpt lat="43.52389" lon="6.2856">
        <ele>289.01</ele>
        <time>2015-09-28T08:50:02Z</time>
      </trkpt>
      <trkpt lat="43.52391" lon="6.28554">
        <ele>289.01</ele>
        <time>2015-09-28T08:50:06Z</time>
      </trkpt>
      <trkpt lat="43.52392" lon="6.28545">
        <ele>289.01</ele>
        <time>2015-09-28T08:50:12Z</time>
      </trkpt>
      <trkpt lat="43.52397" lon="6.28524">
        <ele>288.53</ele>
        <time>2015-09-28T08:50:27Z</time>
      </trkpt>
      <trkpt lat="43.524" lon="6.2851">
        <ele>288.53</ele>
        <time>2015-09-28T08:50:40Z</time>
      </trkpt>
      <trkpt lat="43.52406" lon="6.28491">
        <ele>287.57</ele>
        <time>2015-09-28T08:50:55Z</time>
      </trkpt>
      <trkpt lat="43.5241" lon="6.28472">
        <ele>286.61</ele>
        <time>2015-09-28T08:51:09Z</time>
      </trkpt>
      <trkpt lat="43.52413" lon="6.28458">
        <ele>286.13</ele>
        <time>2015-09-28T08:51:19Z</time>
      </trkpt>
      <trkpt lat="43.52418" lon="6.28445">
        <ele>285.17</ele>
        <time>2015-09-28T08:51:29Z</time>
      </trkpt>
      <trkpt lat="43.52427" lon="6.28426">
        <ele>284.21</ele>
        <time>2015-09-28T08:51:43Z</time>
      </trkpt>
      <trkpt lat="43.52436" lon="6.2841">
        <ele>282.77</ele>
        <time>2015-09-28T08:51:58Z</time>
      </trkpt>
      <trkpt lat="43.52448" lon="6.28391">
        <ele>281.32</ele>
        <time>2015-09-28T08:52:14Z</time>
      </trkpt>
      <trkpt lat="43.52457" lon="6.2838">
        <ele>280.36</ele>
        <time>2015-09-28T08:52:25Z</time>
      </trkpt>
      <trkpt lat="43.52468" lon="6.28363">
        <ele>279.4</ele>
        <time>2015-09-28T08:52:41Z</time>
      </trkpt>
      <trkpt lat="43.52479" lon="6.28341">
        <ele>278.92</ele>
        <time>2015-09-28T08:52:56Z</time>
      </trkpt>
      <trkpt lat="43.52479" lon="6.2834">
        <ele>278.92</ele>
        <time>2015-09-28T08:52:57Z</time>
      </trkpt>
      <trkpt lat="43.52487" lon="6.2833">
        <ele>278.92</ele>
        <time>2015-09-28T08:53:06Z</time>
      </trkpt>
      <trkpt lat="43.52503" lon="6.28325">
        <ele>278.44</ele>
        <time>2015-09-28T08:53:20Z</time>
      </trkpt>
      <trkpt lat="43.52516" lon="6.2832">
        <ele>278.44</ele>
        <time>2015-09-28T08:53:32Z</time>
      </trkpt>
      <trkpt lat="43.52518" lon="6.2832">
        <ele>278.44</ele>
        <time>2015-09-28T08:53:34Z</time>
      </trkpt>
      <trkpt lat="43.5252" lon="6.2832">
        <ele>278.44</ele>
        <time>2015-09-28T08:53:37Z</time>
      </trkpt>
      <trkpt lat="43.52523" lon="6.28321">
        <ele>278.44</ele>
        <time>2015-09-28T08:53:40Z</time>
      </trkpt>
      <trkpt lat="43.52531" lon="6.28326">
        <ele>278.44</ele>
        <time>2015-09-28T08:53:48Z</time>
      </trkpt>
      <trkpt lat="43.52542" lon="6.28333">
        <ele>278.44</ele>
        <time>2015-09-28T08:54:01Z</time>
      </trkpt>
      <trkpt lat="43.52544" lon="6.28334">
        <ele>278.44</ele>
        <time>2015-09-28T08:54:09Z</time>
      </trkpt>
      <trkpt lat="43.52545" lon="6.2834">
        <ele>278.44</ele>
        <time>2015-09-28T08:54:14Z</time>
      </trkpt>
      <trkpt lat="43.5255" lon="6.28363">
        <ele>278.92</ele>
        <time>2015-09-28T08:54:29Z</time>
      </trkpt>
      <trkpt lat="43.52553" lon="6.2837">
        <ele>279.4</ele>
        <time>2015-09-28T08:54:36Z</time>
      </trkpt>
      <trkpt lat="43.52566" lon="6.2838">
        <ele>280.84</ele>
        <time>2015-09-28T08:54:51Z</time>
      </trkpt>
      <trkpt lat="43.52588" lon="6.28377">
        <ele>280.84</ele>
        <time>2015-09-28T08:55:08Z</time>
      </trkpt>
      <trkpt lat="43.52595" lon="6.28377">
        <ele>280.84</ele>
        <time>2015-09-28T08:55:14Z</time>
      </trkpt>
      <trkpt lat="43.52596" lon="6.28378">
        <ele>280.84</ele>
        <time>2015-09-28T08:55:30Z</time>
      </trkpt>
      <trkpt lat="43.52598" lon="6.28379">
        <ele>280.84</ele>
        <time>2015-09-28T08:55:45Z</time>
      </trkpt>
      <trkpt lat="43.52603" lon="6.28383">
        <ele>280.84</ele>
        <time>2015-09-28T08:55:51Z</time>
      </trkpt>
      <trkpt lat="43.52626" lon="6.28399">
        <ele>281.32</ele>
        <time>2015-09-28T08:56:10Z</time>
      </trkpt>
      <trkpt lat="43.52636" lon="6.28411">
        <ele>281.32</ele>
        <time>2015-09-28T08:56:22Z</time>
      </trkpt>
      <trkpt lat="43.52652" lon="6.28425">
        <ele>282.28</ele>
        <time>2015-09-28T08:56:37Z</time>
      </trkpt>
      <trkpt lat="43.52655" lon="6.28427">
        <ele>282.28</ele>
        <time>2015-09-28T08:56:39Z</time>
      </trkpt>
      <trkpt lat="43.52664" lon="6.28432">
        <ele>282.77</ele>
        <time>2015-09-28T08:56:47Z</time>
      </trkpt>
      <trkpt lat="43.52677" lon="6.28437">
        <ele>282.77</ele>
        <time>2015-09-28T08:56:57Z</time>
      </trkpt>
      <trkpt lat="43.52688" lon="6.28448">
        <ele>283.25</ele>
        <time>2015-09-28T08:57:09Z</time>
      </trkpt>
      <trkpt lat="43.52692" lon="6.28453">
        <ele>283.25</ele>
        <time>2015-09-28T08:57:14Z</time>
      </trkpt>
      <trkpt lat="43.52695" lon="6.28456">
        <ele>283.73</ele>
        <time>2015-09-28T08:57:17Z</time>
      </trkpt>
      <trkpt lat="43.52704" lon="6.28465">
        <ele>284.21</ele>
        <time>2015-09-28T08:57:27Z</time>
      </trkpt>
      <trkpt lat="43.5271" lon="6.28469">
        <ele>284.21</ele>
        <time>2015-09-28T08:57:32Z</time>
      </trkpt>
      <trkpt lat="43.52711" lon="6.28472">
        <ele>284.21</ele>
        <time>2015-09-28T08:57:35Z</time>
      </trkpt>
      <trkpt lat="43.52723" lon="6.28479">
        <ele>284.69</ele>
        <time>2015-09-28T08:57:46Z</time>
      </trkpt>
      <trkpt lat="43.52738" lon="6.28492">
        <ele>285.17</ele>
        <time>2015-09-28T08:58:01Z</time>
      </trkpt>
      <trkpt lat="43.5274" lon="6.28494">
        <ele>285.17</ele>
        <time>2015-09-28T08:58:03Z</time>
      </trkpt>
      <trkpt lat="43.52751" lon="6.28503">
        <ele>285.65</ele>
        <time>2015-09-28T08:58:14Z</time>
      </trkpt>
      <trkpt lat="43.52766" lon="6.28513">
        <ele>286.13</ele>
        <time>2015-09-28T08:58:27Z</time>
      </trkpt>
      <trkpt lat="43.52776" lon="6.28524">
        <ele>287.09</ele>
        <time>2015-09-28T08:58:39Z</time>
      </trkpt>
      <trkpt lat="43.52785" lon="6.28536">
        <ele>287.57</ele>
        <time>2015-09-28T08:58:51Z</time>
      </trkpt>
      <trkpt lat="43.528" lon="6.28549">
        <ele>289.01</ele>
        <time>2015-09-28T08:59:08Z</time>
      </trkpt>
      <trkpt lat="43.52812" lon="6.28571">
        <ele>289.97</ele>
        <time>2015-09-28T08:59:25Z</time>
      </trkpt>
      <trkpt lat="43.52813" lon="6.28572">
        <ele>290.46</ele>
        <time>2015-09-28T08:59:26Z</time>
      </trkpt>
      <trkpt lat="43.52816" lon="6.28574">
        <ele>290.46</ele>
        <time>2015-09-28T08:59:29Z</time>
      </trkpt>
      <trkpt lat="43.52821" lon="6.28582">
        <ele>290.94</ele>
        <time>2015-09-28T08:59:36Z</time>
      </trkpt>
      <trkpt lat="43.52824" lon="6.28586">
        <ele>290.94</ele>
        <time>2015-09-28T08:59:40Z</time>
      </trkpt>
      <trkpt lat="43.52839" lon="6.28597">
        <ele>292.38</ele>
        <time>2015-09-28T08:59:55Z</time>
      </trkpt>
      <trkpt lat="43.52847" lon="6.28601">
        <ele>292.86</ele>
        <time>2015-09-28T09:00:04Z</time>
      </trkpt>
      <trkpt lat="43.52866" lon="6.28606">
        <ele>294.3</ele>
        <time>2015-09-28T09:00:21Z</time>
      </trkpt>
      <trkpt lat="43.52883" lon="6.28611">
        <ele>295.26</ele>
        <time>2015-09-28T09:00:37Z</time>
      </trkpt>
      <trkpt lat="43.52889" lon="6.28612">
        <ele>295.74</ele>
        <time>2015-09-28T09:00:43Z</time>
      </trkpt>
      <trkpt lat="43.52908" lon="6.2861">
        <ele>296.7</ele>
        <time>2015-09-28T09:01:01Z</time>
      </trkpt>
      <trkpt lat="43.52922" lon="6.28607">
        <ele>297.67</ele>
        <time>2015-09-28T09:01:13Z</time>
      </trkpt>
      <trkpt lat="43.52935" lon="6.28605">
        <ele>298.15</ele>
        <time>2015-09-28T09:01:24Z</time>
      </trkpt>
      <trkpt lat="43.52942" lon="6.28602">
        <ele>298.63</ele>
        <time>2015-09-28T09:01:29Z</time>
      </trkpt>
      <trkpt lat="43.5296" lon="6.286">
        <ele>299.11</ele>
        <time>2015-09-28T09:01:45Z</time>
      </trkpt>
      <trkpt lat="43.52975" lon="6.28603">
        <ele>299.59</ele>
        <time>2015-09-28T09:01:59Z</time>
      </trkpt>
      <trkpt lat="43.52982" lon="6.28604">
        <ele>299.59</ele>
        <time>2015-09-28T09:02:04Z</time>
      </trkpt>
      <trkpt lat="43.52994" lon="6.28605">
        <ele>300.55</ele>
        <time>2015-09-28T09:02:15Z</time>
      </trkpt>
      <trkpt lat="43.53011" lon="6.28614">
        <ele>301.51</ele>
        <time>2015-09-28T09:02:32Z</time>
      </trkpt>
      <trkpt lat="43.53013" lon="6.28615">
        <ele>301.51</ele>
        <time>2015-09-28T09:02:34Z</time>
      </trkpt>
      <trkpt lat="43.53031" lon="6.28624">
        <ele>301.51</ele>
        <time>2015-09-28T09:02:50Z</time>
      </trkpt>
      <trkpt lat="43.53036" lon="6.28626">
        <ele>301.51</ele>
        <time>2015-09-28T09:03:04Z</time>
      </trkpt>
      <trkpt lat="43.53037" lon="6.28624">
        <ele>301.99</ele>
        <time>2015-09-28T09:03:22Z</time>
      </trkpt>
      <trkpt lat="43.53038" lon="6.28624">
        <ele>301.51</ele>
        <time>2015-09-28T09:03:39Z</time>
      </trkpt>
      <trkpt lat="43.53037" lon="6.28624">
        <ele>301.51</ele>
        <time>2015-09-28T09:04:07Z</time>
      </trkpt>
      <trkpt lat="43.53038" lon="6.28624">
        <ele>301.51</ele>
        <time>2015-09-28T09:04:41Z</time>
      </trkpt>
      <trkpt lat="43.53038" lon="6.28624">
        <ele>301.51</ele>
        <time>2015-09-28T09:05:10Z</time>
      </trkpt>
      <trkpt lat="43.53038" lon="6.28624">
        <ele>301.51</ele>
        <time>2015-09-28T09:05:40Z</time>
      </trkpt>
      <trkpt lat="43.53038" lon="6.28624">
        <ele>301.51</ele>
        <time>2015-09-28T09:06:00Z</time>
      </trkpt>
      <trkpt lat="43.53038" lon="6.28624">
        <ele>301.51</ele>
        <time>2015-09-28T09:06:34Z</time>
      </trkpt>
      <trkpt lat="43.53038" lon="6.28624">
        <ele>302.47</ele>
        <time>2015-09-28T09:07:06Z</time>
      </trkpt>
      <trkpt lat="43.53038" lon="6.28624">
        <ele>301.03</ele>
        <time>2015-09-28T09:07:37Z</time>
      </trkpt>
      <trkpt lat="43.53038" lon="6.28624">
        <ele>301.03</ele>
        <time>2015-09-28T09:08:05Z</time>
      </trkpt>
      <trkpt lat="43.53037" lon="6.28624">
        <ele>301.03</ele>
        <time>2015-09-28T09:08:27Z</time>
      </trkpt>
      <trkpt lat="43.53037" lon="6.28623">
        <ele>301.03</ele>
        <time>2015-09-28T09:09:04Z</time>
      </trkpt>
      <trkpt lat="43.53038" lon="6.28624">
        <ele>301.03</ele>
        <time>2015-09-28T09:09:44Z</time>
      </trkpt>
      <trkpt lat="43.53037" lon="6.28624">
        <ele>301.03</ele>
        <time>2015-09-28T09:10:19Z</time>
      </trkpt>
      <trkpt lat="43.53038" lon="6.28624">
        <ele>301.03</ele>
        <time>2015-09-28T09:10:53Z</time>
      </trkpt>
      <trkpt lat="43.53038" lon="6.28624">
        <ele>301.03</ele>
        <time>2015-09-28T09:11:31Z</time>
      </trkpt>
      <trkpt lat="43.53038" lon="6.28624">
        <ele>301.03</ele>
        <time>2015-09-28T09:12:11Z</time>
      </trkpt>
      <trkpt lat="43.53038" lon="6.28623">
        <ele>300.55</ele>
        <time>2015-09-28T09:12:49Z</time>
      </trkpt>
      <trkpt lat="43.53038" lon="6.28623">
        <ele>301.03</ele>
        <time>2015-09-28T09:13:24Z</time>
      </trkpt>
      <trkpt lat="43.53038" lon="6.28624">
        <ele>300.55</ele>
        <time>2015-09-28T09:13:46Z</time>
      </trkpt>
      <trkpt lat="43.5304" lon="6.28626">
        <ele>301.03</ele>
        <time>2015-09-28T09:14:17Z</time>
      </trkpt>
      <trkpt lat="43.53054" lon="6.28637">
        <ele>301.03</ele>
        <time>2015-09-28T09:14:31Z</time>
      </trkpt>
      <trkpt lat="43.53065" lon="6.28646">
        <ele>301.03</ele>
        <time>2015-09-28T09:14:42Z</time>
      </trkpt>
      <trkpt lat="43.53067" lon="6.28649">
        <ele>301.51</ele>
        <time>2015-09-28T09:14:45Z</time>
      </trkpt>
      <trkpt lat="43.5307" lon="6.28652">
        <ele>301.51</ele>
        <time>2015-09-28T09:14:49Z</time>
      </trkpt>
      <trkpt lat="43.53074" lon="6.28653">
        <ele>301.51</ele>
        <time>2015-09-28T09:14:52Z</time>
      </trkpt>
      <trkpt lat="43.53091" lon="6.28657">
        <ele>303.43</ele>
        <time>2015-09-28T09:15:09Z</time>
      </trkpt>
      <trkpt lat="43.53104" lon="6.28655">
        <ele>303.91</ele>
        <time>2015-09-28T09:15:20Z</time>
      </trkpt>
      <trkpt lat="43.53125" lon="6.28655">
        <ele>304.88</ele>
        <time>2015-09-28T09:15:37Z</time>
      </trkpt>
      <trkpt lat="43.53142" lon="6.28659">
        <ele>305.84</ele>
        <time>2015-09-28T09:15:51Z</time>
      </trkpt>
      <trkpt lat="43.53151" lon="6.28663">
        <ele>306.32</ele>
        <time>2015-09-28T09:15:59Z</time>
      </trkpt>
      <trkpt lat="43.53159" lon="6.28668">
        <ele>307.28</ele>
        <time>2015-09-28T09:16:06Z</time>
      </trkpt>
      <trkpt lat="43.53177" lon="6.28678">
        <ele>308.24</ele>
        <time>2015-09-28T09:16:22Z</time>
      </trkpt>
      <trkpt lat="43.53191" lon="6.28685">
        <ele>309.68</ele>
        <time>2015-09-28T09:16:36Z</time>
      </trkpt>
      <trkpt lat="43.53209" lon="6.2869">
        <ele>310.64</ele>
        <time>2015-09-28T09:16:51Z</time>
      </trkpt>
      <trkpt lat="43.53226" lon="6.28699">
        <ele>311.6</ele>
        <time>2015-09-28T09:17:06Z</time>
      </trkpt>
      <trkpt lat="43.53237" lon="6.28709">
        <ele>312.09</ele>
        <time>2015-09-28T09:17:17Z</time>
      </trkpt>
      <trkpt lat="43.53249" lon="6.2872">
        <ele>313.05</ele>
        <time>2015-09-28T09:17:31Z</time>
      </trkpt>
      <trkpt lat="43.53264" lon="6.2873">
        <ele>314.01</ele>
        <time>2015-09-28T09:17:45Z</time>
      </trkpt>
      <trkpt lat="43.5328" lon="6.28738">
        <ele>315.45</ele>
        <time>2015-09-28T09:18:01Z</time>
      </trkpt>
      <trkpt lat="43.53299" lon="6.28733">
        <ele>316.41</ele>
        <time>2015-09-28T09:18:17Z</time>
      </trkpt>
      <trkpt lat="43.53313" lon="6.28724">
        <ele>316.89</ele>
        <time>2015-09-28T09:18:31Z</time>
      </trkpt>
      <trkpt lat="43.5333" lon="6.28714">
        <ele>318.81</ele>
        <time>2015-09-28T09:18:47Z</time>
      </trkpt>
      <trkpt lat="43.53343" lon="6.28706">
        <ele>319.3</ele>
        <time>2015-09-28T09:19:00Z</time>
      </trkpt>
      <trkpt lat="43.53359" lon="6.28699">
        <ele>320.26</ele>
        <time>2015-09-28T09:19:14Z</time>
      </trkpt>
      <trkpt lat="43.53375" lon="6.28692">
        <ele>321.7</ele>
        <time>2015-09-28T09:19:29Z</time>
      </trkpt>
      <trkpt lat="43.5339" lon="6.28683">
        <ele>323.14</ele>
        <time>2015-09-28T09:19:45Z</time>
      </trkpt>
      <trkpt lat="43.53408" lon="6.28668">
        <ele>324.1</ele>
        <time>2015-09-28T09:20:04Z</time>
      </trkpt>
      <trkpt lat="43.53422" lon="6.28661">
        <ele>326.02</ele>
        <time>2015-09-28T09:20:19Z</time>
      </trkpt>
      <trkpt lat="43.53438" lon="6.28656">
        <ele>327.95</ele>
        <time>2015-09-28T09:20:37Z</time>
      </trkpt>
      <trkpt lat="43.53455" lon="6.28646">
        <ele>330.35</ele>
        <time>2015-09-28T09:20:54Z</time>
      </trkpt>
      <trkpt lat="43.53471" lon="6.28637">
        <ele>332.27</ele>
        <time>2015-09-28T09:21:12Z</time>
      </trkpt>
      <trkpt lat="43.53478" lon="6.28634">
        <ele>332.75</ele>
        <time>2015-09-28T09:21:19Z</time>
      </trkpt>
      <trkpt lat="43.53494" lon="6.28635">
        <ele>334.68</ele>
        <time>2015-09-28T09:21:35Z</time>
      </trkpt>
      <trkpt lat="43.53508" lon="6.28644">
        <ele>336.12</ele>
        <time>2015-09-28T09:21:51Z</time>
      </trkpt>
      <trkpt lat="43.53518" lon="6.28653">
        <ele>338.04</ele>
        <time>2015-09-28T09:22:04Z</time>
      </trkpt>
      <trkpt lat="43.53519" lon="6.28654">
        <ele>338.52</ele>
        <time>2015-09-28T09:22:06Z</time>
      </trkpt>
      <trkpt lat="43.53531" lon="6.28666">
        <ele>339.96</ele>
        <time>2015-09-28T09:22:22Z</time>
      </trkpt>
      <trkpt lat="43.53542" lon="6.28675">
        <ele>341.41</ele>
        <time>2015-09-28T09:22:34Z</time>
      </trkpt>
      <trkpt lat="43.53548" lon="6.28683">
        <ele>342.37</ele>
        <time>2015-09-28T09:22:43Z</time>
      </trkpt>
      <trkpt lat="43.53551" lon="6.28686">
        <ele>342.85</ele>
        <time>2015-09-28T09:22:47Z</time>
      </trkpt>
      <trkpt lat="43.53562" lon="6.28703">
        <ele>344.77</ele>
        <time>2015-09-28T09:23:05Z</time>
      </trkpt>
      <trkpt lat="43.53567" lon="6.28716">
        <ele>346.21</ele>
        <time>2015-09-28T09:23:17Z</time>
      </trkpt>
      <trkpt lat="43.53573" lon="6.28731">
        <ele>347.65</ele>
        <time>2015-09-28T09:23:31Z</time>
      </trkpt>
      <trkpt lat="43.53582" lon="6.28748">
        <ele>349.58</ele>
        <time>2015-09-28T09:23:47Z</time>
      </trkpt>
      <trkpt lat="43.53588" lon="6.28763">
        <ele>350.54</ele>
        <time>2015-09-28T09:24:00Z</time>
      </trkpt>
      <trkpt lat="43.53595" lon="6.2878">
        <ele>351.02</ele>
        <time>2015-09-28T09:24:13Z</time>
      </trkpt>
      <trkpt lat="43.53603" lon="6.28799">
        <ele>351.02</ele>
        <time>2015-09-28T09:24:27Z</time>
      </trkpt>
      <trkpt lat="43.53609" lon="6.28814">
        <ele>351.5</ele>
        <time>2015-09-28T09:24:39Z</time>
      </trkpt>
      <trkpt lat="43.53619" lon="6.28834">
        <ele>351.98</ele>
        <time>2015-09-28T09:24:55Z</time>
      </trkpt>
      <trkpt lat="43.53625" lon="6.28853">
        <ele>352.94</ele>
        <time>2015-09-28T09:25:10Z</time>
      </trkpt>
      <trkpt lat="43.53629" lon="6.28873">
        <ele>354.38</ele>
        <time>2015-09-28T09:25:26Z</time>
      </trkpt>
      <trkpt lat="43.53635" lon="6.28896">
        <ele>356.31</ele>
        <time>2015-09-28T09:25:45Z</time>
      </trkpt>
      <trkpt lat="43.53635" lon="6.28896">
        <ele>356.31</ele>
        <time>2015-09-28T09:25:49Z</time>
      </trkpt>
      <trkpt lat="43.53641" lon="6.28901">
        <ele>357.27</ele>
        <time>2015-09-28T09:25:56Z</time>
      </trkpt>
      <trkpt lat="43.53651" lon="6.28917">
        <ele>359.19</ele>
        <time>2015-09-28T09:26:10Z</time>
      </trkpt>
      <trkpt lat="43.53654" lon="6.28919">
        <ele>359.19</ele>
        <time>2015-09-28T09:26:12Z</time>
      </trkpt>
      <trkpt lat="43.53656" lon="6.28922">
        <ele>359.67</ele>
        <time>2015-09-28T09:26:15Z</time>
      </trkpt>
      <trkpt lat="43.53661" lon="6.28929">
        <ele>359.67</ele>
        <time>2015-09-28T09:26:29Z</time>
      </trkpt>
      <trkpt lat="43.53661" lon="6.28929">
        <ele>359.67</ele>
        <time>2015-09-28T09:26:47Z</time>
      </trkpt>
      <trkpt lat="43.53663" lon="6.2893">
        <ele>360.15</ele>
        <time>2015-09-28T09:27:10Z</time>
      </trkpt>
      <trkpt lat="43.53663" lon="6.28931">
        <ele>360.15</ele>
        <time>2015-09-28T09:27:29Z</time>
      </trkpt>
      <trkpt lat="43.53669" lon="6.28933">
        <ele>361.11</ele>
        <time>2015-09-28T09:27:51Z</time>
      </trkpt>
      <trkpt lat="43.5367" lon="6.28934">
        <ele>361.11</ele>
        <time>2015-09-28T09:27:53Z</time>
      </trkpt>
      <trkpt lat="43.53681" lon="6.28936">
        <ele>363.52</ele>
        <time>2015-09-28T09:28:07Z</time>
      </trkpt>
      <trkpt lat="43.53691" lon="6.2892">
        <ele>365.44</ele>
        <time>2015-09-28T09:28:22Z</time>
      </trkpt>
      <trkpt lat="43.53696" lon="6.28905">
        <ele>366.4</ele>
        <time>2015-09-28T09:28:34Z</time>
      </trkpt>
      <trkpt lat="43.53698" lon="6.28902">
        <ele>366.88</ele>
        <time>2015-09-28T09:28:36Z</time>
      </trkpt>
      <trkpt lat="43.53703" lon="6.2889">
        <ele>367.36</ele>
        <time>2015-09-28T09:28:48Z</time>
      </trkpt>
      <trkpt lat="43.53705" lon="6.28886">
        <ele>367.84</ele>
        <time>2015-09-28T09:28:51Z</time>
      </trkpt>
      <trkpt lat="43.53711" lon="6.28862">
        <ele>367.84</ele>
        <time>2015-09-28T09:29:07Z</time>
      </trkpt>
      <trkpt lat="43.53717" lon="6.28841">
        <ele>367.84</ele>
        <time>2015-09-28T09:29:22Z</time>
      </trkpt>
      <trkpt lat="43.53724" lon="6.28828">
        <ele>368.8</ele>
        <time>2015-09-28T09:29:34Z</time>
      </trkpt>
      <trkpt lat="43.53729" lon="6.28807">
        <ele>368.8</ele>
        <time>2015-09-28T09:29:49Z</time>
      </trkpt>
      <trkpt lat="43.5373" lon="6.28802">
        <ele>368.32</ele>
        <time>2015-09-28T09:29:53Z</time>
      </trkpt>
      <trkpt lat="43.5374" lon="6.28788">
        <ele>368.32</ele>
        <time>2015-09-28T09:30:04Z</time>
      </trkpt>
      <trkpt lat="43.53741" lon="6.28786">
        <ele>368.32</ele>
        <time>2015-09-28T09:30:06Z</time>
      </trkpt>
      <trkpt lat="43.53749" lon="6.2878">
        <ele>368.8</ele>
        <time>2015-09-28T09:30:19Z</time>
      </trkpt>
      <trkpt lat="43.53764" lon="6.28785">
        <ele>369.28</ele>
        <time>2015-09-28T09:30:35Z</time>
      </trkpt>
      <trkpt lat="43.53781" lon="6.28788">
        <ele>370.73</ele>
        <time>2015-09-28T09:30:55Z</time>
      </trkpt>
      <trkpt lat="43.53797" lon="6.28792">
        <ele>371.69</ele>
        <time>2015-09-28T09:31:11Z</time>
      </trkpt>
      <trkpt lat="43.53804" lon="6.28794">
        <ele>371.69</ele>
        <time>2015-09-28T09:31:18Z</time>
      </trkpt>
      <trkpt lat="43.53808" lon="6.28797">
        <ele>372.17</ele>
        <time>2015-09-28T09:31:23Z</time>
      </trkpt>
      <trkpt lat="43.53823" lon="6.2881">
        <ele>373.13</ele>
        <time>2015-09-28T09:31:39Z</time>
      </trkpt>
      <trkpt lat="43.53839" lon="6.28808">
        <ele>374.09</ele>
        <time>2015-09-28T09:31:54Z</time>
      </trkpt>
      <trkpt lat="43.53848" lon="6.28806">
        <ele>374.57</ele>
        <time>2015-09-28T09:32:01Z</time>
      </trkpt>
      <trkpt lat="43.53865" lon="6.28809">
        <ele>375.53</ele>
        <time>2015-09-28T09:32:18Z</time>
      </trkpt>
      <trkpt lat="43.53877" lon="6.28806">
        <ele>376.01</ele>
        <time>2015-09-28T09:32:30Z</time>
      </trkpt>
      <trkpt lat="43.53886" lon="6.28803">
        <ele>376.49</ele>
        <time>2015-09-28T09:32:38Z</time>
      </trkpt>
      <trkpt lat="43.53904" lon="6.28793">
        <ele>376.97</ele>
        <time>2015-09-28T09:32:54Z</time>
      </trkpt>
      <trkpt lat="43.53916" lon="6.28787">
        <ele>378.9</ele>
        <time>2015-09-28T09:33:09Z</time>
      </trkpt>
      <trkpt lat="43.53927" lon="6.2879">
        <ele>377.94</ele>
        <time>2015-09-28T09:33:21Z</time>
      </trkpt>
      <trkpt lat="43.53944" lon="6.28784">
        <ele>378.42</ele>
        <time>2015-09-28T09:33:35Z</time>
      </trkpt>
      <trkpt lat="43.53957" lon="6.28775">
        <ele>378.9</ele>
        <time>2015-09-28T09:33:47Z</time>
      </trkpt>
      <trkpt lat="43.5397" lon="6.28766">
        <ele>379.38</ele>
        <time>2015-09-28T09:34:01Z</time>
      </trkpt>
      <trkpt lat="43.53976" lon="6.28762">
        <ele>379.86</ele>
        <time>2015-09-28T09:34:15Z</time>
      </trkpt>
      <trkpt lat="43.53977" lon="6.2876">
        <ele>380.34</ele>
        <time>2015-09-28T09:34:37Z</time>
      </trkpt>
      <trkpt lat="43.53976" lon="6.28759">
        <ele>379.86</ele>
        <time>2015-09-28T09:35:01Z</time>
      </trkpt>
      <trkpt lat="43.53977" lon="6.28758">
        <ele>379.86</ele>
        <time>2015-09-28T09:35:18Z</time>
      </trkpt>
      <trkpt lat="43.53977" lon="6.28757">
        <ele>380.34</ele>
        <time>2015-09-28T09:35:34Z</time>
      </trkpt>
      <trkpt lat="43.53977" lon="6.28756">
        <ele>380.34</ele>
        <time>2015-09-28T09:35:55Z</time>
      </trkpt>
      <trkpt lat="43.53978" lon="6.28757">
        <ele>380.34</ele>
        <time>2015-09-28T09:36:23Z</time>
      </trkpt>
      <trkpt lat="43.53979" lon="6.28757">
        <ele>380.34</ele>
        <time>2015-09-28T09:36:46Z</time>
      </trkpt>
      <trkpt lat="43.53978" lon="6.28757">
        <ele>380.34</ele>
        <time>2015-09-28T09:37:07Z</time>
      </trkpt>
      <trkpt lat="43.53978" lon="6.28756">
        <ele>380.34</ele>
        <time>2015-09-28T09:37:30Z</time>
      </trkpt>
      <trkpt lat="43.53978" lon="6.28756">
        <ele>380.34</ele>
        <time>2015-09-28T09:37:40Z</time>
      </trkpt>
      <trkpt lat="43.53977" lon="6.28756">
        <ele>380.34</ele>
        <time>2015-09-28T09:37:42Z</time>
      </trkpt>
      <trkpt lat="43.53974" lon="6.28756">
        <ele>380.34</ele>
        <time>2015-09-28T09:38:01Z</time>
      </trkpt>
      <trkpt lat="43.53977" lon="6.28756">
        <ele>380.34</ele>
        <time>2015-09-28T09:38:04Z</time>
      </trkpt>
      <trkpt lat="43.53981" lon="6.28755">
        <ele>380.34</ele>
        <time>2015-09-28T09:38:08Z</time>
      </trkpt>
      <trkpt lat="43.53996" lon="6.28743">
        <ele>381.3</ele>
        <time>2015-09-28T09:38:22Z</time>
      </trkpt>
      <trkpt lat="43.53999" lon="6.2874">
        <ele>381.3</ele>
        <time>2015-09-28T09:38:26Z</time>
      </trkpt>
      <trkpt lat="43.54004" lon="6.28735">
        <ele>381.78</ele>
        <time>2015-09-28T09:38:31Z</time>
      </trkpt>
      <trkpt lat="43.54008" lon="6.28729">
        <ele>381.78</ele>
        <time>2015-09-28T09:38:36Z</time>
      </trkpt>
      <trkpt lat="43.54013" lon="6.28716">
        <ele>382.74</ele>
        <time>2015-09-28T09:38:47Z</time>
      </trkpt>
      <trkpt lat="43.54013" lon="6.28711">
        <ele>382.74</ele>
        <time>2015-09-28T09:38:51Z</time>
      </trkpt>
      <trkpt lat="43.54012" lon="6.28704">
        <ele>383.22</ele>
        <time>2015-09-28T09:38:56Z</time>
      </trkpt>
      <trkpt lat="43.54014" lon="6.28689">
        <ele>383.7</ele>
        <time>2015-09-28T09:39:07Z</time>
      </trkpt>
      <trkpt lat="43.54017" lon="6.28682">
        <ele>383.7</ele>
        <time>2015-09-28T09:39:12Z</time>
      </trkpt>
      <trkpt lat="43.54021" lon="6.28678">
        <ele>384.18</ele>
        <time>2015-09-28T09:39:17Z</time>
      </trkpt>
      <trkpt lat="43.54022" lon="6.28675">
        <ele>384.18</ele>
        <time>2015-09-28T09:39:19Z</time>
      </trkpt>
      <trkpt lat="43.54029" lon="6.28656">
        <ele>385.15</ele>
        <time>2015-09-28T09:39:32Z</time>
      </trkpt>
      <trkpt lat="43.54032" lon="6.28633">
        <ele>383.22</ele>
        <time>2015-09-28T09:39:48Z</time>
      </trkpt>
      <trkpt lat="43.54033" lon="6.2863">
        <ele>383.22</ele>
        <time>2015-09-28T09:39:51Z</time>
      </trkpt>
      <trkpt lat="43.54036" lon="6.28623">
        <ele>382.74</ele>
        <time>2015-09-28T09:39:55Z</time>
      </trkpt>
      <trkpt lat="43.54039" lon="6.28614">
        <ele>382.74</ele>
        <time>2015-09-28T09:40:00Z</time>
      </trkpt>
      <trkpt lat="43.54035" lon="6.28593">
        <ele>383.7</ele>
        <time>2015-09-28T09:40:14Z</time>
      </trkpt>
      <trkpt lat="43.54025" lon="6.28578">
        <ele>384.18</ele>
        <time>2015-09-28T09:40:26Z</time>
      </trkpt>
      <trkpt lat="43.54008" lon="6.28563">
        <ele>384.18</ele>
        <time>2015-09-28T09:40:43Z</time>
      </trkpt>
      <trkpt lat="43.54002" lon="6.28556">
        <ele>384.66</ele>
        <time>2015-09-28T09:40:51Z</time>
      </trkpt>
      <trkpt lat="43.54001" lon="6.28552">
        <ele>385.15</ele>
        <time>2015-09-28T09:40:54Z</time>
      </trkpt>
      <trkpt lat="43.53989" lon="6.28538">
        <ele>386.11</ele>
        <time>2015-09-28T09:41:09Z</time>
      </trkpt>
      <trkpt lat="43.53983" lon="6.28531">
        <ele>386.59</ele>
        <time>2015-09-28T09:41:16Z</time>
      </trkpt>
      <trkpt lat="43.53969" lon="6.28519">
        <ele>386.59</ele>
        <time>2015-09-28T09:41:29Z</time>
      </trkpt>
      <trkpt lat="43.53951" lon="6.28509">
        <ele>386.11</ele>
        <time>2015-09-28T09:41:45Z</time>
      </trkpt>
      <trkpt lat="43.5394" lon="6.285">
        <ele>385.63</ele>
        <time>2015-09-28T09:41:57Z</time>
      </trkpt>
      <trkpt lat="43.53939" lon="6.285">
        <ele>385.63</ele>
        <time>2015-09-28T09:41:58Z</time>
      </trkpt>
      <trkpt lat="43.53935" lon="6.28497">
        <ele>385.15</ele>
        <time>2015-09-28T09:42:01Z</time>
      </trkpt>
      <trkpt lat="43.53923" lon="6.28488">
        <ele>384.66</ele>
        <time>2015-09-28T09:42:14Z</time>
      </trkpt>
      <trkpt lat="43.53907" lon="6.28479">
        <ele>385.15</ele>
        <time>2015-09-28T09:42:31Z</time>
      </trkpt>
      <trkpt lat="43.53893" lon="6.2847">
        <ele>386.11</ele>
        <time>2015-09-28T09:42:46Z</time>
      </trkpt>
      <trkpt lat="43.53883" lon="6.28465">
        <ele>386.59</ele>
        <time>2015-09-28T09:42:57Z</time>
      </trkpt>
      <trkpt lat="43.53867" lon="6.2846">
        <ele>386.59</ele>
        <time>2015-09-28T09:43:11Z</time>
      </trkpt>
      <trkpt lat="43.53851" lon="6.28455">
        <ele>386.59</ele>
        <time>2015-09-28T09:43:26Z</time>
      </trkpt>
      <trkpt lat="43.53833" lon="6.28447">
        <ele>386.59</ele>
        <time>2015-09-28T09:43:43Z</time>
      </trkpt>
      <trkpt lat="43.53829" lon="6.28445">
        <ele>386.59</ele>
        <time>2015-09-28T09:43:47Z</time>
      </trkpt>
      <trkpt lat="43.53813" lon="6.28434">
        <ele>386.59</ele>
        <time>2015-09-28T09:44:03Z</time>
      </trkpt>
      <trkpt lat="43.538" lon="6.28419">
        <ele>387.55</ele>
        <time>2015-09-28T09:44:20Z</time>
      </trkpt>
      <trkpt lat="43.53793" lon="6.2841">
        <ele>388.03</ele>
        <time>2015-09-28T09:44:29Z</time>
      </trkpt>
      <trkpt lat="43.53788" lon="6.28388">
        <ele>387.55</ele>
        <time>2015-09-28T09:44:44Z</time>
      </trkpt>
      <trkpt lat="43.53783" lon="6.2837">
        <ele>388.03</ele>
        <time>2015-09-28T09:44:57Z</time>
      </trkpt>
      <trkpt lat="43.5378" lon="6.28362">
        <ele>387.55</ele>
        <time>2015-09-28T09:45:03Z</time>
      </trkpt>
      <trkpt lat="43.53779" lon="6.28358">
        <ele>387.55</ele>
        <time>2015-09-28T09:45:06Z</time>
      </trkpt>
      <trkpt lat="43.53773" lon="6.2834">
        <ele>387.55</ele>
        <time>2015-09-28T09:45:19Z</time>
      </trkpt>
      <trkpt lat="43.53773" lon="6.28333">
        <ele>387.55</ele>
        <time>2015-09-28T09:45:25Z</time>
      </trkpt>
      <trkpt lat="43.53774" lon="6.28321">
        <ele>387.07</ele>
        <time>2015-09-28T09:45:33Z</time>
      </trkpt>
      <trkpt lat="43.53779" lon="6.28308">
        <ele>387.55</ele>
        <time>2015-09-28T09:45:43Z</time>
      </trkpt>
      <trkpt lat="43.53786" lon="6.28299">
        <ele>387.55</ele>
        <time>2015-09-28T09:45:52Z</time>
      </trkpt>
      <trkpt lat="43.53794" lon="6.28284">
        <ele>387.55</ele>
        <time>2015-09-28T09:46:05Z</time>
      </trkpt>
      <trkpt lat="43.53796" lon="6.28279">
        <ele>387.55</ele>
        <time>2015-09-28T09:46:08Z</time>
      </trkpt>
      <trkpt lat="43.53807" lon="6.28257">
        <ele>388.51</ele>
        <time>2015-09-28T09:46:26Z</time>
      </trkpt>
      <trkpt lat="43.53808" lon="6.28252">
        <ele>388.51</ele>
        <time>2015-09-28T09:46:29Z</time>
      </trkpt>
      <trkpt lat="43.5381" lon="6.28249">
        <ele>388.51</ele>
        <time>2015-09-28T09:46:31Z</time>
      </trkpt>
      <trkpt lat="43.53815" lon="6.28224">
        <ele>389.95</ele>
        <time>2015-09-28T09:46:48Z</time>
      </trkpt>
      <trkpt lat="43.53817" lon="6.28218">
        <ele>389.95</ele>
        <time>2015-09-28T09:46:52Z</time>
      </trkpt>
      <trkpt lat="43.53825" lon="6.28195">
        <ele>390.91</ele>
        <time>2015-09-28T09:47:09Z</time>
      </trkpt>
      <trkpt lat="43.53827" lon="6.28192">
        <ele>390.91</ele>
        <time>2015-09-28T09:47:12Z</time>
      </trkpt>
      <trkpt lat="43.53828" lon="6.28188">
        <ele>390.91</ele>
        <time>2015-09-28T09:47:15Z</time>
      </trkpt>
      <trkpt lat="43.53837" lon="6.28177">
        <ele>390.91</ele>
        <time>2015-09-28T09:47:29Z</time>
      </trkpt>
      <trkpt lat="43.53845" lon="6.28166">
        <ele>391.39</ele>
        <time>2015-09-28T09:47:42Z</time>
      </trkpt>
      <trkpt lat="43.53857" lon="6.28154">
        <ele>391.39</ele>
        <time>2015-09-28T09:47:54Z</time>
      </trkpt>
      <trkpt lat="43.53866" lon="6.28149">
        <ele>392.36</ele>
        <time>2015-09-28T09:48:07Z</time>
      </trkpt>
      <trkpt lat="43.53879" lon="6.28143">
        <ele>394.28</ele>
        <time>2015-09-28T09:48:22Z</time>
      </trkpt>
      <trkpt lat="43.53893" lon="6.28133">
        <ele>396.2</ele>
        <time>2015-09-28T09:48:40Z</time>
      </trkpt>
      <trkpt lat="43.53905" lon="6.28117">
        <ele>398.12</ele>
        <time>2015-09-28T09:48:55Z</time>
      </trkpt>
      <trkpt lat="43.5391" lon="6.28111">
        <ele>398.6</ele>
        <time>2015-09-28T09:49:02Z</time>
      </trkpt>
      <trkpt lat="43.53913" lon="6.28103">
        <ele>398.12</ele>
        <time>2015-09-28T09:49:08Z</time>
      </trkpt>
      <trkpt lat="43.53915" lon="6.28095">
        <ele>398.12</ele>
        <time>2015-09-28T09:49:13Z</time>
      </trkpt>
      <trkpt lat="43.53918" lon="6.28075">
        <ele>397.64</ele>
        <time>2015-09-28T09:49:28Z</time>
      </trkpt>
      <trkpt lat="43.5392" lon="6.28052">
        <ele>397.16</ele>
        <time>2015-09-28T09:49:41Z</time>
      </trkpt>
      <trkpt lat="43.53921" lon="6.28045">
        <ele>397.16</ele>
        <time>2015-09-28T09:49:46Z</time>
      </trkpt>
      <trkpt lat="43.5392" lon="6.28039">
        <ele>397.16</ele>
        <time>2015-09-28T09:49:49Z</time>
      </trkpt>
      <trkpt lat="43.53919" lon="6.28033">
        <ele>397.16</ele>
        <time>2015-09-28T09:49:53Z</time>
      </trkpt>
      <trkpt lat="43.53923" lon="6.28018">
        <ele>397.16</ele>
        <time>2015-09-28T09:50:04Z</time>
      </trkpt>
      <trkpt lat="43.53923" lon="6.28015">
        <ele>397.16</ele>
        <time>2015-09-28T09:50:06Z</time>
      </trkpt>
      <trkpt lat="43.53925" lon="6.2801">
        <ele>397.16</ele>
        <time>2015-09-28T09:50:09Z</time>
      </trkpt>
      <trkpt lat="43.53932" lon="6.27987">
        <ele>396.68</ele>
        <time>2015-09-28T09:50:26Z</time>
      </trkpt>
      <trkpt lat="43.53932" lon="6.27985">
        <ele>396.68</ele>
        <time>2015-09-28T09:50:27Z</time>
      </trkpt>
      <trkpt lat="43.53936" lon="6.27962">
        <ele>396.2</ele>
        <time>2015-09-28T09:50:43Z</time>
      </trkpt>
      <trkpt lat="43.53937" lon="6.27957">
        <ele>395.72</ele>
        <time>2015-09-28T09:50:47Z</time>
      </trkpt>
      <trkpt lat="43.53942" lon="6.27939">
        <ele>395.24</ele>
        <time>2015-09-28T09:51:00Z</time>
      </trkpt>
      <trkpt lat="43.53946" lon="6.27924">
        <ele>395.24</ele>
        <time>2015-09-28T09:51:10Z</time>
      </trkpt>
      <trkpt lat="43.53948" lon="6.27904">
        <ele>394.76</ele>
        <time>2015-09-28T09:51:24Z</time>
      </trkpt>
      <trkpt lat="43.53952" lon="6.27879">
        <ele>394.28</ele>
        <time>2015-09-28T09:51:40Z</time>
      </trkpt>
      <trkpt lat="43.53956" lon="6.27858">
        <ele>394.28</ele>
        <time>2015-09-28T09:51:55Z</time>
      </trkpt>
      <trkpt lat="43.53961" lon="6.27831">
        <ele>393.8</ele>
        <time>2015-09-28T09:52:13Z</time>
      </trkpt>
      <trkpt lat="43.53963" lon="6.27811">
        <ele>393.32</ele>
        <time>2015-09-28T09:52:26Z</time>
      </trkpt>
      <trkpt lat="43.53963" lon="6.27806">
        <ele>392.36</ele>
        <time>2015-09-28T09:52:30Z</time>
      </trkpt>
      <trkpt lat="43.53965" lon="6.27782">
        <ele>391.87</ele>
        <time>2015-09-28T09:52:45Z</time>
      </trkpt>
      <trkpt lat="43.53966" lon="6.27768">
        <ele>391.39</ele>
        <time>2015-09-28T09:52:56Z</time>
      </trkpt>
      <trkpt lat="43.53965" lon="6.27764">
        <ele>391.39</ele>
        <time>2015-09-28T09:52:58Z</time>
      </trkpt>
      <trkpt lat="43.53965" lon="6.27739">
        <ele>390.91</ele>
        <time>2015-09-28T09:53:14Z</time>
      </trkpt>
      <trkpt lat="43.53968" lon="6.27723">
        <ele>390.91</ele>
        <time>2015-09-28T09:53:24Z</time>
      </trkpt>
      <trkpt lat="43.53968" lon="6.27713">
        <ele>390.91</ele>
        <time>2015-09-28T09:53:30Z</time>
      </trkpt>
      <trkpt lat="43.53968" lon="6.27705">
        <ele>390.91</ele>
        <time>2015-09-28T09:53:35Z</time>
      </trkpt>
      <trkpt lat="43.53968" lon="6.27697">
        <ele>390.91</ele>
        <time>2015-09-28T09:53:40Z</time>
      </trkpt>
      <trkpt lat="43.53968" lon="6.27675">
        <ele>391.39</ele>
        <time>2015-09-28T09:53:55Z</time>
      </trkpt>
      <trkpt lat="43.53967" lon="6.2765">
        <ele>391.87</ele>
        <time>2015-09-28T09:54:10Z</time>
      </trkpt>
      <trkpt lat="43.53965" lon="6.27625">
        <ele>391.87</ele>
        <time>2015-09-28T09:54:25Z</time>
      </trkpt>
      <trkpt lat="43.53964" lon="6.27604">
        <ele>392.84</ele>
        <time>2015-09-28T09:54:42Z</time>
      </trkpt>
      <trkpt lat="43.53965" lon="6.2758">
        <ele>393.8</ele>
        <time>2015-09-28T09:54:59Z</time>
      </trkpt>
      <trkpt lat="43.53967" lon="6.27566">
        <ele>394.76</ele>
        <time>2015-09-28T09:55:10Z</time>
      </trkpt>
      <trkpt lat="43.53961" lon="6.27544">
        <ele>393.32</ele>
        <time>2015-09-28T09:55:27Z</time>
      </trkpt>
      <trkpt lat="43.53948" lon="6.27528">
        <ele>392.84</ele>
        <time>2015-09-28T09:55:45Z</time>
      </trkpt>
      <trkpt lat="43.53942" lon="6.27517">
        <ele>393.32</ele>
        <time>2015-09-28T09:56:01Z</time>
      </trkpt>
      <trkpt lat="43.53941" lon="6.27518">
        <ele>392.84</ele>
        <time>2015-09-28T09:56:18Z</time>
      </trkpt>
      <trkpt lat="43.53936" lon="6.27519">
        <ele>392.84</ele>
        <time>2015-09-28T09:56:35Z</time>
      </trkpt>
      <trkpt lat="43.5393" lon="6.27524">
        <ele>392.84</ele>
        <time>2015-09-28T09:56:54Z</time>
      </trkpt>
      <trkpt lat="43.53929" lon="6.27515">
        <ele>392.84</ele>
        <time>2015-09-28T09:57:07Z</time>
      </trkpt>
      <trkpt lat="43.53931" lon="6.27511">
        <ele>392.84</ele>
        <time>2015-09-28T09:57:23Z</time>
      </trkpt>
      <trkpt lat="43.53934" lon="6.27509">
        <ele>392.84</ele>
        <time>2015-09-28T09:57:44Z</time>
      </trkpt>
      <trkpt lat="43.53929" lon="6.27512">
        <ele>392.36</ele>
        <time>2015-09-28T09:58:06Z</time>
      </trkpt>
      <trkpt lat="43.5393" lon="6.27512">
        <ele>392.84</ele>
        <time>2015-09-28T09:58:24Z</time>
      </trkpt>
      <trkpt lat="43.5393" lon="6.27511">
        <ele>392.84</ele>
        <time>2015-09-28T09:58:42Z</time>
      </trkpt>
      <trkpt lat="43.53932" lon="6.27509">
        <ele>392.84</ele>
        <time>2015-09-28T09:59:02Z</time>
      </trkpt>
      <trkpt lat="43.5393" lon="6.27508">
        <ele>392.84</ele>
        <time>2015-09-28T09:59:19Z</time>
      </trkpt>
      <trkpt lat="43.5393" lon="6.27505">
        <ele>392.84</ele>
        <time>2015-09-28T09:59:36Z</time>
      </trkpt>
      <trkpt lat="43.53929" lon="6.27506">
        <ele>392.84</ele>
        <time>2015-09-28T10:00:01Z</time>
      </trkpt>
      <trkpt lat="43.53929" lon="6.27509">
        <ele>392.84</ele>
        <time>2015-09-28T10:00:31Z</time>
      </trkpt>
      <trkpt lat="43.5393" lon="6.2751">
        <ele>392.36</ele>
        <time>2015-09-28T10:01:04Z</time>
      </trkpt>
      <trkpt lat="43.53929" lon="6.2751">
        <ele>392.84</ele>
        <time>2015-09-28T10:01:36Z</time>
      </trkpt>
      <trkpt lat="43.5393" lon="6.27511">
        <ele>392.84</ele>
        <time>2015-09-28T10:02:07Z</time>
      </trkpt>
      <trkpt lat="43.5393" lon="6.27511">
        <ele>392.36</ele>
        <time>2015-09-28T10:02:33Z</time>
      </trkpt>
      <trkpt lat="43.53929" lon="6.27511">
        <ele>392.36</ele>
        <time>2015-09-28T10:03:05Z</time>
      </trkpt>
      <trkpt lat="43.5393" lon="6.27511">
        <ele>392.36</ele>
        <time>2015-09-28T10:03:33Z</time>
      </trkpt>
      <trkpt lat="43.5393" lon="6.27512">
        <ele>392.36</ele>
        <time>2015-09-28T10:04:01Z</time>
      </trkpt>
      <trkpt lat="43.53931" lon="6.27513">
        <ele>391.87</ele>
        <time>2015-09-28T10:04:24Z</time>
      </trkpt>
      <trkpt lat="43.53931" lon="6.27513">
        <ele>391.87</ele>
        <time>2015-09-28T10:04:49Z</time>
      </trkpt>
      <trkpt lat="43.53932" lon="6.27516">
        <ele>392.36</ele>
        <time>2015-09-28T10:05:15Z</time>
      </trkpt>
      <trkpt lat="43.53932" lon="6.27516">
        <ele>392.36</ele>
        <time>2015-09-28T10:05:42Z</time>
      </trkpt>
      <trkpt lat="43.53935" lon="6.27512">
        <ele>392.36</ele>
        <time>2015-09-28T10:06:08Z</time>
      </trkpt>
      <trkpt lat="43.53934" lon="6.27517">
        <ele>392.36</ele>
        <time>2015-09-28T10:06:43Z</time>
      </trkpt>
      <trkpt lat="43.53934" lon="6.2752">
        <ele>392.36</ele>
        <time>2015-09-28T10:07:19Z</time>
      </trkpt>
      <trkpt lat="43.53934" lon="6.27521">
        <ele>392.36</ele>
        <time>2015-09-28T10:08:01Z</time>
      </trkpt>
      <trkpt lat="43.53934" lon="6.27521">
        <ele>392.36</ele>
        <time>2015-09-28T10:08:37Z</time>
      </trkpt>
      <trkpt lat="43.53935" lon="6.27519">
        <ele>392.36</ele>
        <time>2015-09-28T10:09:01Z</time>
      </trkpt>
      <trkpt lat="43.53934" lon="6.2752">
        <ele>392.84</ele>
        <time>2015-09-28T10:09:35Z</time>
      </trkpt>
      <trkpt lat="43.53935" lon="6.2752">
        <ele>392.84</ele>
        <time>2015-09-28T10:09:53Z</time>
      </trkpt>
      <trkpt lat="43.53935" lon="6.2752">
        <ele>392.84</ele>
        <time>2015-09-28T10:10:21Z</time>
      </trkpt>
      <trkpt lat="43.53935" lon="6.27521">
        <ele>392.84</ele>
        <time>2015-09-28T10:10:59Z</time>
      </trkpt>
      <trkpt lat="43.53935" lon="6.27521">
        <ele>393.32</ele>
        <time>2015-09-28T10:11:31Z</time>
      </trkpt>
      <trkpt lat="43.53936" lon="6.27522">
        <ele>393.32</ele>
        <time>2015-09-28T10:12:03Z</time>
      </trkpt>
      <trkpt lat="43.53937" lon="6.27524">
        <ele>393.32</ele>
        <time>2015-09-28T10:12:33Z</time>
      </trkpt>
      <trkpt lat="43.53936" lon="6.27524">
        <ele>393.32</ele>
        <time>2015-09-28T10:13:04Z</time>
      </trkpt>
      <trkpt lat="43.53936" lon="6.27526">
        <ele>393.8</ele>
        <time>2015-09-28T10:13:40Z</time>
      </trkpt>
      <trkpt lat="43.53935" lon="6.27525">
        <ele>393.32</ele>
        <time>2015-09-28T10:14:11Z</time>
      </trkpt>
      <trkpt lat="43.53935" lon="6.27525">
        <ele>393.8</ele>
        <time>2015-09-28T10:14:30Z</time>
      </trkpt>
      <trkpt lat="43.53935" lon="6.27524">
        <ele>393.8</ele>
        <time>2015-09-28T10:14:57Z</time>
      </trkpt>
      <trkpt lat="43.53935" lon="6.27523">
        <ele>393.8</ele>
        <time>2015-09-28T10:15:23Z</time>
      </trkpt>
      <trkpt lat="43.53936" lon="6.27522">
        <ele>394.28</ele>
        <time>2015-09-28T10:15:51Z</time>
      </trkpt>
      <trkpt lat="43.53938" lon="6.27518">
        <ele>394.28</ele>
        <time>2015-09-28T10:16:11Z</time>
      </trkpt>
      <trkpt lat="43.53936" lon="6.27517">
        <ele>393.8</ele>
        <time>2015-09-28T10:16:41Z</time>
      </trkpt>
      <trkpt lat="43.53937" lon="6.27514">
        <ele>393.8</ele>
        <time>2015-09-28T10:17:01Z</time>
      </trkpt>
      <trkpt lat="43.53938" lon="6.27512">
        <ele>393.8</ele>
        <time>2015-09-28T10:17:18Z</time>
      </trkpt>
      <trkpt lat="43.53939" lon="6.2751">
        <ele>393.8</ele>
        <time>2015-09-28T10:17:51Z</time>
      </trkpt>
      <trkpt lat="43.53938" lon="6.2751">
        <ele>393.8</ele>
        <time>2015-09-28T10:18:25Z</time>
      </trkpt>
      <trkpt lat="43.53937" lon="6.2751">
        <ele>394.28</ele>
        <time>2015-09-28T10:18:55Z</time>
      </trkpt>
      <trkpt lat="43.53938" lon="6.2751">
        <ele>393.8</ele>
        <time>2015-09-28T10:19:23Z</time>
      </trkpt>
      <trkpt lat="43.53939" lon="6.27511">
        <ele>394.28</ele>
        <time>2015-09-28T10:19:52Z</time>
      </trkpt>
      <trkpt lat="43.53939" lon="6.27511">
        <ele>393.8</ele>
        <time>2015-09-28T10:20:18Z</time>
      </trkpt>
      <trkpt lat="43.53939" lon="6.27512">
        <ele>394.28</ele>
        <time>2015-09-28T10:20:44Z</time>
      </trkpt>
      <trkpt lat="43.53939" lon="6.27512">
        <ele>394.28</ele>
        <time>2015-09-28T10:21:01Z</time>
      </trkpt>
      <trkpt lat="43.53939" lon="6.27512">
        <ele>394.28</ele>
        <time>2015-09-28T10:21:25Z</time>
      </trkpt>
      <trkpt lat="43.53939" lon="6.2751">
        <ele>394.76</ele>
        <time>2015-09-28T10:21:54Z</time>
      </trkpt>
      <trkpt lat="43.53938" lon="6.2751">
        <ele>394.76</ele>
        <time>2015-09-28T10:22:20Z</time>
      </trkpt>
      <trkpt lat="43.53939" lon="6.2751">
        <ele>394.28</ele>
        <time>2015-09-28T10:22:42Z</time>
      </trkpt>
      <trkpt lat="43.53939" lon="6.2751">
        <ele>394.28</ele>
        <time>2015-09-28T10:23:09Z</time>
      </trkpt>
      <trkpt lat="43.5394" lon="6.27508">
        <ele>394.76</ele>
        <time>2015-09-28T10:23:37Z</time>
      </trkpt>
      <trkpt lat="43.53939" lon="6.27501">
        <ele>394.76</ele>
        <time>2015-09-28T10:24:08Z</time>
      </trkpt>
      <trkpt lat="43.53941" lon="6.27503">
        <ele>394.76</ele>
        <time>2015-09-28T10:24:45Z</time>
      </trkpt>
      <trkpt lat="43.53941" lon="6.27505">
        <ele>394.76</ele>
        <time>2015-09-28T10:25:17Z</time>
      </trkpt>
      <trkpt lat="43.53941" lon="6.27506">
        <ele>394.76</ele>
        <time>2015-09-28T10:25:54Z</time>
      </trkpt>
      <trkpt lat="43.53942" lon="6.27506">
        <ele>394.76</ele>
        <time>2015-09-28T10:26:26Z</time>
      </trkpt>
      <trkpt lat="43.53943" lon="6.27507">
        <ele>395.24</ele>
        <time>2015-09-28T10:27:03Z</time>
      </trkpt>
      <trkpt lat="43.53945" lon="6.27508">
        <ele>394.76</ele>
        <time>2015-09-28T10:27:43Z</time>
      </trkpt>
      <trkpt lat="43.53947" lon="6.27509">
        <ele>394.76</ele>
        <time>2015-09-28T10:28:23Z</time>
      </trkpt>
      <trkpt lat="43.53946" lon="6.27508">
        <ele>395.24</ele>
        <time>2015-09-28T10:28:57Z</time>
      </trkpt>
      <trkpt lat="43.53946" lon="6.27508">
        <ele>395.24</ele>
        <time>2015-09-28T10:29:31Z</time>
      </trkpt>
      <trkpt lat="43.53949" lon="6.27508">
        <ele>395.24</ele>
        <time>2015-09-28T10:30:10Z</time>
      </trkpt>
      <trkpt lat="43.53949" lon="6.27508">
        <ele>395.24</ele>
        <time>2015-09-28T10:30:47Z</time>
      </trkpt>
      <trkpt lat="43.53948" lon="6.27509">
        <ele>395.24</ele>
        <time>2015-09-28T10:31:04Z</time>
      </trkpt>
      <trkpt lat="43.53949" lon="6.27516">
        <ele>395.72</ele>
        <time>2015-09-28T10:31:43Z</time>
      </trkpt>
      <trkpt lat="43.53949" lon="6.27515">
        <ele>395.72</ele>
        <time>2015-09-28T10:32:18Z</time>
      </trkpt>
      <trkpt lat="43.53949" lon="6.27515">
        <ele>396.2</ele>
        <time>2015-09-28T10:32:45Z</time>
      </trkpt>
      <trkpt lat="43.53948" lon="6.27516">
        <ele>396.2</ele>
        <time>2015-09-28T10:33:05Z</time>
      </trkpt>
      <trkpt lat="43.53947" lon="6.27517">
        <ele>396.2</ele>
        <time>2015-09-28T10:33:28Z</time>
      </trkpt>
      <trkpt lat="43.53944" lon="6.27516">
        <ele>396.68</ele>
        <time>2015-09-28T10:33:53Z</time>
      </trkpt>
      <trkpt lat="43.53944" lon="6.27516">
        <ele>396.2</ele>
        <time>2015-09-28T10:34:08Z</time>
      </trkpt>
      <trkpt lat="43.53944" lon="6.27516">
        <ele>396.68</ele>
        <time>2015-09-28T10:34:35Z</time>
      </trkpt>
      <trkpt lat="43.53947" lon="6.27506">
        <ele>395.72</ele>
        <time>2015-09-28T10:34:48Z</time>
      </trkpt>
      <trkpt lat="43.53949" lon="6.27496">
        <ele>394.76</ele>
        <time>2015-09-28T10:35:04Z</time>
      </trkpt>
      <trkpt lat="43.53951" lon="6.27492">
        <ele>394.76</ele>
        <time>2015-09-28T10:35:23Z</time>
      </trkpt>
      <trkpt lat="43.53953" lon="6.27491">
        <ele>394.28</ele>
        <time>2015-09-28T10:35:44Z</time>
      </trkpt>
      <trkpt lat="43.53955" lon="6.27491">
        <ele>394.28</ele>
        <time>2015-09-28T10:36:15Z</time>
      </trkpt>
      <trkpt lat="43.53955" lon="6.27492">
        <ele>394.28</ele>
        <time>2015-09-28T10:36:37Z</time>
      </trkpt>
      <trkpt lat="43.53957" lon="6.27486">
        <ele>393.8</ele>
        <time>2015-09-28T10:37:00Z</time>
      </trkpt>
      <trkpt lat="43.5396" lon="6.27479">
        <ele>393.32</ele>
        <time>2015-09-28T10:37:06Z</time>
      </trkpt>
      <trkpt lat="43.53973" lon="6.27456">
        <ele>391.87</ele>
        <time>2015-09-28T10:37:23Z</time>
      </trkpt>
      <trkpt lat="43.53984" lon="6.27441">
        <ele>391.39</ele>
        <time>2015-09-28T10:37:38Z</time>
      </trkpt>
      <trkpt lat="43.53988" lon="6.27433">
        <ele>391.39</ele>
        <time>2015-09-28T10:37:45Z</time>
      </trkpt>
      <trkpt lat="43.54" lon="6.27415">
        <ele>391.87</ele>
        <time>2015-09-28T10:37:59Z</time>
      </trkpt>
      <trkpt lat="43.5401" lon="6.27394">
        <ele>392.36</ele>
        <time>2015-09-28T10:38:15Z</time>
      </trkpt>
      <trkpt lat="43.54017" lon="6.2738">
        <ele>392.36</ele>
        <time>2015-09-28T10:38:26Z</time>
      </trkpt>
      <trkpt lat="43.5403" lon="6.27356">
        <ele>392.36</ele>
        <time>2015-09-28T10:38:42Z</time>
      </trkpt>
      <trkpt lat="43.5404" lon="6.27342">
        <ele>392.84</ele>
        <time>2015-09-28T10:38:56Z</time>
      </trkpt>
      <trkpt lat="43.54045" lon="6.27337">
        <ele>393.32</ele>
        <time>2015-09-28T10:39:02Z</time>
      </trkpt>
      <trkpt lat="43.54052" lon="6.27326">
        <ele>392.36</ele>
        <time>2015-09-28T10:39:11Z</time>
      </trkpt>
      <trkpt lat="43.5406" lon="6.27315">
        <ele>391.39</ele>
        <time>2015-09-28T10:39:21Z</time>
      </trkpt>
      <trkpt lat="43.54068" lon="6.27303">
        <ele>389.95</ele>
        <time>2015-09-28T10:39:31Z</time>
      </trkpt>
      <trkpt lat="43.54077" lon="6.27286">
        <ele>388.99</ele>
        <time>2015-09-28T10:39:45Z</time>
      </trkpt>
      <trkpt lat="43.54079" lon="6.27282">
        <ele>388.51</ele>
        <time>2015-09-28T10:39:48Z</time>
      </trkpt>
      <trkpt lat="43.54081" lon="6.27279">
        <ele>388.51</ele>
        <time>2015-09-28T10:39:51Z</time>
      </trkpt>
      <trkpt lat="43.54094" lon="6.27259">
        <ele>387.07</ele>
        <time>2015-09-28T10:40:07Z</time>
      </trkpt>
      <trkpt lat="43.54105" lon="6.27239">
        <ele>386.59</ele>
        <time>2015-09-28T10:40:21Z</time>
      </trkpt>
      <trkpt lat="43.54115" lon="6.27223">
        <ele>386.11</ele>
        <time>2015-09-28T10:40:34Z</time>
      </trkpt>
      <trkpt lat="43.54126" lon="6.27201">
        <ele>385.63</ele>
        <time>2015-09-28T10:40:49Z</time>
      </trkpt>
      <trkpt lat="43.54136" lon="6.2718">
        <ele>385.63</ele>
        <time>2015-09-28T10:41:05Z</time>
      </trkpt>
      <trkpt lat="43.54148" lon="6.27152">
        <ele>385.63</ele>
        <time>2015-09-28T10:41:21Z</time>
      </trkpt>
      <trkpt lat="43.54154" lon="6.27127">
        <ele>386.11</ele>
        <time>2015-09-28T10:41:38Z</time>
      </trkpt>
      <trkpt lat="43.54159" lon="6.27107">
        <ele>387.07</ele>
        <time>2015-09-28T10:41:51Z</time>
      </trkpt>
      <trkpt lat="43.54163" lon="6.27084">
        <ele>388.51</ele>
        <time>2015-09-28T10:42:08Z</time>
      </trkpt>
      <trkpt lat="43.54163" lon="6.27083">
        <ele>388.51</ele>
        <time>2015-09-28T10:42:09Z</time>
      </trkpt>
      <trkpt lat="43.54164" lon="6.27078">
        <ele>388.99</ele>
        <time>2015-09-28T10:42:12Z</time>
      </trkpt>
      <trkpt lat="43.54171" lon="6.27055">
        <ele>390.43</ele>
        <time>2015-09-28T10:42:29Z</time>
      </trkpt>
      <trkpt lat="43.54175" lon="6.27048">
        <ele>390.91</ele>
        <time>2015-09-28T10:42:36Z</time>
      </trkpt>
      <trkpt lat="43.54179" lon="6.27042">
        <ele>391.39</ele>
        <time>2015-09-28T10:42:41Z</time>
      </trkpt>
      <trkpt lat="43.54185" lon="6.27027">
        <ele>391.39</ele>
        <time>2015-09-28T10:42:58Z</time>
      </trkpt>
      <trkpt lat="43.5419" lon="6.27014">
        <ele>390.91</ele>
        <time>2015-09-28T10:43:13Z</time>
      </trkpt>
      <trkpt lat="43.54194" lon="6.27004">
        <ele>390.43</ele>
        <time>2015-09-28T10:43:23Z</time>
      </trkpt>
      <trkpt lat="43.54198" lon="6.26992">
        <ele>389.47</ele>
        <time>2015-09-28T10:43:36Z</time>
      </trkpt>
      <trkpt lat="43.54205" lon="6.26981">
        <ele>387.55</ele>
        <time>2015-09-28T10:43:52Z</time>
      </trkpt>
      <trkpt lat="43.54211" lon="6.26972">
        <ele>385.63</ele>
        <time>2015-09-28T10:44:08Z</time>
      </trkpt>
      <trkpt lat="43.5422" lon="6.26962">
        <ele>383.7</ele>
        <time>2015-09-28T10:44:27Z</time>
      </trkpt>
      <trkpt lat="43.54224" lon="6.26954">
        <ele>381.78</ele>
        <time>2015-09-28T10:44:44Z</time>
      </trkpt>
      <trkpt lat="43.54227" lon="6.26952">
        <ele>379.86</ele>
        <time>2015-09-28T10:45:02Z</time>
      </trkpt>
      <trkpt lat="43.54229" lon="6.26947">
        <ele>378.42</ele>
        <time>2015-09-28T10:45:20Z</time>
      </trkpt>
      <trkpt lat="43.54234" lon="6.26937">
        <ele>376.01</ele>
        <time>2015-09-28T10:45:36Z</time>
      </trkpt>
      <trkpt lat="43.54241" lon="6.26926">
        <ele>372.65</ele>
        <time>2015-09-28T10:45:53Z</time>
      </trkpt>
      <trkpt lat="43.54247" lon="6.26915">
        <ele>369.76</ele>
        <time>2015-09-28T10:46:09Z</time>
      </trkpt>
      <trkpt lat="43.54248" lon="6.26911">
        <ele>369.28</ele>
        <time>2015-09-28T10:46:12Z</time>
      </trkpt>
      <trkpt lat="43.54257" lon="6.26904">
        <ele>367.36</ele>
        <time>2015-09-28T10:46:25Z</time>
      </trkpt>
      <trkpt lat="43.54262" lon="6.26898">
        <ele>366.4</ele>
        <time>2015-09-28T10:46:40Z</time>
      </trkpt>
      <trkpt lat="43.54264" lon="6.2689">
        <ele>365.92</ele>
        <time>2015-09-28T10:46:45Z</time>
      </trkpt>
      <trkpt lat="43.54263" lon="6.26878">
        <ele>365.44</ele>
        <time>2015-09-28T10:46:54Z</time>
      </trkpt>
      <trkpt lat="43.54263" lon="6.26853">
        <ele>365.44</ele>
        <time>2015-09-28T10:47:09Z</time>
      </trkpt>
      <trkpt lat="43.54257" lon="6.26838">
        <ele>365.92</ele>
        <time>2015-09-28T10:47:24Z</time>
      </trkpt>
      <trkpt lat="43.54252" lon="6.26822">
        <ele>366.4</ele>
        <time>2015-09-28T10:47:39Z</time>
      </trkpt>
      <trkpt lat="43.54249" lon="6.2681">
        <ele>366.4</ele>
        <time>2015-09-28T10:47:52Z</time>
      </trkpt>
      <trkpt lat="43.54246" lon="6.26794">
        <ele>366.4</ele>
        <time>2015-09-28T10:48:07Z</time>
      </trkpt>
      <trkpt lat="43.54247" lon="6.26785">
        <ele>364.48</ele>
        <time>2015-09-28T10:48:22Z</time>
      </trkpt>
      <trkpt lat="43.54248" lon="6.26778">
        <ele>362.55</ele>
        <time>2015-09-28T10:48:37Z</time>
      </trkpt>
      <trkpt lat="43.54251" lon="6.26764">
        <ele>359.19</ele>
        <time>2015-09-28T10:48:56Z</time>
      </trkpt>
      <trkpt lat="43.54253" lon="6.2676">
        <ele>358.23</ele>
        <time>2015-09-28T10:49:10Z</time>
      </trkpt>
      <trkpt lat="43.54256" lon="6.26753">
        <ele>356.31</ele>
        <time>2015-09-28T10:49:28Z</time>
      </trkpt>
      <trkpt lat="43.54256" lon="6.26742">
        <ele>354.38</ele>
        <time>2015-09-28T10:49:43Z</time>
      </trkpt>
      <trkpt lat="43.54258" lon="6.26744">
        <ele>352.94</ele>
        <time>2015-09-28T10:50:01Z</time>
      </trkpt>
      <trkpt lat="43.54262" lon="6.26748">
        <ele>350.06</ele>
        <time>2015-09-28T10:50:19Z</time>
      </trkpt>
      <trkpt lat="43.54272" lon="6.26758">
        <ele>347.17</ele>
        <time>2015-09-28T10:50:37Z</time>
      </trkpt>
      <trkpt lat="43.54276" lon="6.26763">
        <ele>346.21</ele>
        <time>2015-09-28T10:50:42Z</time>
      </trkpt>
      <trkpt lat="43.54282" lon="6.26781">
        <ele>344.29</ele>
        <time>2015-09-28T10:50:59Z</time>
      </trkpt>
      <trkpt lat="43.54284" lon="6.26787">
        <ele>343.81</ele>
        <time>2015-09-28T10:51:05Z</time>
      </trkpt>
      <trkpt lat="43.5429" lon="6.26794">
        <ele>343.33</ele>
        <time>2015-09-28T10:51:18Z</time>
      </trkpt>
      <trkpt lat="43.54296" lon="6.268">
        <ele>340.92</ele>
        <time>2015-09-28T10:51:34Z</time>
      </trkpt>
      <trkpt lat="43.54299" lon="6.26804">
        <ele>340.92</ele>
        <time>2015-09-28T10:51:41Z</time>
      </trkpt>
      <trkpt lat="43.54304" lon="6.26808">
        <ele>339</ele>
        <time>2015-09-28T10:51:55Z</time>
      </trkpt>
      <trkpt lat="43.54307" lon="6.26801">
        <ele>337.56</ele>
        <time>2015-09-28T10:52:12Z</time>
      </trkpt>
      <trkpt lat="43.54307" lon="6.26798">
        <ele>337.08</ele>
        <time>2015-09-28T10:52:31Z</time>
      </trkpt>
      <trkpt lat="43.54307" lon="6.26792">
        <ele>336.12</ele>
        <time>2015-09-28T10:52:47Z</time>
      </trkpt>
      <trkpt lat="43.54306" lon="6.26784">
        <ele>334.2</ele>
        <time>2015-09-28T10:53:02Z</time>
      </trkpt>
      <trkpt lat="43.54308" lon="6.2677">
        <ele>332.75</ele>
        <time>2015-09-28T10:53:15Z</time>
      </trkpt>
      <trkpt lat="43.54306" lon="6.26761">
        <ele>332.27</ele>
        <time>2015-09-28T10:53:20Z</time>
      </trkpt>
      <trkpt lat="43.54305" lon="6.2675">
        <ele>330.83</ele>
        <time>2015-09-28T10:53:37Z</time>
      </trkpt>
      <trkpt lat="43.54305" lon="6.26748">
        <ele>330.35</ele>
        <time>2015-09-28T10:53:38Z</time>
      </trkpt>
      <trkpt lat="43.54305" lon="6.26743">
        <ele>330.35</ele>
        <time>2015-09-28T10:53:41Z</time>
      </trkpt>
      <trkpt lat="43.54304" lon="6.26726">
        <ele>328.91</ele>
        <time>2015-09-28T10:53:55Z</time>
      </trkpt>
      <trkpt lat="43.54302" lon="6.26709">
        <ele>327.47</ele>
        <time>2015-09-28T10:54:11Z</time>
      </trkpt>
      <trkpt lat="43.543" lon="6.26696">
        <ele>326.5</ele>
        <time>2015-09-28T10:54:23Z</time>
      </trkpt>
      <trkpt lat="43.543" lon="6.26695">
        <ele>326.02</ele>
        <time>2015-09-28T10:54:24Z</time>
      </trkpt>
      <trkpt lat="43.54294" lon="6.26676">
        <ele>324.58</ele>
        <time>2015-09-28T10:54:39Z</time>
      </trkpt>
      <trkpt lat="43.54292" lon="6.26668">
        <ele>323.14</ele>
        <time>2015-09-28T10:54:54Z</time>
      </trkpt>
      <trkpt lat="43.54292" lon="6.26659">
        <ele>321.22</ele>
        <time>2015-09-28T10:55:08Z</time>
      </trkpt>
      <trkpt lat="43.54291" lon="6.26653">
        <ele>319.78</ele>
        <time>2015-09-28T10:55:19Z</time>
      </trkpt>
      <trkpt lat="43.5429" lon="6.2665">
        <ele>319.78</ele>
        <time>2015-09-28T10:55:40Z</time>
      </trkpt>
      <trkpt lat="43.54288" lon="6.26645">
        <ele>318.81</ele>
        <time>2015-09-28T10:55:53Z</time>
      </trkpt>
      <trkpt lat="43.54289" lon="6.26637">
        <ele>316.89</ele>
        <time>2015-09-28T10:56:08Z</time>
      </trkpt>
      <trkpt lat="43.54289" lon="6.26627">
        <ele>314.97</ele>
        <time>2015-09-28T10:56:25Z</time>
      </trkpt>
      <trkpt lat="43.54289" lon="6.26624">
        <ele>313.05</ele>
        <time>2015-09-28T10:56:41Z</time>
      </trkpt>
      <trkpt lat="43.54292" lon="6.26624">
        <ele>310.64</ele>
        <time>2015-09-28T10:56:58Z</time>
      </trkpt>
      <trkpt lat="43.54299" lon="6.26625">
        <ele>308.72</ele>
        <time>2015-09-28T10:57:13Z</time>
      </trkpt>
      <trkpt lat="43.54305" lon="6.26633">
        <ele>306.8</ele>
        <time>2015-09-28T10:57:31Z</time>
      </trkpt>
      <trkpt lat="43.54311" lon="6.26639">
        <ele>304.88</ele>
        <time>2015-09-28T10:57:48Z</time>
      </trkpt>
      <trkpt lat="43.54316" lon="6.26642">
        <ele>303.91</ele>
        <time>2015-09-28T10:58:04Z</time>
      </trkpt>
      <trkpt lat="43.54322" lon="6.26639">
        <ele>302.95</ele>
        <time>2015-09-28T10:58:21Z</time>
      </trkpt>
      <trkpt lat="43.54325" lon="6.26632">
        <ele>301.03</ele>
        <time>2015-09-28T10:58:35Z</time>
      </trkpt>
      <trkpt lat="43.54325" lon="6.26624">
        <ele>299.59</ele>
        <time>2015-09-28T10:58:51Z</time>
      </trkpt>
      <trkpt lat="43.54325" lon="6.26618">
        <ele>297.18</ele>
        <time>2015-09-28T10:59:08Z</time>
      </trkpt>
      <trkpt lat="43.54325" lon="6.26607">
        <ele>295.26</ele>
        <time>2015-09-28T10:59:25Z</time>
      </trkpt>
      <trkpt lat="43.54323" lon="6.26602">
        <ele>294.3</ele>
        <time>2015-09-28T10:59:37Z</time>
      </trkpt>
      <trkpt lat="43.54323" lon="6.26598">
        <ele>293.34</ele>
        <time>2015-09-28T10:59:54Z</time>
      </trkpt>
      <trkpt lat="43.54324" lon="6.26593">
        <ele>291.9</ele>
        <time>2015-09-28T11:00:08Z</time>
      </trkpt>
      <trkpt lat="43.54323" lon="6.26588">
        <ele>290.94</ele>
        <time>2015-09-28T11:00:21Z</time>
      </trkpt>
      <trkpt lat="43.5432" lon="6.26575">
        <ele>289.01</ele>
        <time>2015-09-28T11:00:34Z</time>
      </trkpt>
      <trkpt lat="43.5432" lon="6.26572">
        <ele>288.05</ele>
        <time>2015-09-28T11:00:49Z</time>
      </trkpt>
      <trkpt lat="43.54319" lon="6.26567">
        <ele>286.61</ele>
        <time>2015-09-28T11:01:02Z</time>
      </trkpt>
      <trkpt lat="43.54321" lon="6.26555">
        <ele>284.21</ele>
        <time>2015-09-28T11:01:17Z</time>
      </trkpt>
      <trkpt lat="43.54321" lon="6.26552">
        <ele>283.25</ele>
        <time>2015-09-28T11:01:29Z</time>
      </trkpt>
      <trkpt lat="43.54324" lon="6.26541">
        <ele>281.32</ele>
        <time>2015-09-28T11:01:44Z</time>
      </trkpt>
      <trkpt lat="43.54326" lon="6.26535">
        <ele>278.92</ele>
        <time>2015-09-28T11:02:03Z</time>
      </trkpt>
      <trkpt lat="43.54328" lon="6.26527">
        <ele>277</ele>
        <time>2015-09-28T11:02:22Z</time>
      </trkpt>
      <trkpt lat="43.54331" lon="6.26514">
        <ele>275.07</ele>
        <time>2015-09-28T11:02:36Z</time>
      </trkpt>
      <trkpt lat="43.54332" lon="6.2651">
        <ele>273.63</ele>
        <time>2015-09-28T11:02:52Z</time>
      </trkpt>
      <trkpt lat="43.54333" lon="6.26506">
        <ele>272.67</ele>
        <time>2015-09-28T11:03:05Z</time>
      </trkpt>
      <trkpt lat="43.54336" lon="6.26498">
        <ele>271.23</ele>
        <time>2015-09-28T11:03:22Z</time>
      </trkpt>
      <trkpt lat="43.54339" lon="6.26486">
        <ele>269.79</ele>
        <time>2015-09-28T11:03:37Z</time>
      </trkpt>
      <trkpt lat="43.5434" lon="6.26476">
        <ele>268.35</ele>
        <time>2015-09-28T11:03:54Z</time>
      </trkpt>
      <trkpt lat="43.5434" lon="6.26461">
        <ele>266.42</ele>
        <time>2015-09-28T11:04:08Z</time>
      </trkpt>
      <trkpt lat="43.5434" lon="6.26456">
        <ele>265.94</ele>
        <time>2015-09-28T11:04:12Z</time>
      </trkpt>
      <trkpt lat="43.54341" lon="6.26443">
        <ele>264.5</ele>
        <time>2015-09-28T11:04:27Z</time>
      </trkpt>
      <trkpt lat="43.54341" lon="6.26442">
        <ele>264.5</ele>
        <time>2015-09-28T11:04:48Z</time>
      </trkpt>
      <trkpt lat="43.54341" lon="6.26438">
        <ele>264.5</ele>
        <time>2015-09-28T11:05:08Z</time>
      </trkpt>
      <trkpt lat="43.54341" lon="6.26438">
        <ele>264.5</ele>
        <time>2015-09-28T11:05:29Z</time>
      </trkpt>
      <trkpt lat="43.54341" lon="6.26437">
        <ele>264.02</ele>
        <time>2015-09-28T11:05:46Z</time>
      </trkpt>
      <trkpt lat="43.54341" lon="6.26436">
        <ele>264.02</ele>
        <time>2015-09-28T11:05:53Z</time>
      </trkpt>
      <trkpt lat="43.54341" lon="6.26426">
        <ele>261.62</ele>
        <time>2015-09-28T11:06:07Z</time>
      </trkpt>
      <trkpt lat="43.54341" lon="6.26425">
        <ele>261.62</ele>
        <time>2015-09-28T11:06:25Z</time>
      </trkpt>
      <trkpt lat="43.54341" lon="6.26425">
        <ele>261.14</ele>
        <time>2015-09-28T11:06:48Z</time>
      </trkpt>
      <trkpt lat="43.54341" lon="6.26425">
        <ele>261.62</ele>
        <time>2015-09-28T11:07:09Z</time>
      </trkpt>
      <trkpt lat="43.54341" lon="6.26424">
        <ele>261.62</ele>
        <time>2015-09-28T11:07:35Z</time>
      </trkpt>
      <trkpt lat="43.54341" lon="6.26415">
        <ele>260.65</ele>
        <time>2015-09-28T11:07:49Z</time>
      </trkpt>
      <trkpt lat="43.54336" lon="6.26405">
        <ele>258.73</ele>
        <time>2015-09-28T11:08:00Z</time>
      </trkpt>
      <trkpt lat="43.54337" lon="6.26404">
        <ele>258.25</ele>
        <time>2015-09-28T11:08:03Z</time>
      </trkpt>
      <trkpt lat="43.54341" lon="6.26394">
        <ele>256.81</ele>
        <time>2015-09-28T11:08:16Z</time>
      </trkpt>
      <trkpt lat="43.54344" lon="6.26383">
        <ele>254.89</ele>
        <time>2015-09-28T11:08:28Z</time>
      </trkpt>
      <trkpt lat="43.54344" lon="6.26366">
        <ele>252.48</ele>
        <time>2015-09-28T11:08:41Z</time>
      </trkpt>
      <trkpt lat="43.54347" lon="6.26351">
        <ele>251.52</ele>
        <time>2015-09-28T11:08:55Z</time>
      </trkpt>
      <trkpt lat="43.54347" lon="6.2635">
        <ele>251.52</ele>
        <time>2015-09-28T11:08:56Z</time>
      </trkpt>
      <trkpt lat="43.54348" lon="6.26338">
        <ele>251.04</ele>
        <time>2015-09-28T11:09:11Z</time>
      </trkpt>
      <trkpt lat="43.54347" lon="6.26338">
        <ele>251.04</ele>
        <time>2015-09-28T11:09:34Z</time>
      </trkpt>
      <trkpt lat="43.54348" lon="6.26338">
        <ele>251.04</ele>
        <time>2015-09-28T11:10:00Z</time>
      </trkpt>
      <trkpt lat="43.54348" lon="6.26338">
        <ele>251.04</ele>
        <time>2015-09-28T11:10:20Z</time>
      </trkpt>
      <trkpt lat="43.54348" lon="6.26338">
        <ele>250.56</ele>
        <time>2015-09-28T11:10:48Z</time>
      </trkpt>
      <trkpt lat="43.54348" lon="6.26338">
        <ele>250.56</ele>
        <time>2015-09-28T11:11:14Z</time>
      </trkpt>
      <trkpt lat="43.54348" lon="6.26338">
        <ele>250.56</ele>
        <time>2015-09-28T11:11:16Z</time>
      </trkpt>
      <trkpt lat="43.54345" lon="6.26332">
        <ele>250.08</ele>
        <time>2015-09-28T11:11:22Z</time>
      </trkpt>
      <trkpt lat="43.54338" lon="6.26318">
        <ele>250.08</ele>
        <time>2015-09-28T11:11:32Z</time>
      </trkpt>
      <trkpt lat="43.54337" lon="6.26315">
        <ele>250.08</ele>
        <time>2015-09-28T11:11:34Z</time>
      </trkpt>
      <trkpt lat="43.54326" lon="6.26294">
        <ele>249.12</ele>
        <time>2015-09-28T11:11:49Z</time>
      </trkpt>
      <trkpt lat="43.54324" lon="6.26287">
        <ele>248.64</ele>
        <time>2015-09-28T11:11:56Z</time>
      </trkpt>
      <trkpt lat="43.54324" lon="6.26273">
        <ele>247.68</ele>
        <time>2015-09-28T11:12:06Z</time>
      </trkpt>
      <trkpt lat="43.54322" lon="6.26261">
        <ele>247.68</ele>
        <time>2015-09-28T11:12:24Z</time>
      </trkpt>
      <trkpt lat="43.54321" lon="6.2626">
        <ele>247.68</ele>
        <time>2015-09-28T11:12:44Z</time>
      </trkpt>
      <trkpt lat="43.54323" lon="6.26258">
        <ele>247.68</ele>
        <time>2015-09-28T11:13:03Z</time>
      </trkpt>
      <trkpt lat="43.54323" lon="6.26258">
        <ele>247.2</ele>
        <time>2015-09-28T11:13:22Z</time>
      </trkpt>
      <trkpt lat="43.54323" lon="6.26258">
        <ele>247.2</ele>
        <time>2015-09-28T11:13:37Z</time>
      </trkpt>
      <trkpt lat="43.54323" lon="6.26257">
        <ele>247.2</ele>
        <time>2015-09-28T11:13:56Z</time>
      </trkpt>
      <trkpt lat="43.54323" lon="6.26258">
        <ele>247.2</ele>
        <time>2015-09-28T11:14:18Z</time>
      </trkpt>
      <trkpt lat="43.54322" lon="6.26258">
        <ele>247.2</ele>
        <time>2015-09-28T11:14:41Z</time>
      </trkpt>
      <trkpt lat="43.54322" lon="6.26258">
        <ele>247.2</ele>
        <time>2015-09-28T11:15:04Z</time>
      </trkpt>
      <trkpt lat="43.54321" lon="6.26257">
        <ele>247.2</ele>
        <time>2015-09-28T11:15:21Z</time>
      </trkpt>
      <trkpt lat="43.54321" lon="6.26256">
        <ele>247.2</ele>
        <time>2015-09-28T11:15:26Z</time>
      </trkpt>
      <trkpt lat="43.54321" lon="6.26252">
        <ele>247.2</ele>
        <time>2015-09-28T11:15:29Z</time>
      </trkpt>
      <trkpt lat="43.54322" lon="6.26231">
        <ele>246.23</ele>
        <time>2015-09-28T11:15:42Z</time>
      </trkpt>
      <trkpt lat="43.54324" lon="6.26217">
        <ele>246.23</ele>
        <time>2015-09-28T11:15:51Z</time>
      </trkpt>
      <trkpt lat="43.54322" lon="6.26211">
        <ele>245.75</ele>
        <time>2015-09-28T11:15:55Z</time>
      </trkpt>
      <trkpt lat="43.5432" lon="6.26185">
        <ele>245.27</ele>
        <time>2015-09-28T11:16:11Z</time>
      </trkpt>
      <trkpt lat="43.54319" lon="6.26177">
        <ele>245.27</ele>
        <time>2015-09-28T11:16:17Z</time>
      </trkpt>
      <trkpt lat="43.54317" lon="6.26167">
        <ele>245.27</ele>
        <time>2015-09-28T11:16:24Z</time>
      </trkpt>
      <trkpt lat="43.54309" lon="6.26145">
        <ele>244.79</ele>
        <time>2015-09-28T11:16:39Z</time>
      </trkpt>
      <trkpt lat="43.54307" lon="6.26137">
        <ele>244.31</ele>
        <time>2015-09-28T11:16:47Z</time>
      </trkpt>
      <trkpt lat="43.54301" lon="6.26118">
        <ele>243.35</ele>
        <time>2015-09-28T11:17:01Z</time>
      </trkpt>
      <trkpt lat="43.54295" lon="6.26107">
        <ele>242.39</ele>
        <time>2015-09-28T11:17:09Z</time>
      </trkpt>
      <trkpt lat="43.5429" lon="6.26096">
        <ele>241.43</ele>
        <time>2015-09-28T11:17:17Z</time>
      </trkpt>
      <trkpt lat="43.54289" lon="6.26093">
        <ele>241.43</ele>
        <time>2015-09-28T11:17:19Z</time>
      </trkpt>
      <trkpt lat="43.5428" lon="6.2608">
        <ele>239.51</ele>
        <time>2015-09-28T11:17:32Z</time>
      </trkpt>
      <trkpt lat="43.5428" lon="6.26078">
        <ele>239.02</ele>
        <time>2015-09-28T11:17:33Z</time>
      </trkpt>
      <trkpt lat="43.54276" lon="6.26074">
        <ele>238.54</ele>
        <time>2015-09-28T11:17:39Z</time>
      </trkpt>
      <trkpt lat="43.54272" lon="6.26057">
        <ele>236.62</ele>
        <time>2015-09-28T11:17:54Z</time>
      </trkpt>
      <trkpt lat="43.54269" lon="6.2604">
        <ele>234.7</ele>
        <time>2015-09-28T11:18:07Z</time>
      </trkpt>
      <trkpt lat="43.54268" lon="6.26025">
        <ele>232.78</ele>
        <time>2015-09-28T11:18:20Z</time>
      </trkpt>
      <trkpt lat="43.54266" lon="6.26005">
        <ele>230.85</ele>
        <time>2015-09-28T11:18:35Z</time>
      </trkpt>
      <trkpt lat="43.54267" lon="6.2599">
        <ele>229.89</ele>
        <time>2015-09-28T11:18:44Z</time>
      </trkpt>
      <trkpt lat="43.54276" lon="6.25972">
        <ele>228.93</ele>
        <time>2015-09-28T11:18:59Z</time>
      </trkpt>
      <trkpt lat="43.54278" lon="6.25968">
        <ele>228.93</ele>
        <time>2015-09-28T11:19:02Z</time>
      </trkpt>
      <trkpt lat="43.54279" lon="6.25963">
        <ele>228.93</ele>
        <time>2015-09-28T11:19:05Z</time>
      </trkpt>
      <trkpt lat="43.5429" lon="6.25943">
        <ele>229.41</ele>
        <time>2015-09-28T11:19:21Z</time>
      </trkpt>
      <trkpt lat="43.5429" lon="6.25941">
        <ele>228.45</ele>
        <time>2015-09-28T11:19:22Z</time>
      </trkpt>
      <trkpt lat="43.54304" lon="6.25922">
        <ele>228.45</ele>
        <time>2015-09-28T11:19:38Z</time>
      </trkpt>
      <trkpt lat="43.54317" lon="6.25906">
        <ele>228.93</ele>
        <time>2015-09-28T11:19:52Z</time>
      </trkpt>
      <trkpt lat="43.54319" lon="6.25903">
        <ele>228.93</ele>
        <time>2015-09-28T11:19:54Z</time>
      </trkpt>
      <trkpt lat="43.54326" lon="6.25881">
        <ele>228.45</ele>
        <time>2015-09-28T11:20:09Z</time>
      </trkpt>
      <trkpt lat="43.54328" lon="6.25873">
        <ele>228.45</ele>
        <time>2015-09-28T11:20:15Z</time>
      </trkpt>
      <trkpt lat="43.54331" lon="6.25853">
        <ele>228.45</ele>
        <time>2015-09-28T11:20:28Z</time>
      </trkpt>
      <trkpt lat="43.54332" lon="6.25835">
        <ele>228.45</ele>
        <time>2015-09-28T11:20:41Z</time>
      </trkpt>
      <trkpt lat="43.54335" lon="6.25812">
        <ele>228.45</ele>
        <time>2015-09-28T11:20:56Z</time>
      </trkpt>
      <trkpt lat="43.54338" lon="6.25804">
        <ele>227.97</ele>
        <time>2015-09-28T11:21:02Z</time>
      </trkpt>
      <trkpt lat="43.54342" lon="6.25786">
        <ele>228.45</ele>
        <time>2015-09-28T11:21:15Z</time>
      </trkpt>
      <trkpt lat="43.54342" lon="6.25784">
        <ele>228.45</ele>
        <time>2015-09-28T11:21:16Z</time>
      </trkpt>
      <trkpt lat="43.54348" lon="6.25757">
        <ele>228.45</ele>
        <time>2015-09-28T11:21:31Z</time>
      </trkpt>
      <trkpt lat="43.54357" lon="6.25747">
        <ele>226.53</ele>
        <time>2015-09-28T11:21:47Z</time>
      </trkpt>
      <trkpt lat="43.54371" lon="6.25738">
        <ele>224.61</ele>
        <time>2015-09-28T11:22:03Z</time>
      </trkpt>
      <trkpt lat="43.54379" lon="6.25721">
        <ele>222.68</ele>
        <time>2015-09-28T11:22:18Z</time>
      </trkpt>
      <trkpt lat="43.54387" lon="6.25705">
        <ele>221.24</ele>
        <time>2015-09-28T11:22:33Z</time>
      </trkpt>
      <trkpt lat="43.54402" lon="6.25684">
        <ele>219.8</ele>
        <time>2015-09-28T11:22:51Z</time>
      </trkpt>
      <trkpt lat="43.5441" lon="6.2567">
        <ele>218.84</ele>
        <time>2015-09-28T11:23:05Z</time>
      </trkpt>
      <trkpt lat="43.5441" lon="6.25669">
        <ele>218.84</ele>
        <time>2015-09-28T11:23:06Z</time>
      </trkpt>
      <trkpt lat="43.54413" lon="6.25662">
        <ele>218.84</ele>
        <time>2015-09-28T11:23:10Z</time>
      </trkpt>
      <trkpt lat="43.5442" lon="6.25649">
        <ele>217.88</ele>
        <time>2015-09-28T11:23:23Z</time>
      </trkpt>
      <trkpt lat="43.54424" lon="6.25639">
        <ele>216.91</ele>
        <time>2015-09-28T11:23:32Z</time>
      </trkpt>
      <trkpt lat="43.54437" lon="6.25616">
        <ele>215.95</ele>
        <time>2015-09-28T11:23:48Z</time>
      </trkpt>
      <trkpt lat="43.54449" lon="6.25599">
        <ele>214.51</ele>
        <time>2015-09-28T11:24:05Z</time>
      </trkpt>
      <trkpt lat="43.5446" lon="6.25585">
        <ele>214.03</ele>
        <time>2015-09-28T11:24:20Z</time>
      </trkpt>
      <trkpt lat="43.54464" lon="6.25576">
        <ele>213.55</ele>
        <time>2015-09-28T11:24:28Z</time>
      </trkpt>
      <trkpt lat="43.54472" lon="6.25556">
        <ele>212.59</ele>
        <time>2015-09-28T11:24:42Z</time>
      </trkpt>
      <trkpt lat="43.54478" lon="6.25539">
        <ele>211.63</ele>
        <time>2015-09-28T11:24:54Z</time>
      </trkpt>
      <trkpt lat="43.54484" lon="6.25518">
        <ele>211.15</ele>
        <time>2015-09-28T11:25:10Z</time>
      </trkpt>
      <trkpt lat="43.54496" lon="6.25492">
        <ele>211.15</ele>
        <time>2015-09-28T11:25:26Z</time>
      </trkpt>
      <trkpt lat="43.54503" lon="6.25476">
        <ele>211.15</ele>
        <time>2015-09-28T11:25:39Z</time>
      </trkpt>
      <trkpt lat="43.54507" lon="6.25458">
        <ele>210.67</ele>
        <time>2015-09-28T11:25:54Z</time>
      </trkpt>
      <trkpt lat="43.54515" lon="6.25439">
        <ele>210.67</ele>
        <time>2015-09-28T11:26:09Z</time>
      </trkpt>
      <trkpt lat="43.54523" lon="6.25423">
        <ele>210.19</ele>
        <time>2015-09-28T11:26:21Z</time>
      </trkpt>
      <trkpt lat="43.54529" lon="6.25404">
        <ele>209.7</ele>
        <time>2015-09-28T11:26:36Z</time>
      </trkpt>
      <trkpt lat="43.5453" lon="6.25401">
        <ele>209.22</ele>
        <time>2015-09-28T11:26:38Z</time>
      </trkpt>
      <trkpt lat="43.54531" lon="6.25398">
        <ele>209.22</ele>
        <time>2015-09-28T11:26:40Z</time>
      </trkpt>
      <trkpt lat="43.5454" lon="6.25373">
        <ele>208.26</ele>
        <time>2015-09-28T11:26:55Z</time>
      </trkpt>
      <trkpt lat="43.54541" lon="6.25371">
        <ele>208.26</ele>
        <time>2015-09-28T11:26:57Z</time>
      </trkpt>
      <trkpt lat="43.54543" lon="6.25366">
        <ele>207.78</ele>
        <time>2015-09-28T11:27:00Z</time>
      </trkpt>
      <trkpt lat="43.54543" lon="6.25359">
        <ele>207.3</ele>
        <time>2015-09-28T11:27:04Z</time>
      </trkpt>
      <trkpt lat="43.54539" lon="6.25356">
        <ele>207.3</ele>
        <time>2015-09-28T11:27:07Z</time>
      </trkpt>
      <trkpt lat="43.54533" lon="6.2536">
        <ele>207.3</ele>
        <time>2015-09-28T11:27:13Z</time>
      </trkpt>
      <trkpt lat="43.54528" lon="6.2537">
        <ele>207.3</ele>
        <time>2015-09-28T11:27:27Z</time>
      </trkpt>
      <trkpt lat="43.54526" lon="6.2538">
        <ele>207.3</ele>
        <time>2015-09-28T11:27:43Z</time>
      </trkpt>
      <trkpt lat="43.5452" lon="6.25395">
        <ele>207.3</ele>
        <time>2015-09-28T11:28:01Z</time>
      </trkpt>
      <trkpt lat="43.5452" lon="6.25398">
        <ele>207.3</ele>
        <time>2015-09-28T11:28:04Z</time>
      </trkpt>
      <trkpt lat="43.54517" lon="6.25405">
        <ele>207.78</ele>
        <time>2015-09-28T11:28:11Z</time>
      </trkpt>
      <trkpt lat="43.54517" lon="6.2541">
        <ele>207.78</ele>
        <time>2015-09-28T11:28:14Z</time>
      </trkpt>
      <trkpt lat="43.54514" lon="6.25416">
        <ele>207.78</ele>
        <time>2015-09-28T11:28:18Z</time>
      </trkpt>
      <trkpt lat="43.54505" lon="6.25438">
        <ele>208.26</ele>
        <time>2015-09-28T11:28:35Z</time>
      </trkpt>
      <trkpt lat="43.54503" lon="6.25441">
        <ele>208.26</ele>
        <time>2015-09-28T11:28:39Z</time>
      </trkpt>
      <trkpt lat="43.54498" lon="6.25456">
        <ele>208.26</ele>
        <time>2015-09-28T11:28:50Z</time>
      </trkpt>
      <trkpt lat="43.54492" lon="6.25472">
        <ele>208.74</ele>
        <time>2015-09-28T11:29:03Z</time>
      </trkpt>
      <trkpt lat="43.54491" lon="6.25474">
        <ele>208.74</ele>
        <time>2015-09-28T11:29:05Z</time>
      </trkpt>
      <trkpt lat="43.54482" lon="6.25494">
        <ele>208.74</ele>
        <time>2015-09-28T11:29:20Z</time>
      </trkpt>
      <trkpt lat="43.5448" lon="6.25498">
        <ele>209.22</ele>
        <time>2015-09-28T11:29:23Z</time>
      </trkpt>
      <trkpt lat="43.5448" lon="6.25505">
        <ele>209.22</ele>
        <time>2015-09-28T11:29:27Z</time>
      </trkpt>
      <trkpt lat="43.54478" lon="6.25507">
        <ele>209.22</ele>
        <time>2015-09-28T11:29:29Z</time>
      </trkpt>
      <trkpt lat="43.54474" lon="6.25517">
        <ele>209.22</ele>
        <time>2015-09-28T11:29:37Z</time>
      </trkpt>
      <trkpt lat="43.54464" lon="6.25535">
        <ele>209.22</ele>
        <time>2015-09-28T11:29:51Z</time>
      </trkpt>
      <trkpt lat="43.54461" lon="6.25542">
        <ele>209.7</ele>
        <time>2015-09-28T11:29:57Z</time>
      </trkpt>
      <trkpt lat="43.54452" lon="6.25557">
        <ele>209.7</ele>
        <time>2015-09-28T11:30:09Z</time>
      </trkpt>
      <trkpt lat="43.5445" lon="6.25559">
        <ele>209.7</ele>
        <time>2015-09-28T11:30:12Z</time>
      </trkpt>
      <trkpt lat="43.54444" lon="6.25573">
        <ele>210.19</ele>
        <time>2015-09-28T11:30:24Z</time>
      </trkpt>
      <trkpt lat="43.54433" lon="6.2559">
        <ele>210.19</ele>
        <time>2015-09-28T11:30:39Z</time>
      </trkpt>
      <trkpt lat="43.5443" lon="6.25593">
        <ele>210.19</ele>
        <time>2015-09-28T11:30:43Z</time>
      </trkpt>
      <trkpt lat="43.54423" lon="6.25603">
        <ele>210.67</ele>
        <time>2015-09-28T11:30:52Z</time>
      </trkpt>
      <trkpt lat="43.54416" lon="6.25611">
        <ele>210.67</ele>
        <time>2015-09-28T11:31:00Z</time>
      </trkpt>
      <trkpt lat="43.54403" lon="6.2562">
        <ele>210.67</ele>
        <time>2015-09-28T11:31:13Z</time>
      </trkpt>
      <trkpt lat="43.54391" lon="6.2563">
        <ele>211.63</ele>
        <time>2015-09-28T11:31:28Z</time>
      </trkpt>
      <trkpt lat="43.54381" lon="6.2564">
        <ele>211.63</ele>
        <time>2015-09-28T11:31:39Z</time>
      </trkpt>
      <trkpt lat="43.54369" lon="6.25654">
        <ele>211.63</ele>
        <time>2015-09-28T11:31:54Z</time>
      </trkpt>
      <trkpt lat="43.54353" lon="6.25664">
        <ele>211.63</ele>
        <time>2015-09-28T11:32:09Z</time>
      </trkpt>
      <trkpt lat="43.5434" lon="6.2567">
        <ele>212.11</ele>
        <time>2015-09-28T11:32:21Z</time>
      </trkpt>
      <trkpt lat="43.54335" lon="6.25674">
        <ele>212.11</ele>
        <time>2015-09-28T11:32:26Z</time>
      </trkpt>
      <trkpt lat="43.54332" lon="6.25675">
        <ele>212.11</ele>
        <time>2015-09-28T11:32:30Z</time>
      </trkpt>
      <trkpt lat="43.5433" lon="6.25677">
        <ele>212.11</ele>
        <time>2015-09-28T11:32:32Z</time>
      </trkpt>
      <trkpt lat="43.54317" lon="6.25682">
        <ele>212.59</ele>
        <time>2015-09-28T11:32:45Z</time>
      </trkpt>
      <trkpt lat="43.54302" lon="6.25688">
        <ele>212.59</ele>
        <time>2015-09-28T11:32:59Z</time>
      </trkpt>
      <trkpt lat="43.54283" lon="6.25692">
        <ele>212.59</ele>
        <time>2015-09-28T11:33:15Z</time>
      </trkpt>
      <trkpt lat="43.54279" lon="6.25693">
        <ele>212.59</ele>
        <time>2015-09-28T11:33:19Z</time>
      </trkpt>
      <trkpt lat="43.54276" lon="6.25693">
        <ele>212.59</ele>
        <time>2015-09-28T11:33:21Z</time>
      </trkpt>
      <trkpt lat="43.54263" lon="6.25696">
        <ele>212.59</ele>
        <time>2015-09-28T11:33:33Z</time>
      </trkpt>
      <trkpt lat="43.54256" lon="6.25697">
        <ele>213.07</ele>
        <time>2015-09-28T11:33:40Z</time>
      </trkpt>
      <trkpt lat="43.5424" lon="6.257">
        <ele>213.07</ele>
        <time>2015-09-28T11:33:55Z</time>
      </trkpt>
      <trkpt lat="43.54224" lon="6.25702">
        <ele>213.07</ele>
        <time>2015-09-28T11:34:10Z</time>
      </trkpt>
      <trkpt lat="43.54206" lon="6.25703">
        <ele>213.55</ele>
        <time>2015-09-28T11:34:26Z</time>
      </trkpt>
      <trkpt lat="43.54198" lon="6.25706">
        <ele>214.03</ele>
        <time>2015-09-28T11:34:34Z</time>
      </trkpt>
      <trkpt lat="43.54198" lon="6.25716">
        <ele>214.03</ele>
        <time>2015-09-28T11:34:42Z</time>
      </trkpt>
      <trkpt lat="43.54199" lon="6.25719">
        <ele>214.03</ele>
        <time>2015-09-28T11:34:44Z</time>
      </trkpt>
      <trkpt lat="43.54205" lon="6.25736">
        <ele>213.07</ele>
        <time>2015-09-28T11:34:59Z</time>
      </trkpt>
      <trkpt lat="43.5421" lon="6.25751">
        <ele>211.63</ele>
        <time>2015-09-28T11:35:12Z</time>
      </trkpt>
      <trkpt lat="43.5421" lon="6.25754">
        <ele>211.63</ele>
        <time>2015-09-28T11:35:14Z</time>
      </trkpt>
      <trkpt lat="43.54217" lon="6.25757">
        <ele>211.15</ele>
        <time>2015-09-28T11:35:25Z</time>
      </trkpt>
      <trkpt lat="43.54216" lon="6.25758">
        <ele>211.15</ele>
        <time>2015-09-28T11:35:37Z</time>
      </trkpt>
      <trkpt lat="43.54218" lon="6.2576">
        <ele>211.15</ele>
        <time>2015-09-28T11:35:48Z</time>
      </trkpt>
      <trkpt lat="43.5422" lon="6.2576">
        <ele>211.15</ele>
        <time>2015-09-28T11:36:07Z</time>
      </trkpt>
      <trkpt lat="43.5422" lon="6.25759">
        <ele>211.15</ele>
        <time>2015-09-28T11:36:26Z</time>
      </trkpt>
      <trkpt lat="43.54221" lon="6.2576">
        <ele>210.67</ele>
        <time>2015-09-28T11:36:57Z</time>
      </trkpt>
      <trkpt lat="43.54221" lon="6.25762">
        <ele>210.67</ele>
        <time>2015-09-28T11:37:30Z</time>
      </trkpt>
      <trkpt lat="43.54223" lon="6.25764">
        <ele>210.67</ele>
        <time>2015-09-28T11:37:44Z</time>
      </trkpt>
      <trkpt lat="43.54222" lon="6.25762">
        <ele>210.67</ele>
        <time>2015-09-28T11:37:55Z</time>
      </trkpt>
      <trkpt lat="43.54215" lon="6.25763">
        <ele>210.67</ele>
        <time>2015-09-28T11:38:08Z</time>
      </trkpt>
      <trkpt lat="43.54211" lon="6.2576">
        <ele>211.15</ele>
        <time>2015-09-28T11:38:21Z</time>
      </trkpt>
      <trkpt lat="43.54211" lon="6.25757">
        <ele>211.15</ele>
        <time>2015-09-28T11:38:34Z</time>
      </trkpt>
      <trkpt lat="43.54212" lon="6.2576">
        <ele>210.67</ele>
        <time>2015-09-28T11:38:48Z</time>
      </trkpt>
      <trkpt lat="43.54214" lon="6.25767">
        <ele>211.15</ele>
        <time>2015-09-28T11:38:59Z</time>
      </trkpt>
      <trkpt lat="43.54216" lon="6.25769">
        <ele>210.67</ele>
        <time>2015-09-28T11:39:15Z</time>
      </trkpt>
      <trkpt lat="43.54217" lon="6.25773">
        <ele>210.19</ele>
        <time>2015-09-28T11:39:20Z</time>
      </trkpt>
      <trkpt lat="43.54219" lon="6.25778">
        <ele>210.19</ele>
        <time>2015-09-28T11:39:34Z</time>
      </trkpt>
      <trkpt lat="43.54219" lon="6.25778">
        <ele>210.19</ele>
        <time>2015-09-28T11:39:47Z</time>
      </trkpt>
      <trkpt lat="43.54219" lon="6.25778">
        <ele>210.19</ele>
        <time>2015-09-28T11:39:48Z</time>
      </trkpt>
      <trkpt lat="43.54217" lon="6.25775">
        <ele>210.19</ele>
        <time>2015-09-28T11:39:53Z</time>
      </trkpt>
      <trkpt lat="43.54221" lon="6.25765">
        <ele>210.19</ele>
        <time>2015-09-28T11:40:06Z</time>
      </trkpt>
      <trkpt lat="43.5422" lon="6.25761">
        <ele>210.19</ele>
        <time>2015-09-28T11:40:25Z</time>
      </trkpt>
      <trkpt lat="43.5422" lon="6.25758">
        <ele>210.19</ele>
        <time>2015-09-28T11:40:59Z</time>
      </trkpt>
      <trkpt lat="43.54218" lon="6.25758">
        <ele>211.15</ele>
        <time>2015-09-28T11:41:23Z</time>
      </trkpt>
      <trkpt lat="43.54218" lon="6.25757">
        <ele>210.19</ele>
        <time>2015-09-28T11:41:54Z</time>
      </trkpt>
      <trkpt lat="43.54217" lon="6.25759">
        <ele>210.19</ele>
        <time>2015-09-28T11:42:25Z</time>
      </trkpt>
      <trkpt lat="43.54217" lon="6.25758">
        <ele>210.19</ele>
        <time>2015-09-28T11:42:40Z</time>
      </trkpt>
      <trkpt lat="43.54218" lon="6.25757">
        <ele>210.19</ele>
        <time>2015-09-28T11:43:11Z</time>
      </trkpt>
      <trkpt lat="43.54219" lon="6.25756">
        <ele>210.19</ele>
        <time>2015-09-28T11:43:43Z</time>
      </trkpt>
      <trkpt lat="43.54219" lon="6.25755">
        <ele>210.19</ele>
        <time>2015-09-28T11:44:08Z</time>
      </trkpt>
      <trkpt lat="43.5422" lon="6.25755">
        <ele>210.19</ele>
        <time>2015-09-28T11:44:24Z</time>
      </trkpt>
      <trkpt lat="43.54221" lon="6.25753">
        <ele>210.67</ele>
        <time>2015-09-28T11:44:38Z</time>
      </trkpt>
      <trkpt lat="43.54221" lon="6.25751">
        <ele>210.19</ele>
        <time>2015-09-28T11:45:06Z</time>
      </trkpt>
      <trkpt lat="43.5422" lon="6.25751">
        <ele>210.67</ele>
        <time>2015-09-28T11:45:36Z</time>
      </trkpt>
      <trkpt lat="43.5422" lon="6.25751">
        <ele>210.67</ele>
        <time>2015-09-28T11:46:04Z</time>
      </trkpt>
      <trkpt lat="43.54219" lon="6.2575">
        <ele>210.67</ele>
        <time>2015-09-28T11:46:27Z</time>
      </trkpt>
      <trkpt lat="43.54217" lon="6.25751">
        <ele>210.67</ele>
        <time>2015-09-28T11:47:03Z</time>
      </trkpt>
      <trkpt lat="43.54217" lon="6.2575">
        <ele>210.67</ele>
        <time>2015-09-28T11:47:32Z</time>
      </trkpt>
      <trkpt lat="43.54217" lon="6.25753">
        <ele>210.19</ele>
        <time>2015-09-28T11:47:48Z</time>
      </trkpt>
      <trkpt lat="43.54216" lon="6.25753">
        <ele>210.19</ele>
        <time>2015-09-28T11:48:10Z</time>
      </trkpt>
      <trkpt lat="43.54217" lon="6.25754">
        <ele>210.19</ele>
        <time>2015-09-28T11:48:47Z</time>
      </trkpt>
      <trkpt lat="43.54216" lon="6.25753">
        <ele>210.67</ele>
        <time>2015-09-28T11:49:24Z</time>
      </trkpt>
      <trkpt lat="43.54217" lon="6.25753">
        <ele>210.19</ele>
        <time>2015-09-28T11:49:55Z</time>
      </trkpt>
      <trkpt lat="43.54217" lon="6.25753">
        <ele>210.19</ele>
        <time>2015-09-28T11:50:30Z</time>
      </trkpt>
      <trkpt lat="43.54217" lon="6.25754">
        <ele>209.7</ele>
        <time>2015-09-28T11:51:07Z</time>
      </trkpt>
      <trkpt lat="43.54217" lon="6.25754">
        <ele>210.19</ele>
        <time>2015-09-28T11:51:29Z</time>
      </trkpt>
      <trkpt lat="43.54217" lon="6.25754">
        <ele>210.19</ele>
        <time>2015-09-28T11:51:40Z</time>
      </trkpt>
      <trkpt lat="43.54217" lon="6.25754">
        <ele>210.19</ele>
        <time>2015-09-28T11:51:55Z</time>
      </trkpt>
      <trkpt lat="43.54215" lon="6.25752">
        <ele>210.67</ele>
        <time>2015-09-28T11:52:09Z</time>
      </trkpt>
      <trkpt lat="43.54214" lon="6.25752">
        <ele>210.67</ele>
        <time>2015-09-28T11:52:26Z</time>
      </trkpt>
      <trkpt lat="43.54212" lon="6.25744">
        <ele>211.63</ele>
        <time>2015-09-28T11:52:50Z</time>
      </trkpt>
      <trkpt lat="43.5421" lon="6.25737">
        <ele>212.11</ele>
        <time>2015-09-28T11:53:02Z</time>
      </trkpt>
      <trkpt lat="43.54206" lon="6.25729">
        <ele>212.59</ele>
        <time>2015-09-28T11:53:09Z</time>
      </trkpt>
      <trkpt lat="43.54198" lon="6.25715">
        <ele>213.07</ele>
        <time>2015-09-28T11:53:21Z</time>
      </trkpt>
      <trkpt lat="43.54192" lon="6.2571">
        <ele>213.07</ele>
        <time>2015-09-28T11:53:28Z</time>
      </trkpt>
      <trkpt lat="43.5419" lon="6.25711">
        <ele>213.55</ele>
        <time>2015-09-28T11:53:30Z</time>
      </trkpt>
      <trkpt lat="43.54183" lon="6.25712">
        <ele>213.55</ele>
        <time>2015-09-28T11:53:37Z</time>
      </trkpt>
      <trkpt lat="43.54167" lon="6.25716">
        <ele>213.55</ele>
        <time>2015-09-28T11:53:52Z</time>
      </trkpt>
      <trkpt lat="43.54166" lon="6.25716">
        <ele>213.55</ele>
        <time>2015-09-28T11:54:09Z</time>
      </trkpt>
      <trkpt lat="43.54166" lon="6.25714">
        <ele>213.55</ele>
        <time>2015-09-28T11:54:34Z</time>
      </trkpt>
      <trkpt lat="43.54152" lon="6.25715">
        <ele>213.55</ele>
        <time>2015-09-28T11:54:47Z</time>
      </trkpt>
      <trkpt lat="43.54132" lon="6.25717">
        <ele>213.55</ele>
        <time>2015-09-28T11:55:03Z</time>
      </trkpt>
      <trkpt lat="43.54123" lon="6.25717">
        <ele>213.55</ele>
        <time>2015-09-28T11:55:12Z</time>
      </trkpt>
      <trkpt lat="43.5412" lon="6.25716">
        <ele>214.03</ele>
        <time>2015-09-28T11:55:15Z</time>
      </trkpt>
      <trkpt lat="43.54108" lon="6.25718">
        <ele>214.03</ele>
        <time>2015-09-28T11:55:27Z</time>
      </trkpt>
      <trkpt lat="43.54089" lon="6.25719">
        <ele>214.51</ele>
        <time>2015-09-28T11:55:42Z</time>
      </trkpt>
      <trkpt lat="43.54078" lon="6.25721">
        <ele>214.51</ele>
        <time>2015-09-28T11:55:51Z</time>
      </trkpt>
      <trkpt lat="43.54074" lon="6.25721">
        <ele>214.51</ele>
        <time>2015-09-28T11:55:55Z</time>
      </trkpt>
      <trkpt lat="43.54057" lon="6.25724">
        <ele>214.99</ele>
        <time>2015-09-28T11:56:11Z</time>
      </trkpt>
      <trkpt lat="43.54054" lon="6.25725">
        <ele>214.99</ele>
        <time>2015-09-28T11:56:15Z</time>
      </trkpt>
      <trkpt lat="43.5405" lon="6.25725">
        <ele>214.99</ele>
        <time>2015-09-28T11:56:18Z</time>
      </trkpt>
      <trkpt lat="43.54045" lon="6.25725">
        <ele>214.99</ele>
        <time>2015-09-28T11:56:22Z</time>
      </trkpt>
      <trkpt lat="43.54037" lon="6.25727">
        <ele>215.47</ele>
        <time>2015-09-28T11:56:28Z</time>
      </trkpt>
      <trkpt lat="43.54032" lon="6.25726">
        <ele>215.47</ele>
        <time>2015-09-28T11:56:32Z</time>
      </trkpt>
      <trkpt lat="43.54014" lon="6.25721">
        <ele>215.95</ele>
        <time>2015-09-28T11:56:47Z</time>
      </trkpt>
      <trkpt lat="43.54012" lon="6.25721">
        <ele>215.95</ele>
        <time>2015-09-28T11:56:49Z</time>
      </trkpt>
      <trkpt lat="43.54009" lon="6.25721">
        <ele>215.95</ele>
        <time>2015-09-28T11:57:03Z</time>
      </trkpt>
      <trkpt lat="43.54008" lon="6.25721">
        <ele>216.43</ele>
        <time>2015-09-28T11:57:15Z</time>
      </trkpt>
      <trkpt lat="43.54008" lon="6.25724">
        <ele>216.43</ele>
        <time>2015-09-28T11:57:37Z</time>
      </trkpt>
      <trkpt lat="43.54007" lon="6.25724">
        <ele>216.43</ele>
        <time>2015-09-28T11:57:56Z</time>
      </trkpt>
      <trkpt lat="43.54004" lon="6.25723">
        <ele>215.95</ele>
        <time>2015-09-28T11:58:13Z</time>
      </trkpt>
      <trkpt lat="43.54002" lon="6.25724">
        <ele>216.43</ele>
        <time>2015-09-28T11:58:37Z</time>
      </trkpt>
      <trkpt lat="43.54001" lon="6.25724">
        <ele>216.43</ele>
        <time>2015-09-28T11:59:08Z</time>
      </trkpt>
      <trkpt lat="43.54002" lon="6.25726">
        <ele>216.43</ele>
        <time>2015-09-28T11:59:35Z</time>
      </trkpt>
      <trkpt lat="43.54002" lon="6.25726">
        <ele>216.43</ele>
        <time>2015-09-28T11:59:58Z</time>
      </trkpt>
      <trkpt lat="43.53991" lon="6.25721">
        <ele>216.43</ele>
        <time>2015-09-28T12:00:12Z</time>
      </trkpt>
      <trkpt lat="43.53982" lon="6.25714">
        <ele>216.91</ele>
        <time>2015-09-28T12:00:25Z</time>
      </trkpt>
      <trkpt lat="43.53978" lon="6.25712">
        <ele>216.91</ele>
        <time>2015-09-28T12:00:30Z</time>
      </trkpt>
      <trkpt lat="43.53974" lon="6.25709">
        <ele>216.91</ele>
        <time>2015-09-28T12:00:34Z</time>
      </trkpt>
      <trkpt lat="43.53963" lon="6.25702">
        <ele>216.91</ele>
        <time>2015-09-28T12:00:46Z</time>
      </trkpt>
      <trkpt lat="43.53954" lon="6.25694">
        <ele>217.4</ele>
        <time>2015-09-28T12:01:02Z</time>
      </trkpt>
      <trkpt lat="43.53942" lon="6.25681">
        <ele>217.4</ele>
        <time>2015-09-28T12:01:17Z</time>
      </trkpt>
      <trkpt lat="43.53928" lon="6.2567">
        <ele>217.4</ele>
        <time>2015-09-28T12:01:32Z</time>
      </trkpt>
      <trkpt lat="43.53916" lon="6.25665">
        <ele>217.88</ele>
        <time>2015-09-28T12:01:41Z</time>
      </trkpt>
      <trkpt lat="43.53904" lon="6.2565">
        <ele>217.88</ele>
        <time>2015-09-28T12:01:54Z</time>
      </trkpt>
      <trkpt lat="43.53899" lon="6.25645">
        <ele>218.36</ele>
        <time>2015-09-28T12:01:59Z</time>
      </trkpt>
      <trkpt lat="43.53889" lon="6.25632">
        <ele>218.36</ele>
        <time>2015-09-28T12:02:12Z</time>
      </trkpt>
      <trkpt lat="43.53888" lon="6.25631">
        <ele>218.36</ele>
        <time>2015-09-28T12:02:13Z</time>
      </trkpt>
      <trkpt lat="43.53879" lon="6.25627">
        <ele>218.36</ele>
        <time>2015-09-28T12:02:20Z</time>
      </trkpt>
      <trkpt lat="43.53865" lon="6.25621">
        <ele>218.36</ele>
        <time>2015-09-28T12:02:33Z</time>
      </trkpt>
      <trkpt lat="43.5385" lon="6.25609">
        <ele>218.36</ele>
        <time>2015-09-28T12:02:49Z</time>
      </trkpt>
      <trkpt lat="43.53841" lon="6.25604">
        <ele>218.84</ele>
        <time>2015-09-28T12:03:00Z</time>
      </trkpt>
      <trkpt lat="43.53833" lon="6.25599">
        <ele>218.84</ele>
        <time>2015-09-28T12:03:10Z</time>
      </trkpt>
      <trkpt lat="43.5382" lon="6.25591">
        <ele>219.32</ele>
        <time>2015-09-28T12:03:23Z</time>
      </trkpt>
      <trkpt lat="43.53808" lon="6.25578">
        <ele>219.32</ele>
        <time>2015-09-28T12:03:37Z</time>
      </trkpt>
      <trkpt lat="43.53797" lon="6.25566">
        <ele>219.32</ele>
        <time>2015-09-28T12:03:50Z</time>
      </trkpt>
      <trkpt lat="43.53788" lon="6.25553">
        <ele>219.8</ele>
        <time>2015-09-28T12:04:02Z</time>
      </trkpt>
      <trkpt lat="43.53779" lon="6.25536">
        <ele>219.8</ele>
        <time>2015-09-28T12:04:16Z</time>
      </trkpt>
      <trkpt lat="43.53771" lon="6.25521">
        <ele>219.8</ele>
        <time>2015-09-28T12:04:29Z</time>
      </trkpt>
      <trkpt lat="43.53762" lon="6.25503">
        <ele>220.28</ele>
        <time>2015-09-28T12:04:43Z</time>
      </trkpt>
      <trkpt lat="43.53757" lon="6.25493">
        <ele>220.28</ele>
        <time>2015-09-28T12:04:52Z</time>
      </trkpt>
      <trkpt lat="43.53757" lon="6.2549">
        <ele>220.28</ele>
        <time>2015-09-28T12:04:54Z</time>
      </trkpt>
      <trkpt lat="43.53752" lon="6.25478">
        <ele>220.76</ele>
        <time>2015-09-28T12:05:04Z</time>
      </trkpt>
      <trkpt lat="43.5375" lon="6.25476">
        <ele>220.28</ele>
        <time>2015-09-28T12:05:06Z</time>
      </trkpt>
      <trkpt lat="43.53741" lon="6.25458">
        <ele>220.76</ele>
        <time>2015-09-28T12:05:21Z</time>
      </trkpt>
      <trkpt lat="43.53733" lon="6.25446">
        <ele>221.24</ele>
        <time>2015-09-28T12:05:31Z</time>
      </trkpt>
      <trkpt lat="43.53731" lon="6.25444">
        <ele>221.24</ele>
        <time>2015-09-28T12:05:33Z</time>
      </trkpt>
      <trkpt lat="43.53722" lon="6.25427">
        <ele>221.24</ele>
        <time>2015-09-28T12:05:48Z</time>
      </trkpt>
      <trkpt lat="43.53712" lon="6.2541">
        <ele>221.72</ele>
        <time>2015-09-28T12:06:02Z</time>
      </trkpt>
      <trkpt lat="43.53708" lon="6.25401">
        <ele>221.72</ele>
        <time>2015-09-28T12:06:09Z</time>
      </trkpt>
      <trkpt lat="43.53705" lon="6.25398">
        <ele>221.72</ele>
        <time>2015-09-28T12:06:12Z</time>
      </trkpt>
      <trkpt lat="43.53698" lon="6.25382">
        <ele>221.72</ele>
        <time>2015-09-28T12:06:25Z</time>
      </trkpt>
      <trkpt lat="43.53692" lon="6.25369">
        <ele>222.2</ele>
        <time>2015-09-28T12:06:37Z</time>
      </trkpt>
      <trkpt lat="43.53684" lon="6.25355">
        <ele>222.2</ele>
        <time>2015-09-28T12:06:48Z</time>
      </trkpt>
      <trkpt lat="43.53673" lon="6.25339">
        <ele>222.2</ele>
        <time>2015-09-28T12:07:03Z</time>
      </trkpt>
      <trkpt lat="43.53672" lon="6.25339">
        <ele>222.2</ele>
        <time>2015-09-28T12:07:04Z</time>
      </trkpt>
      <trkpt lat="43.53661" lon="6.2533">
        <ele>222.68</ele>
        <time>2015-09-28T12:07:19Z</time>
      </trkpt>
      <trkpt lat="43.53659" lon="6.25328">
        <ele>222.68</ele>
        <time>2015-09-28T12:07:22Z</time>
      </trkpt>
      <trkpt lat="43.53657" lon="6.25326">
        <ele>222.68</ele>
        <time>2015-09-28T12:07:25Z</time>
      </trkpt>
      <trkpt lat="43.53652" lon="6.25322">
        <ele>222.68</ele>
        <time>2015-09-28T12:07:30Z</time>
      </trkpt>
      <trkpt lat="43.53648" lon="6.25321">
        <ele>222.68</ele>
        <time>2015-09-28T12:07:33Z</time>
      </trkpt>
      <trkpt lat="43.53637" lon="6.25313">
        <ele>222.68</ele>
        <time>2015-09-28T12:07:45Z</time>
      </trkpt>
      <trkpt lat="43.5363" lon="6.2531">
        <ele>222.68</ele>
        <time>2015-09-28T12:07:52Z</time>
      </trkpt>
      <trkpt lat="43.53625" lon="6.25307">
        <ele>222.68</ele>
        <time>2015-09-28T12:07:56Z</time>
      </trkpt>
      <trkpt lat="43.53623" lon="6.25304">
        <ele>222.68</ele>
        <time>2015-09-28T12:07:58Z</time>
      </trkpt>
      <trkpt lat="43.53607" lon="6.253">
        <ele>222.68</ele>
        <time>2015-09-28T12:08:12Z</time>
      </trkpt>
      <trkpt lat="43.53605" lon="6.25301">
        <ele>222.68</ele>
        <time>2015-09-28T12:08:14Z</time>
      </trkpt>
      <trkpt lat="43.53602" lon="6.25302">
        <ele>222.68</ele>
        <time>2015-09-28T12:08:17Z</time>
      </trkpt>
      <trkpt lat="43.53585" lon="6.25299">
        <ele>222.68</ele>
        <time>2015-09-28T12:08:30Z</time>
      </trkpt>
      <trkpt lat="43.53578" lon="6.253">
        <ele>223.16</ele>
        <time>2015-09-28T12:08:36Z</time>
      </trkpt>
      <trkpt lat="43.53559" lon="6.253">
        <ele>223.16</ele>
        <time>2015-09-28T12:08:51Z</time>
      </trkpt>
      <trkpt lat="43.53555" lon="6.25301">
        <ele>223.16</ele>
        <time>2015-09-28T12:08:54Z</time>
      </trkpt>
      <trkpt lat="43.53542" lon="6.25306">
        <ele>223.16</ele>
        <time>2015-09-28T12:09:06Z</time>
      </trkpt>
      <trkpt lat="43.53531" lon="6.25313">
        <ele>223.16</ele>
        <time>2015-09-28T12:09:18Z</time>
      </trkpt>
      <trkpt lat="43.53516" lon="6.25319">
        <ele>223.64</ele>
        <time>2015-09-28T12:09:31Z</time>
      </trkpt>
      <trkpt lat="43.53511" lon="6.25322">
        <ele>223.64</ele>
        <time>2015-09-28T12:09:36Z</time>
      </trkpt>
      <trkpt lat="43.53502" lon="6.25324">
        <ele>223.64</ele>
        <time>2015-09-28T12:09:44Z</time>
      </trkpt>
      <trkpt lat="43.53495" lon="6.25329">
        <ele>223.64</ele>
        <time>2015-09-28T12:09:51Z</time>
      </trkpt>
      <trkpt lat="43.53481" lon="6.25339">
        <ele>223.64</ele>
        <time>2015-09-28T12:10:05Z</time>
      </trkpt>
      <trkpt lat="43.53477" lon="6.25341">
        <ele>224.12</ele>
        <time>2015-09-28T12:10:09Z</time>
      </trkpt>
      <trkpt lat="43.53462" lon="6.25346">
        <ele>224.12</ele>
        <time>2015-09-28T12:10:22Z</time>
      </trkpt>
      <trkpt lat="43.53447" lon="6.25353">
        <ele>224.12</ele>
        <time>2015-09-28T12:10:36Z</time>
      </trkpt>
      <trkpt lat="43.5344" lon="6.25355">
        <ele>224.12</ele>
        <time>2015-09-28T12:10:43Z</time>
      </trkpt>
      <trkpt lat="43.53439" lon="6.25357">
        <ele>224.12</ele>
        <time>2015-09-28T12:10:45Z</time>
      </trkpt>
      <trkpt lat="43.53427" lon="6.25358">
        <ele>224.61</ele>
        <time>2015-09-28T12:10:56Z</time>
      </trkpt>
      <trkpt lat="43.53414" lon="6.25358">
        <ele>224.61</ele>
        <time>2015-09-28T12:11:08Z</time>
      </trkpt>
      <trkpt lat="43.53401" lon="6.25359">
        <ele>224.61</ele>
        <time>2015-09-28T12:11:19Z</time>
      </trkpt>
      <trkpt lat="43.53388" lon="6.25358">
        <ele>225.09</ele>
        <time>2015-09-28T12:11:32Z</time>
      </trkpt>
      <trkpt lat="43.53374" lon="6.25358">
        <ele>225.09</ele>
        <time>2015-09-28T12:11:46Z</time>
      </trkpt>
      <trkpt lat="43.53364" lon="6.25355">
        <ele>225.57</ele>
        <time>2015-09-28T12:11:56Z</time>
      </trkpt>
      <trkpt lat="43.53349" lon="6.25356">
        <ele>225.57</ele>
        <time>2015-09-28T12:12:10Z</time>
      </trkpt>
      <trkpt lat="43.53337" lon="6.25358">
        <ele>225.57</ele>
        <time>2015-09-28T12:12:23Z</time>
      </trkpt>
      <trkpt lat="43.53335" lon="6.25358">
        <ele>225.57</ele>
        <time>2015-09-28T12:12:25Z</time>
      </trkpt>
      <trkpt lat="43.5332" lon="6.25364">
        <ele>226.05</ele>
        <time>2015-09-28T12:12:39Z</time>
      </trkpt>
      <trkpt lat="43.53314" lon="6.25366">
        <ele>226.05</ele>
        <time>2015-09-28T12:12:45Z</time>
      </trkpt>
      <trkpt lat="43.53312" lon="6.25368">
        <ele>226.05</ele>
        <time>2015-09-28T12:12:47Z</time>
      </trkpt>
      <trkpt lat="43.53297" lon="6.25373">
        <ele>226.05</ele>
        <time>2015-09-28T12:12:59Z</time>
      </trkpt>
      <trkpt lat="43.53288" lon="6.25381">
        <ele>226.05</ele>
        <time>2015-09-28T12:13:09Z</time>
      </trkpt>
      <trkpt lat="43.53278" lon="6.25386">
        <ele>226.05</ele>
        <time>2015-09-28T12:13:20Z</time>
      </trkpt>
      <trkpt lat="43.5326" lon="6.254">
        <ele>226.05</ele>
        <time>2015-09-28T12:13:37Z</time>
      </trkpt>
      <trkpt lat="43.53247" lon="6.25424">
        <ele>226.53</ele>
        <time>2015-09-28T12:13:55Z</time>
      </trkpt>
      <trkpt lat="43.53238" lon="6.25447">
        <ele>226.53</ele>
        <time>2015-09-28T12:14:10Z</time>
      </trkpt>
      <trkpt lat="43.53231" lon="6.25468">
        <ele>226.53</ele>
        <time>2015-09-28T12:14:25Z</time>
      </trkpt>
      <trkpt lat="43.53221" lon="6.2549">
        <ele>226.53</ele>
        <time>2015-09-28T12:14:42Z</time>
      </trkpt>
      <trkpt lat="43.53219" lon="6.25493">
        <ele>227.01</ele>
        <time>2015-09-28T12:14:45Z</time>
      </trkpt>
      <trkpt lat="43.53217" lon="6.25496">
        <ele>227.01</ele>
        <time>2015-09-28T12:14:48Z</time>
      </trkpt>
      <trkpt lat="43.53208" lon="6.25512">
        <ele>227.01</ele>
        <time>2015-09-28T12:15:05Z</time>
      </trkpt>
      <trkpt lat="43.532" lon="6.25527">
        <ele>227.49</ele>
        <time>2015-09-28T12:15:18Z</time>
      </trkpt>
      <trkpt lat="43.53192" lon="6.2554">
        <ele>227.49</ele>
        <time>2015-09-28T12:15:32Z</time>
      </trkpt>
      <trkpt lat="43.53184" lon="6.25556">
        <ele>227.97</ele>
        <time>2015-09-28T12:15:46Z</time>
      </trkpt>
      <trkpt lat="43.53174" lon="6.25579">
        <ele>228.45</ele>
        <time>2015-09-28T12:16:03Z</time>
      </trkpt>
      <trkpt lat="43.53173" lon="6.25584">
        <ele>228.45</ele>
        <time>2015-09-28T12:16:06Z</time>
      </trkpt>
      <trkpt lat="43.53169" lon="6.25605">
        <ele>228.93</ele>
        <time>2015-09-28T12:16:19Z</time>
      </trkpt>
      <trkpt lat="43.53163" lon="6.25624">
        <ele>229.41</ele>
        <time>2015-09-28T12:16:34Z</time>
      </trkpt>
      <trkpt lat="43.53159" lon="6.25644">
        <ele>229.89</ele>
        <time>2015-09-28T12:16:46Z</time>
      </trkpt>
      <trkpt lat="43.53157" lon="6.25661">
        <ele>229.89</ele>
        <time>2015-09-28T12:17:00Z</time>
      </trkpt>
      <trkpt lat="43.53156" lon="6.2567">
        <ele>229.89</ele>
        <time>2015-09-28T12:17:16Z</time>
      </trkpt>
      <trkpt lat="43.53152" lon="6.25689">
        <ele>230.37</ele>
        <time>2015-09-28T12:17:29Z</time>
      </trkpt>
      <trkpt lat="43.53149" lon="6.25712">
        <ele>230.37</ele>
        <time>2015-09-28T12:17:43Z</time>
      </trkpt>
      <trkpt lat="43.5315" lon="6.25737">
        <ele>230.37</ele>
        <time>2015-09-28T12:17:56Z</time>
      </trkpt>
      <trkpt lat="43.53152" lon="6.2576">
        <ele>230.85</ele>
        <time>2015-09-28T12:18:09Z</time>
      </trkpt>
      <trkpt lat="43.53153" lon="6.2578">
        <ele>230.85</ele>
        <time>2015-09-28T12:18:23Z</time>
      </trkpt>
      <trkpt lat="43.53155" lon="6.25801">
        <ele>231.33</ele>
        <time>2015-09-28T12:18:38Z</time>
      </trkpt>
      <trkpt lat="43.53156" lon="6.25815">
        <ele>231.33</ele>
        <time>2015-09-28T12:18:47Z</time>
      </trkpt>
      <trkpt lat="43.53157" lon="6.25824">
        <ele>231.33</ele>
        <time>2015-09-28T12:18:53Z</time>
      </trkpt>
      <trkpt lat="43.53157" lon="6.25837">
        <ele>231.81</ele>
        <time>2015-09-28T12:19:03Z</time>
      </trkpt>
      <trkpt lat="43.53158" lon="6.25842">
        <ele>231.33</ele>
        <time>2015-09-28T12:19:07Z</time>
      </trkpt>
      <trkpt lat="43.53158" lon="6.25847">
        <ele>231.33</ele>
        <time>2015-09-28T12:19:10Z</time>
      </trkpt>
      <trkpt lat="43.53164" lon="6.25869">
        <ele>231.81</ele>
        <time>2015-09-28T12:19:25Z</time>
      </trkpt>
      <trkpt lat="43.53164" lon="6.25874">
        <ele>231.81</ele>
        <time>2015-09-28T12:19:28Z</time>
      </trkpt>
      <trkpt lat="43.53165" lon="6.25877">
        <ele>231.81</ele>
        <time>2015-09-28T12:19:30Z</time>
      </trkpt>
      <trkpt lat="43.5317" lon="6.25897">
        <ele>231.81</ele>
        <time>2015-09-28T12:19:45Z</time>
      </trkpt>
      <trkpt lat="43.53174" lon="6.25916">
        <ele>232.3</ele>
        <time>2015-09-28T12:19:58Z</time>
      </trkpt>
      <trkpt lat="43.53177" lon="6.25942">
        <ele>232.78</ele>
        <time>2015-09-28T12:20:12Z</time>
      </trkpt>
      <trkpt lat="43.53178" lon="6.25955">
        <ele>232.78</ele>
        <time>2015-09-28T12:20:21Z</time>
      </trkpt>
      <trkpt lat="43.53181" lon="6.25976">
        <ele>232.78</ele>
        <time>2015-09-28T12:20:35Z</time>
      </trkpt>
      <trkpt lat="43.53181" lon="6.25988">
        <ele>232.78</ele>
        <time>2015-09-28T12:20:43Z</time>
      </trkpt>
      <trkpt lat="43.53182" lon="6.26011">
        <ele>232.78</ele>
        <time>2015-09-28T12:20:58Z</time>
      </trkpt>
      <trkpt lat="43.53181" lon="6.26015">
        <ele>233.26</ele>
        <time>2015-09-28T12:21:01Z</time>
      </trkpt>
      <trkpt lat="43.53181" lon="6.26037">
        <ele>233.26</ele>
        <time>2015-09-28T12:21:16Z</time>
      </trkpt>
      <trkpt lat="43.53181" lon="6.26058">
        <ele>233.74</ele>
        <time>2015-09-28T12:21:30Z</time>
      </trkpt>
      <trkpt lat="43.53183" lon="6.26082">
        <ele>233.74</ele>
        <time>2015-09-28T12:21:45Z</time>
      </trkpt>
      <trkpt lat="43.53185" lon="6.26099">
        <ele>233.74</ele>
        <time>2015-09-28T12:21:57Z</time>
      </trkpt>
      <trkpt lat="43.53186" lon="6.2613">
        <ele>233.74</ele>
        <time>2015-09-28T12:22:15Z</time>
      </trkpt>
      <trkpt lat="43.53186" lon="6.26152">
        <ele>234.22</ele>
        <time>2015-09-28T12:22:30Z</time>
      </trkpt>
      <trkpt lat="43.53186" lon="6.26153">
        <ele>234.22</ele>
        <time>2015-09-28T12:22:31Z</time>
      </trkpt>
      <trkpt lat="43.53186" lon="6.26179">
        <ele>234.22</ele>
        <time>2015-09-28T12:22:47Z</time>
      </trkpt>
      <trkpt lat="43.53186" lon="6.26202">
        <ele>234.7</ele>
        <time>2015-09-28T12:23:02Z</time>
      </trkpt>
      <trkpt lat="43.53186" lon="6.26223">
        <ele>234.7</ele>
        <time>2015-09-28T12:23:15Z</time>
      </trkpt>
      <trkpt lat="43.53186" lon="6.26232">
        <ele>234.7</ele>
        <time>2015-09-28T12:23:21Z</time>
      </trkpt>
      <trkpt lat="43.53187" lon="6.26238">
        <ele>234.7</ele>
        <time>2015-09-28T12:23:25Z</time>
      </trkpt>
      <trkpt lat="43.53187" lon="6.26265">
        <ele>234.7</ele>
        <time>2015-09-28T12:23:41Z</time>
      </trkpt>
      <trkpt lat="43.53187" lon="6.26269">
        <ele>234.7</ele>
        <time>2015-09-28T12:23:44Z</time>
      </trkpt>
      <trkpt lat="43.53188" lon="6.26285">
        <ele>234.7</ele>
        <time>2015-09-28T12:23:54Z</time>
      </trkpt>
      <trkpt lat="43.53189" lon="6.26308">
        <ele>234.7</ele>
        <time>2015-09-28T12:24:09Z</time>
      </trkpt>
      <trkpt lat="43.53189" lon="6.26315">
        <ele>234.7</ele>
        <time>2015-09-28T12:24:14Z</time>
      </trkpt>
      <trkpt lat="43.53189" lon="6.26335">
        <ele>234.7</ele>
        <time>2015-09-28T12:24:29Z</time>
      </trkpt>
      <trkpt lat="43.53187" lon="6.26356">
        <ele>234.22</ele>
        <time>2015-09-28T12:24:44Z</time>
      </trkpt>
      <trkpt lat="43.53186" lon="6.26371">
        <ele>234.22</ele>
        <time>2015-09-28T12:24:53Z</time>
      </trkpt>
      <trkpt lat="43.53181" lon="6.26397">
        <ele>234.7</ele>
        <time>2015-09-28T12:25:10Z</time>
      </trkpt>
      <trkpt lat="43.53174" lon="6.26421">
        <ele>234.7</ele>
        <time>2015-09-28T12:25:27Z</time>
      </trkpt>
      <trkpt lat="43.53165" lon="6.26439">
        <ele>234.7</ele>
        <time>2015-09-28T12:25:42Z</time>
      </trkpt>
      <trkpt lat="43.53154" lon="6.26458">
        <ele>234.7</ele>
        <time>2015-09-28T12:25:58Z</time>
      </trkpt>
      <trkpt lat="43.53149" lon="6.26465">
        <ele>234.7</ele>
        <time>2015-09-28T12:26:04Z</time>
      </trkpt>
      <trkpt lat="43.53145" lon="6.26469">
        <ele>235.18</ele>
        <time>2015-09-28T12:26:08Z</time>
      </trkpt>
      <trkpt lat="43.53131" lon="6.26486">
        <ele>235.66</ele>
        <time>2015-09-28T12:26:25Z</time>
      </trkpt>
      <trkpt lat="43.53126" lon="6.26491">
        <ele>235.66</ele>
        <time>2015-09-28T12:26:31Z</time>
      </trkpt>
      <trkpt lat="43.53123" lon="6.26493">
        <ele>235.66</ele>
        <time>2015-09-28T12:26:34Z</time>
      </trkpt>
      <trkpt lat="43.53116" lon="6.26497">
        <ele>236.14</ele>
        <time>2015-09-28T12:26:42Z</time>
      </trkpt>
      <trkpt lat="43.53112" lon="6.26502">
        <ele>236.14</ele>
        <time>2015-09-28T12:26:49Z</time>
      </trkpt>
      <trkpt lat="43.53098" lon="6.26511">
        <ele>236.14</ele>
        <time>2015-09-28T12:27:04Z</time>
      </trkpt>
      <trkpt lat="43.53097" lon="6.26512">
        <ele>236.62</ele>
        <time>2015-09-28T12:27:06Z</time>
      </trkpt>
      <trkpt lat="43.53083" lon="6.26516">
        <ele>236.62</ele>
        <time>2015-09-28T12:27:21Z</time>
      </trkpt>
      <trkpt lat="43.53068" lon="6.26519">
        <ele>237.1</ele>
        <time>2015-09-28T12:27:35Z</time>
      </trkpt>
      <trkpt lat="43.53052" lon="6.2652">
        <ele>237.58</ele>
        <time>2015-09-28T12:27:51Z</time>
      </trkpt>
      <trkpt lat="43.53035" lon="6.26518">
        <ele>238.06</ele>
        <time>2015-09-28T12:28:05Z</time>
      </trkpt>
      <trkpt lat="43.53016" lon="6.26516">
        <ele>238.54</ele>
        <time>2015-09-28T12:28:22Z</time>
      </trkpt>
      <trkpt lat="43.53009" lon="6.26515">
        <ele>239.02</ele>
        <time>2015-09-28T12:28:29Z</time>
      </trkpt>
      <trkpt lat="43.52993" lon="6.26516">
        <ele>239.02</ele>
        <time>2015-09-28T12:28:43Z</time>
      </trkpt>
      <trkpt lat="43.5298" lon="6.26516">
        <ele>239.99</ele>
        <time>2015-09-28T12:28:57Z</time>
      </trkpt>
      <trkpt lat="43.52979" lon="6.26516">
        <ele>239.99</ele>
        <time>2015-09-28T12:28:59Z</time>
      </trkpt>
      <trkpt lat="43.52973" lon="6.26517">
        <ele>239.99</ele>
        <time>2015-09-28T12:29:04Z</time>
      </trkpt>
      <trkpt lat="43.52961" lon="6.2652">
        <ele>240.47</ele>
        <time>2015-09-28T12:29:18Z</time>
      </trkpt>
      <trkpt lat="43.52946" lon="6.26524">
        <ele>240.95</ele>
        <time>2015-09-28T12:29:33Z</time>
      </trkpt>
      <trkpt lat="43.52942" lon="6.26526">
        <ele>240.95</ele>
        <time>2015-09-28T12:29:37Z</time>
      </trkpt>
      <trkpt lat="43.52925" lon="6.26534">
        <ele>241.43</ele>
        <time>2015-09-28T12:29:52Z</time>
      </trkpt>
      <trkpt lat="43.52924" lon="6.26535">
        <ele>241.43</ele>
        <time>2015-09-28T12:29:53Z</time>
      </trkpt>
      <trkpt lat="43.52907" lon="6.26544">
        <ele>241.91</ele>
        <time>2015-09-28T12:30:08Z</time>
      </trkpt>
      <trkpt lat="43.52894" lon="6.26552">
        <ele>242.39</ele>
        <time>2015-09-28T12:30:22Z</time>
      </trkpt>
      <trkpt lat="43.52892" lon="6.26554">
        <ele>242.39</ele>
        <time>2015-09-28T12:30:24Z</time>
      </trkpt>
      <trkpt lat="43.52887" lon="6.2656">
        <ele>242.39</ele>
        <time>2015-09-28T12:30:30Z</time>
      </trkpt>
      <trkpt lat="43.52883" lon="6.26565">
        <ele>242.87</ele>
        <time>2015-09-28T12:30:34Z</time>
      </trkpt>
      <trkpt lat="43.52876" lon="6.26571">
        <ele>242.87</ele>
        <time>2015-09-28T12:30:42Z</time>
      </trkpt>
      <trkpt lat="43.5287" lon="6.26581">
        <ele>243.35</ele>
        <time>2015-09-28T12:30:51Z</time>
      </trkpt>
      <trkpt lat="43.52863" lon="6.26599">
        <ele>243.83</ele>
        <time>2015-09-28T12:31:05Z</time>
      </trkpt>
      <trkpt lat="43.52863" lon="6.26613">
        <ele>243.83</ele>
        <time>2015-09-28T12:31:18Z</time>
      </trkpt>
      <trkpt lat="43.52863" lon="6.26616">
        <ele>244.31</ele>
        <time>2015-09-28T12:31:44Z</time>
      </trkpt>
      <trkpt lat="43.52863" lon="6.26616">
        <ele>244.31</ele>
        <time>2015-09-28T12:32:02Z</time>
      </trkpt>
      <trkpt lat="43.52864" lon="6.26616">
        <ele>245.27</ele>
        <time>2015-09-28T12:32:28Z</time>
      </trkpt>
      <trkpt lat="43.52864" lon="6.26616">
        <ele>244.31</ele>
        <time>2015-09-28T12:32:53Z</time>
      </trkpt>
      <trkpt lat="43.52864" lon="6.26618">
        <ele>244.31</ele>
        <time>2015-09-28T12:33:20Z</time>
      </trkpt>
      <trkpt lat="43.52863" lon="6.26618">
        <ele>243.83</ele>
        <time>2015-09-28T12:33:55Z</time>
      </trkpt>
      <trkpt lat="43.52864" lon="6.26617">
        <ele>244.31</ele>
        <time>2015-09-28T12:34:30Z</time>
      </trkpt>
      <trkpt lat="43.52864" lon="6.26618">
        <ele>243.83</ele>
        <time>2015-09-28T12:34:57Z</time>
      </trkpt>
      <trkpt lat="43.52864" lon="6.26618">
        <ele>244.31</ele>
        <time>2015-09-28T12:35:25Z</time>
      </trkpt>
      <trkpt lat="43.52864" lon="6.26619">
        <ele>243.83</ele>
        <time>2015-09-28T12:36:00Z</time>
      </trkpt>
      <trkpt lat="43.52865" lon="6.2662">
        <ele>243.83</ele>
        <time>2015-09-28T12:36:41Z</time>
      </trkpt>
      <trkpt lat="43.52865" lon="6.26621">
        <ele>243.83</ele>
        <time>2015-09-28T12:37:16Z</time>
      </trkpt>
      <trkpt lat="43.52862" lon="6.26625">
        <ele>244.31</ele>
        <time>2015-09-28T12:37:36Z</time>
      </trkpt>
      <trkpt lat="43.52855" lon="6.26639">
        <ele>244.79</ele>
        <time>2015-09-28T12:37:50Z</time>
      </trkpt>
      <trkpt lat="43.52849" lon="6.26654">
        <ele>244.79</ele>
        <time>2015-09-28T12:38:03Z</time>
      </trkpt>
      <trkpt lat="43.52849" lon="6.26657">
        <ele>245.27</ele>
        <time>2015-09-28T12:38:05Z</time>
      </trkpt>
      <trkpt lat="43.52842" lon="6.26673">
        <ele>245.27</ele>
        <time>2015-09-28T12:38:18Z</time>
      </trkpt>
      <trkpt lat="43.52841" lon="6.26675">
        <ele>245.27</ele>
        <time>2015-09-28T12:38:19Z</time>
      </trkpt>
      <trkpt lat="43.52837" lon="6.26686">
        <ele>245.75</ele>
        <time>2015-09-28T12:38:27Z</time>
      </trkpt>
      <trkpt lat="43.52835" lon="6.26698">
        <ele>246.23</ele>
        <time>2015-09-28T12:38:36Z</time>
      </trkpt>
      <trkpt lat="43.52826" lon="6.26713">
        <ele>246.23</ele>
        <time>2015-09-28T12:38:50Z</time>
      </trkpt>
      <trkpt lat="43.52821" lon="6.26729">
        <ele>246.72</ele>
        <time>2015-09-28T12:39:02Z</time>
      </trkpt>
      <trkpt lat="43.52815" lon="6.26741">
        <ele>247.2</ele>
        <time>2015-09-28T12:39:12Z</time>
      </trkpt>
      <trkpt lat="43.52805" lon="6.26762">
        <ele>247.68</ele>
        <time>2015-09-28T12:39:28Z</time>
      </trkpt>
      <trkpt lat="43.52802" lon="6.26771">
        <ele>248.16</ele>
        <time>2015-09-28T12:39:33Z</time>
      </trkpt>
      <trkpt lat="43.52793" lon="6.26785">
        <ele>248.16</ele>
        <time>2015-09-28T12:39:46Z</time>
      </trkpt>
      <trkpt lat="43.5279" lon="6.26793">
        <ele>248.64</ele>
        <time>2015-09-28T12:39:52Z</time>
      </trkpt>
      <trkpt lat="43.52789" lon="6.26794">
        <ele>248.64</ele>
        <time>2015-09-28T12:39:54Z</time>
      </trkpt>
      <trkpt lat="43.52786" lon="6.26799">
        <ele>249.12</ele>
        <time>2015-09-28T12:39:58Z</time>
      </trkpt>
      <trkpt lat="43.52774" lon="6.26813">
        <ele>249.6</ele>
        <time>2015-09-28T12:40:12Z</time>
      </trkpt>
      <trkpt lat="43.52773" lon="6.26815">
        <ele>249.6</ele>
        <time>2015-09-28T12:40:15Z</time>
      </trkpt>
      <trkpt lat="43.52771" lon="6.26818">
        <ele>249.6</ele>
        <time>2015-09-28T12:40:18Z</time>
      </trkpt>
      <trkpt lat="43.52758" lon="6.26835">
        <ele>250.08</ele>
        <time>2015-09-28T12:40:33Z</time>
      </trkpt>
      <trkpt lat="43.52753" lon="6.26839">
        <ele>250.08</ele>
        <time>2015-09-28T12:40:39Z</time>
      </trkpt>
      <trkpt lat="43.5275" lon="6.26841">
        <ele>250.56</ele>
        <time>2015-09-28T12:40:42Z</time>
      </trkpt>
      <trkpt lat="43.52742" lon="6.26849">
        <ele>250.56</ele>
        <time>2015-09-28T12:40:51Z</time>
      </trkpt>
      <trkpt lat="43.5274" lon="6.2685">
        <ele>250.56</ele>
        <time>2015-09-28T12:40:53Z</time>
      </trkpt>
      <trkpt lat="43.52738" lon="6.26853">
        <ele>250.56</ele>
        <time>2015-09-28T12:40:55Z</time>
      </trkpt>
      <trkpt lat="43.52733" lon="6.26858">
        <ele>251.04</ele>
        <time>2015-09-28T12:41:01Z</time>
      </trkpt>
      <trkpt lat="43.52722" lon="6.26865">
        <ele>251.04</ele>
        <time>2015-09-28T12:41:12Z</time>
      </trkpt>
      <trkpt lat="43.5272" lon="6.26866">
        <ele>251.52</ele>
        <time>2015-09-28T12:41:14Z</time>
      </trkpt>
      <trkpt lat="43.52706" lon="6.26873">
        <ele>252</ele>
        <time>2015-09-28T12:41:28Z</time>
      </trkpt>
      <trkpt lat="43.52695" lon="6.26881">
        <ele>252</ele>
        <time>2015-09-28T12:41:40Z</time>
      </trkpt>
      <trkpt lat="43.52681" lon="6.2689">
        <ele>252.48</ele>
        <time>2015-09-28T12:41:54Z</time>
      </trkpt>
      <trkpt lat="43.52672" lon="6.26895">
        <ele>252.96</ele>
        <time>2015-09-28T12:42:04Z</time>
      </trkpt>
      <trkpt lat="43.52664" lon="6.26898">
        <ele>253.44</ele>
        <time>2015-09-28T12:42:11Z</time>
      </trkpt>
      <trkpt lat="43.52649" lon="6.26906">
        <ele>253.93</ele>
        <time>2015-09-28T12:42:26Z</time>
      </trkpt>
      <trkpt lat="43.52642" lon="6.26908">
        <ele>253.93</ele>
        <time>2015-09-28T12:42:32Z</time>
      </trkpt>
      <trkpt lat="43.52627" lon="6.26916">
        <ele>254.41</ele>
        <time>2015-09-28T12:42:47Z</time>
      </trkpt>
      <trkpt lat="43.52613" lon="6.26926">
        <ele>254.41</ele>
        <time>2015-09-28T12:43:01Z</time>
      </trkpt>
      <trkpt lat="43.52601" lon="6.26938">
        <ele>255.37</ele>
        <time>2015-09-28T12:43:15Z</time>
      </trkpt>
      <trkpt lat="43.52588" lon="6.26952">
        <ele>256.33</ele>
        <time>2015-09-28T12:43:30Z</time>
      </trkpt>
      <trkpt lat="43.52576" lon="6.26966">
        <ele>256.33</ele>
        <time>2015-09-28T12:43:43Z</time>
      </trkpt>
      <trkpt lat="43.52567" lon="6.26976">
        <ele>256.33</ele>
        <time>2015-09-28T12:43:54Z</time>
      </trkpt>
      <trkpt lat="43.52562" lon="6.26983">
        <ele>256.81</ele>
        <time>2015-09-28T12:44:01Z</time>
      </trkpt>
      <trkpt lat="43.52556" lon="6.26991">
        <ele>257.29</ele>
        <time>2015-09-28T12:44:09Z</time>
      </trkpt>
      <trkpt lat="43.5255" lon="6.27009">
        <ele>257.77</ele>
        <time>2015-09-28T12:44:21Z</time>
      </trkpt>
      <trkpt lat="43.52549" lon="6.27023">
        <ele>257.77</ele>
        <time>2015-09-28T12:44:29Z</time>
      </trkpt>
      <trkpt lat="43.52548" lon="6.27028">
        <ele>258.25</ele>
        <time>2015-09-28T12:44:33Z</time>
      </trkpt>
      <trkpt lat="43.52543" lon="6.27051">
        <ele>258.73</ele>
        <time>2015-09-28T12:44:48Z</time>
      </trkpt>
      <trkpt lat="43.52541" lon="6.27072">
        <ele>259.21</ele>
        <time>2015-09-28T12:45:01Z</time>
      </trkpt>
      <trkpt lat="43.52541" lon="6.2708">
        <ele>259.69</ele>
        <time>2015-09-28T12:45:07Z</time>
      </trkpt>
      <trkpt lat="43.52543" lon="6.2711">
        <ele>260.17</ele>
        <time>2015-09-28T12:45:24Z</time>
      </trkpt>
      <trkpt lat="43.52546" lon="6.27131">
        <ele>260.17</ele>
        <time>2015-09-28T12:45:36Z</time>
      </trkpt>
      <trkpt lat="43.52546" lon="6.27136">
        <ele>260.65</ele>
        <time>2015-09-28T12:45:38Z</time>
      </trkpt>
      <trkpt lat="43.5255" lon="6.27151">
        <ele>260.65</ele>
        <time>2015-09-28T12:45:48Z</time>
      </trkpt>
      <trkpt lat="43.52557" lon="6.27175">
        <ele>260.65</ele>
        <time>2015-09-28T12:46:02Z</time>
      </trkpt>
      <trkpt lat="43.5256" lon="6.27187">
        <ele>260.17</ele>
        <time>2015-09-28T12:46:10Z</time>
      </trkpt>
      <trkpt lat="43.52565" lon="6.27209">
        <ele>260.17</ele>
        <time>2015-09-28T12:46:23Z</time>
      </trkpt>
      <trkpt lat="43.52569" lon="6.27229">
        <ele>260.17</ele>
        <time>2015-09-28T12:46:36Z</time>
      </trkpt>
      <trkpt lat="43.5257" lon="6.27236">
        <ele>259.69</ele>
        <time>2015-09-28T12:46:40Z</time>
      </trkpt>
      <trkpt lat="43.52572" lon="6.27259">
        <ele>259.21</ele>
        <time>2015-09-28T12:46:55Z</time>
      </trkpt>
      <trkpt lat="43.5257" lon="6.27283">
        <ele>258.73</ele>
        <time>2015-09-28T12:47:09Z</time>
      </trkpt>
      <trkpt lat="43.52571" lon="6.27296">
        <ele>258.73</ele>
        <time>2015-09-28T12:47:22Z</time>
      </trkpt>
      <trkpt lat="43.52569" lon="6.27317">
        <ele>258.25</ele>
        <time>2015-09-28T12:47:36Z</time>
      </trkpt>
      <trkpt lat="43.52564" lon="6.27338">
        <ele>257.77</ele>
        <time>2015-09-28T12:47:50Z</time>
      </trkpt>
      <trkpt lat="43.52563" lon="6.2734">
        <ele>257.77</ele>
        <time>2015-09-28T12:47:52Z</time>
      </trkpt>
      <trkpt lat="43.52562" lon="6.27344">
        <ele>257.77</ele>
        <time>2015-09-28T12:47:55Z</time>
      </trkpt>
      <trkpt lat="43.52559" lon="6.27353">
        <ele>257.77</ele>
        <time>2015-09-28T12:48:01Z</time>
      </trkpt>
      <trkpt lat="43.52552" lon="6.27372">
        <ele>257.29</ele>
        <time>2015-09-28T12:48:16Z</time>
      </trkpt>
      <trkpt lat="43.52547" lon="6.27396">
        <ele>256.81</ele>
        <time>2015-09-28T12:48:31Z</time>
      </trkpt>
      <trkpt lat="43.52544" lon="6.27404">
        <ele>256.33</ele>
        <time>2015-09-28T12:48:37Z</time>
      </trkpt>
      <trkpt lat="43.5254" lon="6.2742">
        <ele>256.33</ele>
        <time>2015-09-28T12:48:50Z</time>
      </trkpt>
      <trkpt lat="43.52534" lon="6.27435">
        <ele>255.85</ele>
        <time>2015-09-28T12:49:02Z</time>
      </trkpt>
      <trkpt lat="43.52532" lon="6.2744">
        <ele>255.85</ele>
        <time>2015-09-28T12:49:05Z</time>
      </trkpt>
      <trkpt lat="43.52527" lon="6.27463">
        <ele>255.85</ele>
        <time>2015-09-28T12:49:22Z</time>
      </trkpt>
      <trkpt lat="43.52525" lon="6.27477">
        <ele>255.85</ele>
        <time>2015-09-28T12:49:31Z</time>
      </trkpt>
      <trkpt lat="43.52532" lon="6.27498">
        <ele>255.37</ele>
        <time>2015-09-28T12:49:46Z</time>
      </trkpt>
      <trkpt lat="43.52535" lon="6.27501">
        <ele>255.37</ele>
        <time>2015-09-28T12:49:49Z</time>
      </trkpt>
      <trkpt lat="43.52543" lon="6.27525">
        <ele>255.37</ele>
        <time>2015-09-28T12:50:06Z</time>
      </trkpt>
      <trkpt lat="43.52549" lon="6.27548">
        <ele>255.85</ele>
        <time>2015-09-28T12:50:22Z</time>
      </trkpt>
      <trkpt lat="43.52556" lon="6.27571">
        <ele>256.33</ele>
        <time>2015-09-28T12:50:38Z</time>
      </trkpt>
      <trkpt lat="43.5256" lon="6.2759">
        <ele>257.29</ele>
        <time>2015-09-28T12:50:52Z</time>
      </trkpt>
      <trkpt lat="43.52562" lon="6.27611">
        <ele>257.77</ele>
        <time>2015-09-28T12:51:07Z</time>
      </trkpt>
      <trkpt lat="43.52559" lon="6.27629">
        <ele>258.25</ele>
        <time>2015-09-28T12:51:20Z</time>
      </trkpt>
      <trkpt lat="43.52558" lon="6.27635">
        <ele>258.25</ele>
        <time>2015-09-28T12:51:24Z</time>
      </trkpt>
      <trkpt lat="43.52552" lon="6.27655">
        <ele>258.25</ele>
        <time>2015-09-28T12:51:38Z</time>
      </trkpt>
      <trkpt lat="43.52546" lon="6.27669">
        <ele>258.25</ele>
        <time>2015-09-28T12:51:50Z</time>
      </trkpt>
      <trkpt lat="43.52532" lon="6.27686">
        <ele>258.25</ele>
        <time>2015-09-28T12:52:07Z</time>
      </trkpt>
      <trkpt lat="43.52529" lon="6.277">
        <ele>257.29</ele>
        <time>2015-09-28T12:52:21Z</time>
      </trkpt>
    </trkseg>
  </trk>
</gpx>